<?xml version="1.0" encoding="UTF-8" standalone="no" ?>
<gpx xmlns="http://www.topografix.com/GPX/1/1" xmlns:xsi="http://www.w3.org/2001/XMLSchema-instance" xsi:schemaLocation="http://www.topografix.com/GPX/1/1 http://www.topografix.com/GPX/1/1/gpx.xsd" version="1.1" creator="VisuGPX - https://www.visugpx.com">
  <metadata>
    <name>BEARN</name>
    <desc><![CDATA[Eysus Asasp Issor Escot]]></desc>
  </metadata>
  <trk>
    <name><![CDATA[Tracé actuel: 02 NOV 2014 16:05]]></name>
    <trkseg>
      <trkpt lat="43.19171" lon="-0.21115">
        <ele>253.44</ele>
        <time>2014-11-02T15:05:04Z</time>
      </trkpt>
      <trkpt lat="43.19171" lon="-0.21115">
        <ele>253.44</ele>
        <time>2014-11-02T15:05:05Z</time>
      </trkpt>
      <trkpt lat="43.19165" lon="-0.21119">
        <ele>252</ele>
        <time>2014-11-02T15:05:28Z</time>
      </trkpt>
      <trkpt lat="43.19166" lon="-0.21119">
        <ele>253.44</ele>
        <time>2014-11-02T15:05:42Z</time>
      </trkpt>
      <trkpt lat="43.19166" lon="-0.2112">
        <ele>253.44</ele>
        <time>2014-11-02T15:05:51Z</time>
      </trkpt>
      <trkpt lat="43.19166" lon="-0.21119">
        <ele>253.44</ele>
        <time>2014-11-02T15:05:53Z</time>
      </trkpt>
      <trkpt lat="43.19168" lon="-0.21123">
        <ele>253.44</ele>
        <time>2014-11-02T15:06:03Z</time>
      </trkpt>
      <trkpt lat="43.1917" lon="-0.21121">
        <ele>253.44</ele>
        <time>2014-11-02T15:06:13Z</time>
      </trkpt>
      <trkpt lat="43.19158" lon="-0.2112">
        <ele>253.93</ele>
        <time>2014-11-02T15:06:21Z</time>
      </trkpt>
      <trkpt lat="43.19156" lon="-0.21126">
        <ele>252.96</ele>
        <time>2014-11-02T15:06:22Z</time>
      </trkpt>
      <trkpt lat="43.19156" lon="-0.21132">
        <ele>252.96</ele>
        <time>2014-11-02T15:06:23Z</time>
      </trkpt>
      <trkpt lat="43.19155" lon="-0.21138">
        <ele>253.44</ele>
        <time>2014-11-02T15:06:24Z</time>
      </trkpt>
      <trkpt lat="43.19156" lon="-0.21144">
        <ele>253.93</ele>
        <time>2014-11-02T15:06:25Z</time>
      </trkpt>
      <trkpt lat="43.19156" lon="-0.21149">
        <ele>253.44</ele>
        <time>2014-11-02T15:06:26Z</time>
      </trkpt>
      <trkpt lat="43.19158" lon="-0.21153">
        <ele>253.44</ele>
        <time>2014-11-02T15:06:27Z</time>
      </trkpt>
      <trkpt lat="43.19161" lon="-0.21156">
        <ele>253.44</ele>
        <time>2014-11-02T15:06:28Z</time>
      </trkpt>
      <trkpt lat="43.19165" lon="-0.21158">
        <ele>253.93</ele>
        <time>2014-11-02T15:06:29Z</time>
      </trkpt>
      <trkpt lat="43.1917" lon="-0.21159">
        <ele>253.93</ele>
        <time>2014-11-02T15:06:30Z</time>
      </trkpt>
      <trkpt lat="43.19174" lon="-0.2116">
        <ele>253.44</ele>
        <time>2014-11-02T15:06:31Z</time>
      </trkpt>
      <trkpt lat="43.19187" lon="-0.21162">
        <ele>253.93</ele>
        <time>2014-11-02T15:06:34Z</time>
      </trkpt>
      <trkpt lat="43.1921" lon="-0.21171">
        <ele>252.96</ele>
        <time>2014-11-02T15:06:39Z</time>
      </trkpt>
      <trkpt lat="43.19214" lon="-0.21173">
        <ele>253.44</ele>
        <time>2014-11-02T15:06:40Z</time>
      </trkpt>
      <trkpt lat="43.19218" lon="-0.21175">
        <ele>252.96</ele>
        <time>2014-11-02T15:06:41Z</time>
      </trkpt>
      <trkpt lat="43.19226" lon="-0.2118">
        <ele>253.44</ele>
        <time>2014-11-02T15:06:43Z</time>
      </trkpt>
      <trkpt lat="43.19272" lon="-0.21218">
        <ele>252.48</ele>
        <time>2014-11-02T15:06:53Z</time>
      </trkpt>
      <trkpt lat="43.19277" lon="-0.21222">
        <ele>252.96</ele>
        <time>2014-11-02T15:06:54Z</time>
      </trkpt>
      <trkpt lat="43.19281" lon="-0.21227">
        <ele>252.48</ele>
        <time>2014-11-02T15:06:55Z</time>
      </trkpt>
      <trkpt lat="43.19336" lon="-0.21303">
        <ele>251.52</ele>
        <time>2014-11-02T15:07:09Z</time>
      </trkpt>
      <trkpt lat="43.1934" lon="-0.21308">
        <ele>251.52</ele>
        <time>2014-11-02T15:07:10Z</time>
      </trkpt>
      <trkpt lat="43.19345" lon="-0.21313">
        <ele>251.04</ele>
        <time>2014-11-02T15:07:11Z</time>
      </trkpt>
      <trkpt lat="43.19349" lon="-0.21316">
        <ele>251.52</ele>
        <time>2014-11-02T15:07:12Z</time>
      </trkpt>
      <trkpt lat="43.19355" lon="-0.21319">
        <ele>251.04</ele>
        <time>2014-11-02T15:07:13Z</time>
      </trkpt>
      <trkpt lat="43.1936" lon="-0.21321">
        <ele>251.04</ele>
        <time>2014-11-02T15:07:14Z</time>
      </trkpt>
      <trkpt lat="43.19366" lon="-0.21323">
        <ele>251.52</ele>
        <time>2014-11-02T15:07:15Z</time>
      </trkpt>
      <trkpt lat="43.19442" lon="-0.2133">
        <ele>251.04</ele>
        <time>2014-11-02T15:07:30Z</time>
      </trkpt>
      <trkpt lat="43.19451" lon="-0.21328">
        <ele>251.52</ele>
        <time>2014-11-02T15:07:32Z</time>
      </trkpt>
      <trkpt lat="43.19455" lon="-0.21326">
        <ele>252</ele>
        <time>2014-11-02T15:07:33Z</time>
      </trkpt>
      <trkpt lat="43.19459" lon="-0.21323">
        <ele>252</ele>
        <time>2014-11-02T15:07:34Z</time>
      </trkpt>
      <trkpt lat="43.19463" lon="-0.2132">
        <ele>251.52</ele>
        <time>2014-11-02T15:07:35Z</time>
      </trkpt>
      <trkpt lat="43.19467" lon="-0.21316">
        <ele>251.52</ele>
        <time>2014-11-02T15:07:36Z</time>
      </trkpt>
      <trkpt lat="43.19471" lon="-0.21311">
        <ele>252</ele>
        <time>2014-11-02T15:07:37Z</time>
      </trkpt>
      <trkpt lat="43.19474" lon="-0.21306">
        <ele>252</ele>
        <time>2014-11-02T15:07:38Z</time>
      </trkpt>
      <trkpt lat="43.19492" lon="-0.21277">
        <ele>251.52</ele>
        <time>2014-11-02T15:07:43Z</time>
      </trkpt>
      <trkpt lat="43.19498" lon="-0.21264">
        <ele>251.52</ele>
        <time>2014-11-02T15:07:45Z</time>
      </trkpt>
      <trkpt lat="43.19503" lon="-0.21251">
        <ele>252</ele>
        <time>2014-11-02T15:07:47Z</time>
      </trkpt>
      <trkpt lat="43.19504" lon="-0.21244">
        <ele>251.52</ele>
        <time>2014-11-02T15:07:48Z</time>
      </trkpt>
      <trkpt lat="43.19521" lon="-0.21131">
        <ele>252.48</ele>
        <time>2014-11-02T15:08:05Z</time>
      </trkpt>
      <trkpt lat="43.19522" lon="-0.21125">
        <ele>252.48</ele>
        <time>2014-11-02T15:08:06Z</time>
      </trkpt>
      <trkpt lat="43.19523" lon="-0.21117">
        <ele>252</ele>
        <time>2014-11-02T15:08:07Z</time>
      </trkpt>
      <trkpt lat="43.19524" lon="-0.2111">
        <ele>252.48</ele>
        <time>2014-11-02T15:08:08Z</time>
      </trkpt>
      <trkpt lat="43.19525" lon="-0.21103">
        <ele>252</ele>
        <time>2014-11-02T15:08:09Z</time>
      </trkpt>
      <trkpt lat="43.19531" lon="-0.21055">
        <ele>251.52</ele>
        <time>2014-11-02T15:08:16Z</time>
      </trkpt>
      <trkpt lat="43.19532" lon="-0.21048">
        <ele>251.04</ele>
        <time>2014-11-02T15:08:17Z</time>
      </trkpt>
      <trkpt lat="43.19532" lon="-0.21041">
        <ele>251.04</ele>
        <time>2014-11-02T15:08:18Z</time>
      </trkpt>
      <trkpt lat="43.19534" lon="-0.21035">
        <ele>251.04</ele>
        <time>2014-11-02T15:08:19Z</time>
      </trkpt>
      <trkpt lat="43.19535" lon="-0.21028">
        <ele>251.04</ele>
        <time>2014-11-02T15:08:20Z</time>
      </trkpt>
      <trkpt lat="43.19544" lon="-0.21">
        <ele>251.04</ele>
        <time>2014-11-02T15:08:25Z</time>
      </trkpt>
      <trkpt lat="43.19549" lon="-0.20988">
        <ele>251.04</ele>
        <time>2014-11-02T15:08:27Z</time>
      </trkpt>
      <trkpt lat="43.19551" lon="-0.20982">
        <ele>251.52</ele>
        <time>2014-11-02T15:08:28Z</time>
      </trkpt>
      <trkpt lat="43.19553" lon="-0.20976">
        <ele>251.04</ele>
        <time>2014-11-02T15:08:29Z</time>
      </trkpt>
      <trkpt lat="43.19589" lon="-0.20882">
        <ele>251.52</ele>
        <time>2014-11-02T15:08:45Z</time>
      </trkpt>
      <trkpt lat="43.19622" lon="-0.20788">
        <ele>252.48</ele>
        <time>2014-11-02T15:09:01Z</time>
      </trkpt>
      <trkpt lat="43.19654" lon="-0.20698">
        <ele>252.48</ele>
        <time>2014-11-02T15:09:17Z</time>
      </trkpt>
      <trkpt lat="43.1969" lon="-0.20603">
        <ele>252.96</ele>
        <time>2014-11-02T15:09:34Z</time>
      </trkpt>
      <trkpt lat="43.19722" lon="-0.20519">
        <ele>254.41</ele>
        <time>2014-11-02T15:09:49Z</time>
      </trkpt>
      <trkpt lat="43.19731" lon="-0.20498">
        <ele>254.41</ele>
        <time>2014-11-02T15:09:53Z</time>
      </trkpt>
      <trkpt lat="43.19734" lon="-0.20493">
        <ele>254.41</ele>
        <time>2014-11-02T15:09:54Z</time>
      </trkpt>
      <trkpt lat="43.19746" lon="-0.20476">
        <ele>254.89</ele>
        <time>2014-11-02T15:09:58Z</time>
      </trkpt>
      <trkpt lat="43.1975" lon="-0.20473">
        <ele>255.37</ele>
        <time>2014-11-02T15:09:59Z</time>
      </trkpt>
      <trkpt lat="43.19753" lon="-0.2047">
        <ele>255.37</ele>
        <time>2014-11-02T15:10:00Z</time>
      </trkpt>
      <trkpt lat="43.19767" lon="-0.20457">
        <ele>255.37</ele>
        <time>2014-11-02T15:10:04Z</time>
      </trkpt>
      <trkpt lat="43.19771" lon="-0.20454">
        <ele>255.37</ele>
        <time>2014-11-02T15:10:05Z</time>
      </trkpt>
      <trkpt lat="43.19808" lon="-0.20398">
        <ele>255.85</ele>
        <time>2014-11-02T15:10:17Z</time>
      </trkpt>
      <trkpt lat="43.19823" lon="-0.20343">
        <ele>256.81</ele>
        <time>2014-11-02T15:10:26Z</time>
      </trkpt>
      <trkpt lat="43.19827" lon="-0.20331">
        <ele>257.29</ele>
        <time>2014-11-02T15:10:28Z</time>
      </trkpt>
      <trkpt lat="43.1983" lon="-0.20326">
        <ele>257.29</ele>
        <time>2014-11-02T15:10:29Z</time>
      </trkpt>
      <trkpt lat="43.19833" lon="-0.20321">
        <ele>257.29</ele>
        <time>2014-11-02T15:10:30Z</time>
      </trkpt>
      <trkpt lat="43.19837" lon="-0.20317">
        <ele>257.77</ele>
        <time>2014-11-02T15:10:31Z</time>
      </trkpt>
      <trkpt lat="43.1984" lon="-0.20314">
        <ele>257.77</ele>
        <time>2014-11-02T15:10:32Z</time>
      </trkpt>
      <trkpt lat="43.19844" lon="-0.20311">
        <ele>257.77</ele>
        <time>2014-11-02T15:10:33Z</time>
      </trkpt>
      <trkpt lat="43.19856" lon="-0.20301">
        <ele>257.77</ele>
        <time>2014-11-02T15:10:36Z</time>
      </trkpt>
      <trkpt lat="43.19859" lon="-0.20298">
        <ele>257.77</ele>
        <time>2014-11-02T15:10:37Z</time>
      </trkpt>
      <trkpt lat="43.19863" lon="-0.20294">
        <ele>257.77</ele>
        <time>2014-11-02T15:10:38Z</time>
      </trkpt>
      <trkpt lat="43.19868" lon="-0.20292">
        <ele>257.77</ele>
        <time>2014-11-02T15:10:39Z</time>
      </trkpt>
      <trkpt lat="43.19872" lon="-0.2029">
        <ele>257.77</ele>
        <time>2014-11-02T15:10:40Z</time>
      </trkpt>
      <trkpt lat="43.19876" lon="-0.20288">
        <ele>258.25</ele>
        <time>2014-11-02T15:10:41Z</time>
      </trkpt>
      <trkpt lat="43.19881" lon="-0.20287">
        <ele>257.77</ele>
        <time>2014-11-02T15:10:42Z</time>
      </trkpt>
      <trkpt lat="43.19894" lon="-0.20285">
        <ele>257.77</ele>
        <time>2014-11-02T15:10:45Z</time>
      </trkpt>
      <trkpt lat="43.19916" lon="-0.20287">
        <ele>258.25</ele>
        <time>2014-11-02T15:10:50Z</time>
      </trkpt>
      <trkpt lat="43.1992" lon="-0.20287">
        <ele>258.25</ele>
        <time>2014-11-02T15:10:51Z</time>
      </trkpt>
      <trkpt lat="43.19924" lon="-0.20287">
        <ele>258.25</ele>
        <time>2014-11-02T15:10:52Z</time>
      </trkpt>
      <trkpt lat="43.19982" lon="-0.20277">
        <ele>258.25</ele>
        <time>2014-11-02T15:11:05Z</time>
      </trkpt>
      <trkpt lat="43.19986" lon="-0.20275">
        <ele>258.25</ele>
        <time>2014-11-02T15:11:06Z</time>
      </trkpt>
      <trkpt lat="43.1999" lon="-0.20271">
        <ele>258.25</ele>
        <time>2014-11-02T15:11:07Z</time>
      </trkpt>
      <trkpt lat="43.19994" lon="-0.20267">
        <ele>258.25</ele>
        <time>2014-11-02T15:11:08Z</time>
      </trkpt>
      <trkpt lat="43.19997" lon="-0.20263">
        <ele>258.25</ele>
        <time>2014-11-02T15:11:09Z</time>
      </trkpt>
      <trkpt lat="43.2" lon="-0.20259">
        <ele>258.25</ele>
        <time>2014-11-02T15:11:10Z</time>
      </trkpt>
      <trkpt lat="43.20003" lon="-0.20254">
        <ele>258.73</ele>
        <time>2014-11-02T15:11:11Z</time>
      </trkpt>
      <trkpt lat="43.20006" lon="-0.20249">
        <ele>258.25</ele>
        <time>2014-11-02T15:11:12Z</time>
      </trkpt>
      <trkpt lat="43.20052" lon="-0.20175">
        <ele>259.69</ele>
        <time>2014-11-02T15:11:28Z</time>
      </trkpt>
      <trkpt lat="43.20082" lon="-0.20114">
        <ele>261.14</ele>
        <time>2014-11-02T15:11:42Z</time>
      </trkpt>
      <trkpt lat="43.20072" lon="-0.20045">
        <ele>262.58</ele>
        <time>2014-11-02T15:11:56Z</time>
      </trkpt>
      <trkpt lat="43.20046" lon="-0.19956">
        <ele>264.98</ele>
        <time>2014-11-02T15:12:14Z</time>
      </trkpt>
      <trkpt lat="43.20026" lon="-0.19882">
        <ele>267.86</ele>
        <time>2014-11-02T15:12:29Z</time>
      </trkpt>
      <trkpt lat="43.20016" lon="-0.19834">
        <ele>269.31</ele>
        <time>2014-11-02T15:12:40Z</time>
      </trkpt>
      <trkpt lat="43.20006" lon="-0.19777">
        <ele>271.71</ele>
        <time>2014-11-02T15:12:52Z</time>
      </trkpt>
      <trkpt lat="43.19999" lon="-0.19733">
        <ele>272.67</ele>
        <time>2014-11-02T15:13:00Z</time>
      </trkpt>
      <trkpt lat="43.19998" lon="-0.19727">
        <ele>273.15</ele>
        <time>2014-11-02T15:13:01Z</time>
      </trkpt>
      <trkpt lat="43.19986" lon="-0.19681">
        <ele>274.11</ele>
        <time>2014-11-02T15:13:10Z</time>
      </trkpt>
      <trkpt lat="43.19965" lon="-0.19622">
        <ele>274.59</ele>
        <time>2014-11-02T15:13:21Z</time>
      </trkpt>
      <trkpt lat="43.19956" lon="-0.19588">
        <ele>275.56</ele>
        <time>2014-11-02T15:13:27Z</time>
      </trkpt>
      <trkpt lat="43.19954" lon="-0.19582">
        <ele>275.56</ele>
        <time>2014-11-02T15:13:28Z</time>
      </trkpt>
      <trkpt lat="43.19953" lon="-0.19577">
        <ele>275.56</ele>
        <time>2014-11-02T15:13:29Z</time>
      </trkpt>
      <trkpt lat="43.19951" lon="-0.19572">
        <ele>275.56</ele>
        <time>2014-11-02T15:13:30Z</time>
      </trkpt>
      <trkpt lat="43.19949" lon="-0.19567">
        <ele>275.56</ele>
        <time>2014-11-02T15:13:31Z</time>
      </trkpt>
      <trkpt lat="43.19934" lon="-0.19518">
        <ele>277</ele>
        <time>2014-11-02T15:13:42Z</time>
      </trkpt>
      <trkpt lat="43.1992" lon="-0.19468">
        <ele>277</ele>
        <time>2014-11-02T15:13:53Z</time>
      </trkpt>
      <trkpt lat="43.19916" lon="-0.19416">
        <ele>277</ele>
        <time>2014-11-02T15:14:03Z</time>
      </trkpt>
      <trkpt lat="43.19917" lon="-0.1941">
        <ele>277.48</ele>
        <time>2014-11-02T15:14:04Z</time>
      </trkpt>
      <trkpt lat="43.19912" lon="-0.19353">
        <ele>277.96</ele>
        <time>2014-11-02T15:14:15Z</time>
      </trkpt>
      <trkpt lat="43.19908" lon="-0.19314">
        <ele>279.4</ele>
        <time>2014-11-02T15:14:25Z</time>
      </trkpt>
      <trkpt lat="43.19896" lon="-0.19284">
        <ele>282.28</ele>
        <time>2014-11-02T15:14:37Z</time>
      </trkpt>
      <trkpt lat="43.19885" lon="-0.19238">
        <ele>282.77</ele>
        <time>2014-11-02T15:14:48Z</time>
      </trkpt>
      <trkpt lat="43.19877" lon="-0.19193">
        <ele>283.73</ele>
        <time>2014-11-02T15:14:59Z</time>
      </trkpt>
      <trkpt lat="43.19854" lon="-0.19137">
        <ele>283.73</ele>
        <time>2014-11-02T15:15:10Z</time>
      </trkpt>
      <trkpt lat="43.19837" lon="-0.19111">
        <ele>283.73</ele>
        <time>2014-11-02T15:15:17Z</time>
      </trkpt>
      <trkpt lat="43.19836" lon="-0.19108">
        <ele>283.73</ele>
        <time>2014-11-02T15:15:18Z</time>
      </trkpt>
      <trkpt lat="43.19833" lon="-0.19104">
        <ele>284.21</ele>
        <time>2014-11-02T15:15:19Z</time>
      </trkpt>
      <trkpt lat="43.19831" lon="-0.191">
        <ele>284.21</ele>
        <time>2014-11-02T15:15:20Z</time>
      </trkpt>
      <trkpt lat="43.19828" lon="-0.19097">
        <ele>284.21</ele>
        <time>2014-11-02T15:15:21Z</time>
      </trkpt>
      <trkpt lat="43.19806" lon="-0.19066">
        <ele>284.69</ele>
        <time>2014-11-02T15:15:29Z</time>
      </trkpt>
      <trkpt lat="43.19805" lon="-0.19061">
        <ele>284.69</ele>
        <time>2014-11-02T15:15:30Z</time>
      </trkpt>
      <trkpt lat="43.19803" lon="-0.19057">
        <ele>285.17</ele>
        <time>2014-11-02T15:15:31Z</time>
      </trkpt>
      <trkpt lat="43.19801" lon="-0.19054">
        <ele>285.17</ele>
        <time>2014-11-02T15:15:32Z</time>
      </trkpt>
      <trkpt lat="43.19799" lon="-0.19051">
        <ele>285.17</ele>
        <time>2014-11-02T15:15:33Z</time>
      </trkpt>
      <trkpt lat="43.19797" lon="-0.19048">
        <ele>285.17</ele>
        <time>2014-11-02T15:15:34Z</time>
      </trkpt>
      <trkpt lat="43.19772" lon="-0.19008">
        <ele>285.65</ele>
        <time>2014-11-02T15:15:44Z</time>
      </trkpt>
      <trkpt lat="43.19747" lon="-0.18968">
        <ele>286.61</ele>
        <time>2014-11-02T15:15:54Z</time>
      </trkpt>
      <trkpt lat="43.19725" lon="-0.18944">
        <ele>288.05</ele>
        <time>2014-11-02T15:16:03Z</time>
      </trkpt>
      <trkpt lat="43.19704" lon="-0.18925">
        <ele>289.01</ele>
        <time>2014-11-02T15:16:11Z</time>
      </trkpt>
      <trkpt lat="43.19679" lon="-0.18911">
        <ele>288.05</ele>
        <time>2014-11-02T15:16:17Z</time>
      </trkpt>
      <trkpt lat="43.19661" lon="-0.189">
        <ele>287.09</ele>
        <time>2014-11-02T15:16:21Z</time>
      </trkpt>
      <trkpt lat="43.19657" lon="-0.18896">
        <ele>287.57</ele>
        <time>2014-11-02T15:16:22Z</time>
      </trkpt>
      <trkpt lat="43.19623" lon="-0.18877">
        <ele>288.53</ele>
        <time>2014-11-02T15:16:32Z</time>
      </trkpt>
      <trkpt lat="43.19603" lon="-0.18873">
        <ele>289.97</ele>
        <time>2014-11-02T15:16:39Z</time>
      </trkpt>
      <trkpt lat="43.19597" lon="-0.18872">
        <ele>290.46</ele>
        <time>2014-11-02T15:16:42Z</time>
      </trkpt>
      <trkpt lat="43.19593" lon="-0.18871">
        <ele>290.94</ele>
        <time>2014-11-02T15:16:43Z</time>
      </trkpt>
      <trkpt lat="43.1959" lon="-0.1887">
        <ele>290.94</ele>
        <time>2014-11-02T15:16:44Z</time>
      </trkpt>
      <trkpt lat="43.19587" lon="-0.18869">
        <ele>290.94</ele>
        <time>2014-11-02T15:16:45Z</time>
      </trkpt>
      <trkpt lat="43.19585" lon="-0.18868">
        <ele>291.9</ele>
        <time>2014-11-02T15:16:46Z</time>
      </trkpt>
      <trkpt lat="43.19582" lon="-0.18868">
        <ele>291.42</ele>
        <time>2014-11-02T15:16:47Z</time>
      </trkpt>
      <trkpt lat="43.19548" lon="-0.18853">
        <ele>293.82</ele>
        <time>2014-11-02T15:16:59Z</time>
      </trkpt>
      <trkpt lat="43.19517" lon="-0.1884">
        <ele>296.7</ele>
        <time>2014-11-02T15:17:10Z</time>
      </trkpt>
      <trkpt lat="43.19496" lon="-0.18837">
        <ele>298.63</ele>
        <time>2014-11-02T15:17:20Z</time>
      </trkpt>
      <trkpt lat="43.19477" lon="-0.18832">
        <ele>301.51</ele>
        <time>2014-11-02T15:17:32Z</time>
      </trkpt>
      <trkpt lat="43.19456" lon="-0.18831">
        <ele>303.91</ele>
        <time>2014-11-02T15:17:44Z</time>
      </trkpt>
      <trkpt lat="43.19453" lon="-0.18831">
        <ele>303.91</ele>
        <time>2014-11-02T15:17:46Z</time>
      </trkpt>
      <trkpt lat="43.19452" lon="-0.18831">
        <ele>303.91</ele>
        <time>2014-11-02T15:17:47Z</time>
      </trkpt>
      <trkpt lat="43.19423" lon="-0.18847">
        <ele>306.32</ele>
        <time>2014-11-02T15:18:00Z</time>
      </trkpt>
      <trkpt lat="43.19422" lon="-0.18848">
        <ele>306.8</ele>
        <time>2014-11-02T15:18:01Z</time>
      </trkpt>
      <trkpt lat="43.1942" lon="-0.18848">
        <ele>306.8</ele>
        <time>2014-11-02T15:18:02Z</time>
      </trkpt>
      <trkpt lat="43.19404" lon="-0.18854">
        <ele>309.2</ele>
        <time>2014-11-02T15:18:13Z</time>
      </trkpt>
      <trkpt lat="43.19391" lon="-0.1886">
        <ele>310.16</ele>
        <time>2014-11-02T15:18:20Z</time>
      </trkpt>
      <trkpt lat="43.1939" lon="-0.1886">
        <ele>310.16</ele>
        <time>2014-11-02T15:18:21Z</time>
      </trkpt>
      <trkpt lat="43.19388" lon="-0.18861">
        <ele>310.64</ele>
        <time>2014-11-02T15:18:22Z</time>
      </trkpt>
      <trkpt lat="43.19364" lon="-0.18868">
        <ele>313.53</ele>
        <time>2014-11-02T15:18:36Z</time>
      </trkpt>
      <trkpt lat="43.19348" lon="-0.18874">
        <ele>315.93</ele>
        <time>2014-11-02T15:18:50Z</time>
      </trkpt>
      <trkpt lat="43.19346" lon="-0.18876">
        <ele>316.41</ele>
        <time>2014-11-02T15:18:52Z</time>
      </trkpt>
      <trkpt lat="43.19343" lon="-0.18876">
        <ele>316.41</ele>
        <time>2014-11-02T15:18:53Z</time>
      </trkpt>
      <trkpt lat="43.19337" lon="-0.18878">
        <ele>317.37</ele>
        <time>2014-11-02T15:18:56Z</time>
      </trkpt>
      <trkpt lat="43.19334" lon="-0.18877">
        <ele>317.85</ele>
        <time>2014-11-02T15:18:57Z</time>
      </trkpt>
      <trkpt lat="43.19332" lon="-0.18878">
        <ele>317.85</ele>
        <time>2014-11-02T15:18:58Z</time>
      </trkpt>
      <trkpt lat="43.19327" lon="-0.18879">
        <ele>318.33</ele>
        <time>2014-11-02T15:19:02Z</time>
      </trkpt>
      <trkpt lat="43.19325" lon="-0.1888">
        <ele>318.81</ele>
        <time>2014-11-02T15:19:03Z</time>
      </trkpt>
      <trkpt lat="43.19313" lon="-0.18887">
        <ele>320.26</ele>
        <time>2014-11-02T15:19:13Z</time>
      </trkpt>
      <trkpt lat="43.19302" lon="-0.18889">
        <ele>322.66</ele>
        <time>2014-11-02T15:19:25Z</time>
      </trkpt>
      <trkpt lat="43.19296" lon="-0.18891">
        <ele>323.14</ele>
        <time>2014-11-02T15:19:29Z</time>
      </trkpt>
      <trkpt lat="43.19295" lon="-0.18892">
        <ele>323.62</ele>
        <time>2014-11-02T15:19:30Z</time>
      </trkpt>
      <trkpt lat="43.19293" lon="-0.18894">
        <ele>323.62</ele>
        <time>2014-11-02T15:19:31Z</time>
      </trkpt>
      <trkpt lat="43.19292" lon="-0.18895">
        <ele>324.1</ele>
        <time>2014-11-02T15:19:32Z</time>
      </trkpt>
      <trkpt lat="43.1929" lon="-0.18896">
        <ele>324.1</ele>
        <time>2014-11-02T15:19:33Z</time>
      </trkpt>
      <trkpt lat="43.19289" lon="-0.18897">
        <ele>324.58</ele>
        <time>2014-11-02T15:19:34Z</time>
      </trkpt>
      <trkpt lat="43.19286" lon="-0.18898">
        <ele>325.06</ele>
        <time>2014-11-02T15:19:35Z</time>
      </trkpt>
      <trkpt lat="43.19283" lon="-0.18899">
        <ele>324.58</ele>
        <time>2014-11-02T15:19:36Z</time>
      </trkpt>
      <trkpt lat="43.19281" lon="-0.18901">
        <ele>325.06</ele>
        <time>2014-11-02T15:19:37Z</time>
      </trkpt>
      <trkpt lat="43.19279" lon="-0.18902">
        <ele>325.06</ele>
        <time>2014-11-02T15:19:38Z</time>
      </trkpt>
      <trkpt lat="43.19256" lon="-0.18916">
        <ele>327.47</ele>
        <time>2014-11-02T15:19:49Z</time>
      </trkpt>
      <trkpt lat="43.19235" lon="-0.18941">
        <ele>329.39</ele>
        <time>2014-11-02T15:20:02Z</time>
      </trkpt>
      <trkpt lat="43.1923" lon="-0.18948">
        <ele>330.35</ele>
        <time>2014-11-02T15:20:06Z</time>
      </trkpt>
      <trkpt lat="43.19228" lon="-0.18951">
        <ele>330.35</ele>
        <time>2014-11-02T15:20:07Z</time>
      </trkpt>
      <trkpt lat="43.19226" lon="-0.18954">
        <ele>330.35</ele>
        <time>2014-11-02T15:20:08Z</time>
      </trkpt>
      <trkpt lat="43.19219" lon="-0.18962">
        <ele>331.31</ele>
        <time>2014-11-02T15:20:12Z</time>
      </trkpt>
      <trkpt lat="43.19218" lon="-0.18962">
        <ele>331.31</ele>
        <time>2014-11-02T15:20:13Z</time>
      </trkpt>
      <trkpt lat="43.19214" lon="-0.1896">
        <ele>332.27</ele>
        <time>2014-11-02T15:20:18Z</time>
      </trkpt>
      <trkpt lat="43.19204" lon="-0.18953">
        <ele>333.71</ele>
        <time>2014-11-02T15:20:25Z</time>
      </trkpt>
      <trkpt lat="43.19195" lon="-0.18953">
        <ele>335.16</ele>
        <time>2014-11-02T15:20:30Z</time>
      </trkpt>
      <trkpt lat="43.19173" lon="-0.18971">
        <ele>337.56</ele>
        <time>2014-11-02T15:20:43Z</time>
      </trkpt>
      <trkpt lat="43.19173" lon="-0.1899">
        <ele>338.52</ele>
        <time>2014-11-02T15:20:51Z</time>
      </trkpt>
      <trkpt lat="43.19173" lon="-0.19004">
        <ele>339</ele>
        <time>2014-11-02T15:20:55Z</time>
      </trkpt>
      <trkpt lat="43.19182" lon="-0.19042">
        <ele>340.92</ele>
        <time>2014-11-02T15:21:08Z</time>
      </trkpt>
      <trkpt lat="43.19189" lon="-0.19082">
        <ele>343.33</ele>
        <time>2014-11-02T15:21:23Z</time>
      </trkpt>
      <trkpt lat="43.19187" lon="-0.19088">
        <ele>343.81</ele>
        <time>2014-11-02T15:21:26Z</time>
      </trkpt>
      <trkpt lat="43.19186" lon="-0.19093">
        <ele>344.77</ele>
        <time>2014-11-02T15:21:30Z</time>
      </trkpt>
      <trkpt lat="43.19176" lon="-0.19103">
        <ele>346.21</ele>
        <time>2014-11-02T15:21:39Z</time>
      </trkpt>
      <trkpt lat="43.1916" lon="-0.1913">
        <ele>348.62</ele>
        <time>2014-11-02T15:21:52Z</time>
      </trkpt>
      <trkpt lat="43.19142" lon="-0.19167">
        <ele>351.02</ele>
        <time>2014-11-02T15:22:08Z</time>
      </trkpt>
      <trkpt lat="43.19139" lon="-0.19172">
        <ele>351.5</ele>
        <time>2014-11-02T15:22:11Z</time>
      </trkpt>
      <trkpt lat="43.19116" lon="-0.1918">
        <ele>353.42</ele>
        <time>2014-11-02T15:22:23Z</time>
      </trkpt>
      <trkpt lat="43.19107" lon="-0.19182">
        <ele>353.9</ele>
        <time>2014-11-02T15:22:28Z</time>
      </trkpt>
      <trkpt lat="43.19094" lon="-0.19176">
        <ele>355.34</ele>
        <time>2014-11-02T15:22:37Z</time>
      </trkpt>
      <trkpt lat="43.19075" lon="-0.19171">
        <ele>358.23</ele>
        <time>2014-11-02T15:22:49Z</time>
      </trkpt>
      <trkpt lat="43.1905" lon="-0.19172">
        <ele>360.63</ele>
        <time>2014-11-02T15:23:03Z</time>
      </trkpt>
      <trkpt lat="43.19036" lon="-0.19177">
        <ele>362.07</ele>
        <time>2014-11-02T15:23:15Z</time>
      </trkpt>
      <trkpt lat="43.1901" lon="-0.19186">
        <ele>364.48</ele>
        <time>2014-11-02T15:23:29Z</time>
      </trkpt>
      <trkpt lat="43.18993" lon="-0.19192">
        <ele>366.4</ele>
        <time>2014-11-02T15:23:38Z</time>
      </trkpt>
      <trkpt lat="43.18968" lon="-0.19192">
        <ele>368.32</ele>
        <time>2014-11-02T15:23:50Z</time>
      </trkpt>
      <trkpt lat="43.18948" lon="-0.19176">
        <ele>368.8</ele>
        <time>2014-11-02T15:24:03Z</time>
      </trkpt>
      <trkpt lat="43.18928" lon="-0.19171">
        <ele>368.8</ele>
        <time>2014-11-02T15:24:15Z</time>
      </trkpt>
      <trkpt lat="43.18923" lon="-0.1916">
        <ele>368.32</ele>
        <time>2014-11-02T15:24:26Z</time>
      </trkpt>
      <trkpt lat="43.18923" lon="-0.19159">
        <ele>368.8</ele>
        <time>2014-11-02T15:24:28Z</time>
      </trkpt>
      <trkpt lat="43.18914" lon="-0.19151">
        <ele>369.28</ele>
        <time>2014-11-02T15:24:37Z</time>
      </trkpt>
      <trkpt lat="43.1891" lon="-0.1915">
        <ele>370.24</ele>
        <time>2014-11-02T15:24:44Z</time>
      </trkpt>
      <trkpt lat="43.18908" lon="-0.19155">
        <ele>369.76</ele>
        <time>2014-11-02T15:24:45Z</time>
      </trkpt>
      <trkpt lat="43.18912" lon="-0.19177">
        <ele>370.24</ele>
        <time>2014-11-02T15:24:55Z</time>
      </trkpt>
      <trkpt lat="43.1891" lon="-0.19182">
        <ele>369.76</ele>
        <time>2014-11-02T15:24:56Z</time>
      </trkpt>
      <trkpt lat="43.18909" lon="-0.19187">
        <ele>367.84</ele>
        <time>2014-11-02T15:24:57Z</time>
      </trkpt>
      <trkpt lat="43.18908" lon="-0.19192">
        <ele>368.32</ele>
        <time>2014-11-02T15:24:58Z</time>
      </trkpt>
      <trkpt lat="43.18907" lon="-0.19203">
        <ele>367.84</ele>
        <time>2014-11-02T15:25:00Z</time>
      </trkpt>
      <trkpt lat="43.18907" lon="-0.19209">
        <ele>366.88</ele>
        <time>2014-11-02T15:25:01Z</time>
      </trkpt>
      <trkpt lat="43.18907" lon="-0.19216">
        <ele>367.36</ele>
        <time>2014-11-02T15:25:02Z</time>
      </trkpt>
      <trkpt lat="43.18909" lon="-0.19221">
        <ele>367.36</ele>
        <time>2014-11-02T15:25:03Z</time>
      </trkpt>
      <trkpt lat="43.1891" lon="-0.19226">
        <ele>367.36</ele>
        <time>2014-11-02T15:25:04Z</time>
      </trkpt>
      <trkpt lat="43.1893" lon="-0.1928">
        <ele>369.76</ele>
        <time>2014-11-02T15:25:15Z</time>
      </trkpt>
      <trkpt lat="43.1894" lon="-0.19332">
        <ele>370.73</ele>
        <time>2014-11-02T15:25:26Z</time>
      </trkpt>
      <trkpt lat="43.18942" lon="-0.1935">
        <ele>370.73</ele>
        <time>2014-11-02T15:25:29Z</time>
      </trkpt>
      <trkpt lat="43.18943" lon="-0.19356">
        <ele>371.21</ele>
        <time>2014-11-02T15:25:30Z</time>
      </trkpt>
      <trkpt lat="43.18949" lon="-0.19393">
        <ele>369.76</ele>
        <time>2014-11-02T15:25:38Z</time>
      </trkpt>
      <trkpt lat="43.18963" lon="-0.1945">
        <ele>364.96</ele>
        <time>2014-11-02T15:25:48Z</time>
      </trkpt>
      <trkpt lat="43.18964" lon="-0.19458">
        <ele>364.96</ele>
        <time>2014-11-02T15:25:49Z</time>
      </trkpt>
      <trkpt lat="43.18967" lon="-0.19487">
        <ele>363.52</ele>
        <time>2014-11-02T15:25:52Z</time>
      </trkpt>
      <trkpt lat="43.18974" lon="-0.19524">
        <ele>361.11</ele>
        <time>2014-11-02T15:25:55Z</time>
      </trkpt>
      <trkpt lat="43.18975" lon="-0.19537">
        <ele>359.67</ele>
        <time>2014-11-02T15:25:56Z</time>
      </trkpt>
      <trkpt lat="43.18975" lon="-0.19551">
        <ele>359.67</ele>
        <time>2014-11-02T15:25:57Z</time>
      </trkpt>
      <trkpt lat="43.18974" lon="-0.19563">
        <ele>358.71</ele>
        <time>2014-11-02T15:25:58Z</time>
      </trkpt>
      <trkpt lat="43.18972" lon="-0.19574">
        <ele>357.27</ele>
        <time>2014-11-02T15:25:59Z</time>
      </trkpt>
      <trkpt lat="43.1897" lon="-0.19585">
        <ele>356.79</ele>
        <time>2014-11-02T15:26:00Z</time>
      </trkpt>
      <trkpt lat="43.18969" lon="-0.19597">
        <ele>355.83</ele>
        <time>2014-11-02T15:26:01Z</time>
      </trkpt>
      <trkpt lat="43.18968" lon="-0.19608">
        <ele>354.38</ele>
        <time>2014-11-02T15:26:02Z</time>
      </trkpt>
      <trkpt lat="43.18968" lon="-0.19616">
        <ele>353.42</ele>
        <time>2014-11-02T15:26:03Z</time>
      </trkpt>
      <trkpt lat="43.18968" lon="-0.19642">
        <ele>350.06</ele>
        <time>2014-11-02T15:26:07Z</time>
      </trkpt>
      <trkpt lat="43.18971" lon="-0.19665">
        <ele>347.65</ele>
        <time>2014-11-02T15:26:10Z</time>
      </trkpt>
      <trkpt lat="43.18973" lon="-0.19673">
        <ele>346.21</ele>
        <time>2014-11-02T15:26:11Z</time>
      </trkpt>
      <trkpt lat="43.18975" lon="-0.19681">
        <ele>344.77</ele>
        <time>2014-11-02T15:26:12Z</time>
      </trkpt>
      <trkpt lat="43.18979" lon="-0.19688">
        <ele>344.29</ele>
        <time>2014-11-02T15:26:13Z</time>
      </trkpt>
      <trkpt lat="43.18983" lon="-0.19694">
        <ele>342.85</ele>
        <time>2014-11-02T15:26:14Z</time>
      </trkpt>
      <trkpt lat="43.18987" lon="-0.197">
        <ele>341.41</ele>
        <time>2014-11-02T15:26:15Z</time>
      </trkpt>
      <trkpt lat="43.18991" lon="-0.19706">
        <ele>339.96</ele>
        <time>2014-11-02T15:26:16Z</time>
      </trkpt>
      <trkpt lat="43.18994" lon="-0.19711">
        <ele>338.04</ele>
        <time>2014-11-02T15:26:17Z</time>
      </trkpt>
      <trkpt lat="43.18996" lon="-0.19717">
        <ele>337.56</ele>
        <time>2014-11-02T15:26:18Z</time>
      </trkpt>
      <trkpt lat="43.18998" lon="-0.19722">
        <ele>336.6</ele>
        <time>2014-11-02T15:26:19Z</time>
      </trkpt>
      <trkpt lat="43.18999" lon="-0.19728">
        <ele>336.6</ele>
        <time>2014-11-02T15:26:20Z</time>
      </trkpt>
      <trkpt lat="43.18999" lon="-0.19737">
        <ele>335.64</ele>
        <time>2014-11-02T15:26:21Z</time>
      </trkpt>
      <trkpt lat="43.18999" lon="-0.19745">
        <ele>334.68</ele>
        <time>2014-11-02T15:26:22Z</time>
      </trkpt>
      <trkpt lat="43.18998" lon="-0.19752">
        <ele>332.75</ele>
        <time>2014-11-02T15:26:23Z</time>
      </trkpt>
      <trkpt lat="43.18997" lon="-0.19759">
        <ele>331.79</ele>
        <time>2014-11-02T15:26:24Z</time>
      </trkpt>
      <trkpt lat="43.18996" lon="-0.19766">
        <ele>330.35</ele>
        <time>2014-11-02T15:26:25Z</time>
      </trkpt>
      <trkpt lat="43.18994" lon="-0.19774">
        <ele>329.87</ele>
        <time>2014-11-02T15:26:26Z</time>
      </trkpt>
      <trkpt lat="43.18993" lon="-0.19783">
        <ele>329.39</ele>
        <time>2014-11-02T15:26:27Z</time>
      </trkpt>
      <trkpt lat="43.18988" lon="-0.19806">
        <ele>325.54</ele>
        <time>2014-11-02T15:26:30Z</time>
      </trkpt>
      <trkpt lat="43.18987" lon="-0.19813">
        <ele>325.06</ele>
        <time>2014-11-02T15:26:32Z</time>
      </trkpt>
      <trkpt lat="43.18985" lon="-0.1982">
        <ele>324.1</ele>
        <time>2014-11-02T15:26:34Z</time>
      </trkpt>
      <trkpt lat="43.18985" lon="-0.19823">
        <ele>324.1</ele>
        <time>2014-11-02T15:26:35Z</time>
      </trkpt>
      <trkpt lat="43.18983" lon="-0.19825">
        <ele>323.14</ele>
        <time>2014-11-02T15:26:36Z</time>
      </trkpt>
      <trkpt lat="43.1898" lon="-0.19827">
        <ele>322.66</ele>
        <time>2014-11-02T15:26:37Z</time>
      </trkpt>
      <trkpt lat="43.18976" lon="-0.19829">
        <ele>322.66</ele>
        <time>2014-11-02T15:26:38Z</time>
      </trkpt>
      <trkpt lat="43.1897" lon="-0.19831">
        <ele>322.18</ele>
        <time>2014-11-02T15:26:40Z</time>
      </trkpt>
      <trkpt lat="43.18968" lon="-0.19831">
        <ele>321.22</ele>
        <time>2014-11-02T15:26:41Z</time>
      </trkpt>
      <trkpt lat="43.18938" lon="-0.19808">
        <ele>317.85</ele>
        <time>2014-11-02T15:26:48Z</time>
      </trkpt>
      <trkpt lat="43.18932" lon="-0.19803">
        <ele>317.37</ele>
        <time>2014-11-02T15:26:49Z</time>
      </trkpt>
      <trkpt lat="43.18926" lon="-0.19798">
        <ele>316.41</ele>
        <time>2014-11-02T15:26:50Z</time>
      </trkpt>
      <trkpt lat="43.18906" lon="-0.19785">
        <ele>312.57</ele>
        <time>2014-11-02T15:26:54Z</time>
      </trkpt>
      <trkpt lat="43.18894" lon="-0.19782">
        <ele>311.6</ele>
        <time>2014-11-02T15:26:56Z</time>
      </trkpt>
      <trkpt lat="43.18888" lon="-0.19778">
        <ele>310.64</ele>
        <time>2014-11-02T15:26:57Z</time>
      </trkpt>
      <trkpt lat="43.18882" lon="-0.19772">
        <ele>309.68</ele>
        <time>2014-11-02T15:26:58Z</time>
      </trkpt>
      <trkpt lat="43.18878" lon="-0.19763">
        <ele>309.2</ele>
        <time>2014-11-02T15:26:59Z</time>
      </trkpt>
      <trkpt lat="43.18874" lon="-0.19755">
        <ele>307.76</ele>
        <time>2014-11-02T15:27:00Z</time>
      </trkpt>
      <trkpt lat="43.1887" lon="-0.1975">
        <ele>307.28</ele>
        <time>2014-11-02T15:27:01Z</time>
      </trkpt>
      <trkpt lat="43.18864" lon="-0.19746">
        <ele>306.8</ele>
        <time>2014-11-02T15:27:02Z</time>
      </trkpt>
      <trkpt lat="43.18858" lon="-0.19744">
        <ele>306.32</ele>
        <time>2014-11-02T15:27:03Z</time>
      </trkpt>
      <trkpt lat="43.18853" lon="-0.19742">
        <ele>304.39</ele>
        <time>2014-11-02T15:27:04Z</time>
      </trkpt>
      <trkpt lat="43.18837" lon="-0.19737">
        <ele>301.03</ele>
        <time>2014-11-02T15:27:08Z</time>
      </trkpt>
      <trkpt lat="43.18829" lon="-0.19737">
        <ele>300.07</ele>
        <time>2014-11-02T15:27:11Z</time>
      </trkpt>
      <trkpt lat="43.18824" lon="-0.19743">
        <ele>299.11</ele>
        <time>2014-11-02T15:27:13Z</time>
      </trkpt>
      <trkpt lat="43.18821" lon="-0.19749">
        <ele>298.15</ele>
        <time>2014-11-02T15:27:14Z</time>
      </trkpt>
      <trkpt lat="43.18819" lon="-0.19755">
        <ele>297.67</ele>
        <time>2014-11-02T15:27:15Z</time>
      </trkpt>
      <trkpt lat="43.18817" lon="-0.19762">
        <ele>296.22</ele>
        <time>2014-11-02T15:27:16Z</time>
      </trkpt>
      <trkpt lat="43.18816" lon="-0.19768">
        <ele>294.78</ele>
        <time>2014-11-02T15:27:17Z</time>
      </trkpt>
      <trkpt lat="43.18814" lon="-0.19771">
        <ele>294.78</ele>
        <time>2014-11-02T15:27:18Z</time>
      </trkpt>
      <trkpt lat="43.18811" lon="-0.19774">
        <ele>293.82</ele>
        <time>2014-11-02T15:27:19Z</time>
      </trkpt>
      <trkpt lat="43.18808" lon="-0.19775">
        <ele>292.86</ele>
        <time>2014-11-02T15:27:20Z</time>
      </trkpt>
      <trkpt lat="43.18802" lon="-0.19778">
        <ele>292.38</ele>
        <time>2014-11-02T15:27:22Z</time>
      </trkpt>
      <trkpt lat="43.18792" lon="-0.19792">
        <ele>289.01</ele>
        <time>2014-11-02T15:27:26Z</time>
      </trkpt>
      <trkpt lat="43.18787" lon="-0.19799">
        <ele>287.09</ele>
        <time>2014-11-02T15:27:28Z</time>
      </trkpt>
      <trkpt lat="43.18779" lon="-0.19803">
        <ele>284.69</ele>
        <time>2014-11-02T15:27:31Z</time>
      </trkpt>
      <trkpt lat="43.18777" lon="-0.19805">
        <ele>283.73</ele>
        <time>2014-11-02T15:27:32Z</time>
      </trkpt>
      <trkpt lat="43.18775" lon="-0.19807">
        <ele>283.73</ele>
        <time>2014-11-02T15:27:33Z</time>
      </trkpt>
      <trkpt lat="43.18759" lon="-0.19836">
        <ele>281.32</ele>
        <time>2014-11-02T15:27:41Z</time>
      </trkpt>
      <trkpt lat="43.18751" lon="-0.19854">
        <ele>279.88</ele>
        <time>2014-11-02T15:27:44Z</time>
      </trkpt>
      <trkpt lat="43.18748" lon="-0.19859">
        <ele>279.4</ele>
        <time>2014-11-02T15:27:45Z</time>
      </trkpt>
      <trkpt lat="43.18743" lon="-0.1987">
        <ele>278.92</ele>
        <time>2014-11-02T15:27:47Z</time>
      </trkpt>
      <trkpt lat="43.18737" lon="-0.19876">
        <ele>277.96</ele>
        <time>2014-11-02T15:27:49Z</time>
      </trkpt>
      <trkpt lat="43.18718" lon="-0.19909">
        <ele>278.44</ele>
        <time>2014-11-02T15:28:01Z</time>
      </trkpt>
      <trkpt lat="43.18697" lon="-0.19956">
        <ele>278.44</ele>
        <time>2014-11-02T15:28:13Z</time>
      </trkpt>
      <trkpt lat="43.18667" lon="-0.20016">
        <ele>279.4</ele>
        <time>2014-11-02T15:28:29Z</time>
      </trkpt>
      <trkpt lat="43.18622" lon="-0.20019">
        <ele>280.84</ele>
        <time>2014-11-02T15:28:43Z</time>
      </trkpt>
      <trkpt lat="43.18566" lon="-0.20023">
        <ele>283.25</ele>
        <time>2014-11-02T15:29:00Z</time>
      </trkpt>
      <trkpt lat="43.18521" lon="-0.20029">
        <ele>287.09</ele>
        <time>2014-11-02T15:29:14Z</time>
      </trkpt>
      <trkpt lat="43.18494" lon="-0.20046">
        <ele>289.97</ele>
        <time>2014-11-02T15:29:27Z</time>
      </trkpt>
      <trkpt lat="43.18492" lon="-0.2007">
        <ele>291.42</ele>
        <time>2014-11-02T15:29:36Z</time>
      </trkpt>
      <trkpt lat="43.18491" lon="-0.20072">
        <ele>291.9</ele>
        <time>2014-11-02T15:29:37Z</time>
      </trkpt>
      <trkpt lat="43.1849" lon="-0.20073">
        <ele>291.9</ele>
        <time>2014-11-02T15:29:38Z</time>
      </trkpt>
      <trkpt lat="43.18488" lon="-0.20072">
        <ele>291.9</ele>
        <time>2014-11-02T15:29:39Z</time>
      </trkpt>
      <trkpt lat="43.18486" lon="-0.2007">
        <ele>291.9</ele>
        <time>2014-11-02T15:29:40Z</time>
      </trkpt>
      <trkpt lat="43.18484" lon="-0.20068">
        <ele>292.38</ele>
        <time>2014-11-02T15:29:41Z</time>
      </trkpt>
      <trkpt lat="43.18483" lon="-0.20065">
        <ele>292.38</ele>
        <time>2014-11-02T15:29:42Z</time>
      </trkpt>
      <trkpt lat="43.18481" lon="-0.20062">
        <ele>291.9</ele>
        <time>2014-11-02T15:29:43Z</time>
      </trkpt>
      <trkpt lat="43.1848" lon="-0.20058">
        <ele>292.38</ele>
        <time>2014-11-02T15:29:44Z</time>
      </trkpt>
      <trkpt lat="43.18465" lon="-0.20011">
        <ele>293.34</ele>
        <time>2014-11-02T15:29:58Z</time>
      </trkpt>
      <trkpt lat="43.18451" lon="-0.19957">
        <ele>294.3</ele>
        <time>2014-11-02T15:30:11Z</time>
      </trkpt>
      <trkpt lat="43.18437" lon="-0.19905">
        <ele>290.94</ele>
        <time>2014-11-02T15:30:20Z</time>
      </trkpt>
      <trkpt lat="43.18434" lon="-0.199">
        <ele>292.38</ele>
        <time>2014-11-02T15:30:21Z</time>
      </trkpt>
      <trkpt lat="43.18431" lon="-0.19896">
        <ele>292.38</ele>
        <time>2014-11-02T15:30:22Z</time>
      </trkpt>
      <trkpt lat="43.18429" lon="-0.19891">
        <ele>292.38</ele>
        <time>2014-11-02T15:30:23Z</time>
      </trkpt>
      <trkpt lat="43.18427" lon="-0.19887">
        <ele>292.38</ele>
        <time>2014-11-02T15:30:24Z</time>
      </trkpt>
      <trkpt lat="43.18426" lon="-0.19884">
        <ele>292.38</ele>
        <time>2014-11-02T15:30:25Z</time>
      </trkpt>
      <trkpt lat="43.18425" lon="-0.1988">
        <ele>292.38</ele>
        <time>2014-11-02T15:30:26Z</time>
      </trkpt>
      <trkpt lat="43.18405" lon="-0.19847">
        <ele>292.86</ele>
        <time>2014-11-02T15:30:39Z</time>
      </trkpt>
      <trkpt lat="43.184" lon="-0.19842">
        <ele>293.34</ele>
        <time>2014-11-02T15:30:43Z</time>
      </trkpt>
      <trkpt lat="43.18398" lon="-0.1984">
        <ele>293.82</ele>
        <time>2014-11-02T15:30:44Z</time>
      </trkpt>
      <trkpt lat="43.18396" lon="-0.19838">
        <ele>293.82</ele>
        <time>2014-11-02T15:30:45Z</time>
      </trkpt>
      <trkpt lat="43.18394" lon="-0.19837">
        <ele>293.82</ele>
        <time>2014-11-02T15:30:46Z</time>
      </trkpt>
      <trkpt lat="43.18391" lon="-0.19835">
        <ele>293.82</ele>
        <time>2014-11-02T15:30:47Z</time>
      </trkpt>
      <trkpt lat="43.18385" lon="-0.19824">
        <ele>295.26</ele>
        <time>2014-11-02T15:30:52Z</time>
      </trkpt>
      <trkpt lat="43.18384" lon="-0.19822">
        <ele>295.26</ele>
        <time>2014-11-02T15:30:53Z</time>
      </trkpt>
      <trkpt lat="43.18383" lon="-0.19818">
        <ele>295.26</ele>
        <time>2014-11-02T15:30:55Z</time>
      </trkpt>
      <trkpt lat="43.18363" lon="-0.19787">
        <ele>295.74</ele>
        <time>2014-11-02T15:31:08Z</time>
      </trkpt>
      <trkpt lat="43.18338" lon="-0.19749">
        <ele>295.74</ele>
        <time>2014-11-02T15:31:20Z</time>
      </trkpt>
      <trkpt lat="43.18315" lon="-0.19701">
        <ele>297.18</ele>
        <time>2014-11-02T15:31:34Z</time>
      </trkpt>
      <trkpt lat="43.18312" lon="-0.19696">
        <ele>297.18</ele>
        <time>2014-11-02T15:31:36Z</time>
      </trkpt>
      <trkpt lat="43.18309" lon="-0.19693">
        <ele>297.18</ele>
        <time>2014-11-02T15:31:37Z</time>
      </trkpt>
      <trkpt lat="43.18285" lon="-0.1966">
        <ele>298.15</ele>
        <time>2014-11-02T15:31:49Z</time>
      </trkpt>
      <trkpt lat="43.18284" lon="-0.19657">
        <ele>298.15</ele>
        <time>2014-11-02T15:31:50Z</time>
      </trkpt>
      <trkpt lat="43.18282" lon="-0.19651">
        <ele>298.63</ele>
        <time>2014-11-02T15:31:52Z</time>
      </trkpt>
      <trkpt lat="43.18262" lon="-0.19618">
        <ele>300.07</ele>
        <time>2014-11-02T15:32:04Z</time>
      </trkpt>
      <trkpt lat="43.18249" lon="-0.19587">
        <ele>301.03</ele>
        <time>2014-11-02T15:32:15Z</time>
      </trkpt>
      <trkpt lat="43.18246" lon="-0.19579">
        <ele>300.55</ele>
        <time>2014-11-02T15:32:18Z</time>
      </trkpt>
      <trkpt lat="43.18246" lon="-0.19577">
        <ele>301.03</ele>
        <time>2014-11-02T15:32:19Z</time>
      </trkpt>
      <trkpt lat="43.18245" lon="-0.19574">
        <ele>301.03</ele>
        <time>2014-11-02T15:32:20Z</time>
      </trkpt>
      <trkpt lat="43.18244" lon="-0.19571">
        <ele>301.03</ele>
        <time>2014-11-02T15:32:21Z</time>
      </trkpt>
      <trkpt lat="43.18242" lon="-0.19569">
        <ele>301.03</ele>
        <time>2014-11-02T15:32:22Z</time>
      </trkpt>
      <trkpt lat="43.1824" lon="-0.19566">
        <ele>301.03</ele>
        <time>2014-11-02T15:32:23Z</time>
      </trkpt>
      <trkpt lat="43.18238" lon="-0.19563">
        <ele>301.51</ele>
        <time>2014-11-02T15:32:24Z</time>
      </trkpt>
      <trkpt lat="43.18236" lon="-0.1956">
        <ele>301.03</ele>
        <time>2014-11-02T15:32:25Z</time>
      </trkpt>
      <trkpt lat="43.18234" lon="-0.19557">
        <ele>301.03</ele>
        <time>2014-11-02T15:32:26Z</time>
      </trkpt>
      <trkpt lat="43.18232" lon="-0.19555">
        <ele>301.03</ele>
        <time>2014-11-02T15:32:27Z</time>
      </trkpt>
      <trkpt lat="43.1823" lon="-0.19552">
        <ele>301.03</ele>
        <time>2014-11-02T15:32:28Z</time>
      </trkpt>
      <trkpt lat="43.18211" lon="-0.19529">
        <ele>303.43</ele>
        <time>2014-11-02T15:32:38Z</time>
      </trkpt>
      <trkpt lat="43.18204" lon="-0.19518">
        <ele>303.43</ele>
        <time>2014-11-02T15:32:43Z</time>
      </trkpt>
      <trkpt lat="43.18204" lon="-0.19516">
        <ele>303.43</ele>
        <time>2014-11-02T15:32:44Z</time>
      </trkpt>
      <trkpt lat="43.18203" lon="-0.19513">
        <ele>303.43</ele>
        <time>2014-11-02T15:32:45Z</time>
      </trkpt>
      <trkpt lat="43.18202" lon="-0.1951">
        <ele>303.43</ele>
        <time>2014-11-02T15:32:46Z</time>
      </trkpt>
      <trkpt lat="43.18202" lon="-0.19507">
        <ele>303.43</ele>
        <time>2014-11-02T15:32:47Z</time>
      </trkpt>
      <trkpt lat="43.18201" lon="-0.19505">
        <ele>303.43</ele>
        <time>2014-11-02T15:32:48Z</time>
      </trkpt>
      <trkpt lat="43.18201" lon="-0.19502">
        <ele>303.91</ele>
        <time>2014-11-02T15:32:49Z</time>
      </trkpt>
      <trkpt lat="43.182" lon="-0.195">
        <ele>303.43</ele>
        <time>2014-11-02T15:32:50Z</time>
      </trkpt>
      <trkpt lat="43.18194" lon="-0.19487">
        <ele>303.91</ele>
        <time>2014-11-02T15:32:54Z</time>
      </trkpt>
      <trkpt lat="43.18191" lon="-0.19485">
        <ele>303.91</ele>
        <time>2014-11-02T15:32:55Z</time>
      </trkpt>
      <trkpt lat="43.1819" lon="-0.19482">
        <ele>303.43</ele>
        <time>2014-11-02T15:32:56Z</time>
      </trkpt>
      <trkpt lat="43.18189" lon="-0.19478">
        <ele>303.91</ele>
        <time>2014-11-02T15:32:57Z</time>
      </trkpt>
      <trkpt lat="43.18188" lon="-0.19475">
        <ele>303.91</ele>
        <time>2014-11-02T15:32:58Z</time>
      </trkpt>
      <trkpt lat="43.18186" lon="-0.19471">
        <ele>303.91</ele>
        <time>2014-11-02T15:32:59Z</time>
      </trkpt>
      <trkpt lat="43.18184" lon="-0.19469">
        <ele>304.39</ele>
        <time>2014-11-02T15:33:00Z</time>
      </trkpt>
      <trkpt lat="43.18183" lon="-0.19467">
        <ele>304.39</ele>
        <time>2014-11-02T15:33:01Z</time>
      </trkpt>
      <trkpt lat="43.18182" lon="-0.19464">
        <ele>304.39</ele>
        <time>2014-11-02T15:33:02Z</time>
      </trkpt>
      <trkpt lat="43.18181" lon="-0.19462">
        <ele>304.39</ele>
        <time>2014-11-02T15:33:03Z</time>
      </trkpt>
      <trkpt lat="43.1818" lon="-0.1946">
        <ele>304.88</ele>
        <time>2014-11-02T15:33:04Z</time>
      </trkpt>
      <trkpt lat="43.18178" lon="-0.19457">
        <ele>304.88</ele>
        <time>2014-11-02T15:33:05Z</time>
      </trkpt>
      <trkpt lat="43.18176" lon="-0.19455">
        <ele>304.88</ele>
        <time>2014-11-02T15:33:06Z</time>
      </trkpt>
      <trkpt lat="43.18175" lon="-0.19453">
        <ele>304.88</ele>
        <time>2014-11-02T15:33:07Z</time>
      </trkpt>
      <trkpt lat="43.18174" lon="-0.1945">
        <ele>305.84</ele>
        <time>2014-11-02T15:33:08Z</time>
      </trkpt>
      <trkpt lat="43.18173" lon="-0.19447">
        <ele>305.84</ele>
        <time>2014-11-02T15:33:09Z</time>
      </trkpt>
      <trkpt lat="43.1817" lon="-0.19441">
        <ele>305.84</ele>
        <time>2014-11-02T15:33:11Z</time>
      </trkpt>
      <trkpt lat="43.18167" lon="-0.19434">
        <ele>305.84</ele>
        <time>2014-11-02T15:33:15Z</time>
      </trkpt>
      <trkpt lat="43.18166" lon="-0.19432">
        <ele>306.8</ele>
        <time>2014-11-02T15:33:16Z</time>
      </trkpt>
      <trkpt lat="43.18166" lon="-0.19429">
        <ele>306.32</ele>
        <time>2014-11-02T15:33:17Z</time>
      </trkpt>
      <trkpt lat="43.18162" lon="-0.19427">
        <ele>306.32</ele>
        <time>2014-11-02T15:33:18Z</time>
      </trkpt>
      <trkpt lat="43.1816" lon="-0.19424">
        <ele>305.84</ele>
        <time>2014-11-02T15:33:19Z</time>
      </trkpt>
      <trkpt lat="43.18158" lon="-0.19423">
        <ele>306.32</ele>
        <time>2014-11-02T15:33:20Z</time>
      </trkpt>
      <trkpt lat="43.18156" lon="-0.1942">
        <ele>306.8</ele>
        <time>2014-11-02T15:33:21Z</time>
      </trkpt>
      <trkpt lat="43.18152" lon="-0.19416">
        <ele>306.32</ele>
        <time>2014-11-02T15:33:22Z</time>
      </trkpt>
      <trkpt lat="43.18149" lon="-0.19413">
        <ele>306.32</ele>
        <time>2014-11-02T15:33:23Z</time>
      </trkpt>
      <trkpt lat="43.18134" lon="-0.19396">
        <ele>305.84</ele>
        <time>2014-11-02T15:33:31Z</time>
      </trkpt>
      <trkpt lat="43.18132" lon="-0.19393">
        <ele>305.36</ele>
        <time>2014-11-02T15:33:33Z</time>
      </trkpt>
      <trkpt lat="43.1813" lon="-0.19392">
        <ele>305.36</ele>
        <time>2014-11-02T15:33:34Z</time>
      </trkpt>
      <trkpt lat="43.18123" lon="-0.19374">
        <ele>305.36</ele>
        <time>2014-11-02T15:33:40Z</time>
      </trkpt>
      <trkpt lat="43.18121" lon="-0.19372">
        <ele>305.36</ele>
        <time>2014-11-02T15:33:41Z</time>
      </trkpt>
      <trkpt lat="43.18116" lon="-0.19367">
        <ele>304.88</ele>
        <time>2014-11-02T15:33:43Z</time>
      </trkpt>
      <trkpt lat="43.18112" lon="-0.1936">
        <ele>304.88</ele>
        <time>2014-11-02T15:33:45Z</time>
      </trkpt>
      <trkpt lat="43.1811" lon="-0.19356">
        <ele>304.39</ele>
        <time>2014-11-02T15:33:46Z</time>
      </trkpt>
      <trkpt lat="43.18108" lon="-0.19352">
        <ele>304.39</ele>
        <time>2014-11-02T15:33:47Z</time>
      </trkpt>
      <trkpt lat="43.18106" lon="-0.19349">
        <ele>303.43</ele>
        <time>2014-11-02T15:33:48Z</time>
      </trkpt>
      <trkpt lat="43.18104" lon="-0.19346">
        <ele>303.43</ele>
        <time>2014-11-02T15:33:49Z</time>
      </trkpt>
      <trkpt lat="43.18102" lon="-0.19342">
        <ele>302.95</ele>
        <time>2014-11-02T15:33:50Z</time>
      </trkpt>
      <trkpt lat="43.181" lon="-0.19339">
        <ele>303.43</ele>
        <time>2014-11-02T15:33:51Z</time>
      </trkpt>
      <trkpt lat="43.18095" lon="-0.19324">
        <ele>302.95</ele>
        <time>2014-11-02T15:33:58Z</time>
      </trkpt>
      <trkpt lat="43.18094" lon="-0.19323">
        <ele>302.47</ele>
        <time>2014-11-02T15:33:59Z</time>
      </trkpt>
      <trkpt lat="43.18091" lon="-0.19315">
        <ele>302.47</ele>
        <time>2014-11-02T15:34:04Z</time>
      </trkpt>
      <trkpt lat="43.18089" lon="-0.19313">
        <ele>302.47</ele>
        <time>2014-11-02T15:34:05Z</time>
      </trkpt>
      <trkpt lat="43.18087" lon="-0.19311">
        <ele>302.47</ele>
        <time>2014-11-02T15:34:06Z</time>
      </trkpt>
      <trkpt lat="43.18085" lon="-0.19309">
        <ele>302.95</ele>
        <time>2014-11-02T15:34:07Z</time>
      </trkpt>
      <trkpt lat="43.18084" lon="-0.19308">
        <ele>302.95</ele>
        <time>2014-11-02T15:34:08Z</time>
      </trkpt>
      <trkpt lat="43.18083" lon="-0.19306">
        <ele>302.95</ele>
        <time>2014-11-02T15:34:09Z</time>
      </trkpt>
      <trkpt lat="43.18081" lon="-0.19304">
        <ele>303.43</ele>
        <time>2014-11-02T15:34:10Z</time>
      </trkpt>
      <trkpt lat="43.18079" lon="-0.19302">
        <ele>302.47</ele>
        <time>2014-11-02T15:34:11Z</time>
      </trkpt>
      <trkpt lat="43.18078" lon="-0.193">
        <ele>302.95</ele>
        <time>2014-11-02T15:34:12Z</time>
      </trkpt>
      <trkpt lat="43.18075" lon="-0.19293">
        <ele>302.47</ele>
        <time>2014-11-02T15:34:17Z</time>
      </trkpt>
      <trkpt lat="43.1807" lon="-0.19281">
        <ele>303.91</ele>
        <time>2014-11-02T15:34:24Z</time>
      </trkpt>
      <trkpt lat="43.18069" lon="-0.19278">
        <ele>303.43</ele>
        <time>2014-11-02T15:34:25Z</time>
      </trkpt>
      <trkpt lat="43.18069" lon="-0.19273">
        <ele>303.91</ele>
        <time>2014-11-02T15:34:26Z</time>
      </trkpt>
      <trkpt lat="43.18067" lon="-0.19259">
        <ele>304.39</ele>
        <time>2014-11-02T15:34:31Z</time>
      </trkpt>
      <trkpt lat="43.18067" lon="-0.19256">
        <ele>304.39</ele>
        <time>2014-11-02T15:34:32Z</time>
      </trkpt>
      <trkpt lat="43.18061" lon="-0.19237">
        <ele>304.39</ele>
        <time>2014-11-02T15:34:44Z</time>
      </trkpt>
      <trkpt lat="43.18053" lon="-0.19229">
        <ele>305.36</ele>
        <time>2014-11-02T15:34:59Z</time>
      </trkpt>
      <trkpt lat="43.1805" lon="-0.19224">
        <ele>305.36</ele>
        <time>2014-11-02T15:35:01Z</time>
      </trkpt>
      <trkpt lat="43.18049" lon="-0.19221">
        <ele>304.88</ele>
        <time>2014-11-02T15:35:02Z</time>
      </trkpt>
      <trkpt lat="43.18046" lon="-0.19215">
        <ele>305.36</ele>
        <time>2014-11-02T15:35:04Z</time>
      </trkpt>
      <trkpt lat="43.18044" lon="-0.19211">
        <ele>305.36</ele>
        <time>2014-11-02T15:35:05Z</time>
      </trkpt>
      <trkpt lat="43.18039" lon="-0.192">
        <ele>305.84</ele>
        <time>2014-11-02T15:35:09Z</time>
      </trkpt>
      <trkpt lat="43.18035" lon="-0.19192">
        <ele>306.32</ele>
        <time>2014-11-02T15:35:14Z</time>
      </trkpt>
      <trkpt lat="43.18034" lon="-0.1919">
        <ele>306.32</ele>
        <time>2014-11-02T15:35:15Z</time>
      </trkpt>
      <trkpt lat="43.18033" lon="-0.19188">
        <ele>306.32</ele>
        <time>2014-11-02T15:35:16Z</time>
      </trkpt>
      <trkpt lat="43.18033" lon="-0.19186">
        <ele>306.32</ele>
        <time>2014-11-02T15:35:17Z</time>
      </trkpt>
      <trkpt lat="43.18028" lon="-0.19167">
        <ele>307.76</ele>
        <time>2014-11-02T15:35:28Z</time>
      </trkpt>
      <trkpt lat="43.18015" lon="-0.19132">
        <ele>308.72</ele>
        <time>2014-11-02T15:35:40Z</time>
      </trkpt>
      <trkpt lat="43.18014" lon="-0.19127">
        <ele>309.2</ele>
        <time>2014-11-02T15:35:42Z</time>
      </trkpt>
      <trkpt lat="43.18013" lon="-0.19125">
        <ele>309.2</ele>
        <time>2014-11-02T15:35:43Z</time>
      </trkpt>
      <trkpt lat="43.18012" lon="-0.19122">
        <ele>309.68</ele>
        <time>2014-11-02T15:35:45Z</time>
      </trkpt>
      <trkpt lat="43.18011" lon="-0.19119">
        <ele>309.68</ele>
        <time>2014-11-02T15:35:46Z</time>
      </trkpt>
      <trkpt lat="43.17996" lon="-0.19083">
        <ele>311.12</ele>
        <time>2014-11-02T15:35:59Z</time>
      </trkpt>
      <trkpt lat="43.17989" lon="-0.1906">
        <ele>313.05</ele>
        <time>2014-11-02T15:36:09Z</time>
      </trkpt>
      <trkpt lat="43.17989" lon="-0.19058">
        <ele>312.57</ele>
        <time>2014-11-02T15:36:10Z</time>
      </trkpt>
      <trkpt lat="43.17989" lon="-0.19056">
        <ele>312.57</ele>
        <time>2014-11-02T15:36:11Z</time>
      </trkpt>
      <trkpt lat="43.17989" lon="-0.19053">
        <ele>312.57</ele>
        <time>2014-11-02T15:36:12Z</time>
      </trkpt>
      <trkpt lat="43.17988" lon="-0.19052">
        <ele>313.05</ele>
        <time>2014-11-02T15:36:13Z</time>
      </trkpt>
      <trkpt lat="43.17988" lon="-0.19049">
        <ele>313.05</ele>
        <time>2014-11-02T15:36:14Z</time>
      </trkpt>
      <trkpt lat="43.17987" lon="-0.19047">
        <ele>313.05</ele>
        <time>2014-11-02T15:36:15Z</time>
      </trkpt>
      <trkpt lat="43.17986" lon="-0.19045">
        <ele>313.53</ele>
        <time>2014-11-02T15:36:16Z</time>
      </trkpt>
      <trkpt lat="43.17985" lon="-0.19043">
        <ele>313.05</ele>
        <time>2014-11-02T15:36:17Z</time>
      </trkpt>
      <trkpt lat="43.17985" lon="-0.1904">
        <ele>313.53</ele>
        <time>2014-11-02T15:36:18Z</time>
      </trkpt>
      <trkpt lat="43.17983" lon="-0.19037">
        <ele>313.05</ele>
        <time>2014-11-02T15:36:19Z</time>
      </trkpt>
      <trkpt lat="43.17982" lon="-0.19034">
        <ele>313.05</ele>
        <time>2014-11-02T15:36:20Z</time>
      </trkpt>
      <trkpt lat="43.17981" lon="-0.19031">
        <ele>313.53</ele>
        <time>2014-11-02T15:36:21Z</time>
      </trkpt>
      <trkpt lat="43.1798" lon="-0.19027">
        <ele>313.53</ele>
        <time>2014-11-02T15:36:22Z</time>
      </trkpt>
      <trkpt lat="43.17978" lon="-0.19024">
        <ele>314.01</ele>
        <time>2014-11-02T15:36:23Z</time>
      </trkpt>
      <trkpt lat="43.17978" lon="-0.19021">
        <ele>314.01</ele>
        <time>2014-11-02T15:36:24Z</time>
      </trkpt>
      <trkpt lat="43.17977" lon="-0.19016">
        <ele>314.49</ele>
        <time>2014-11-02T15:36:26Z</time>
      </trkpt>
      <trkpt lat="43.17977" lon="-0.19014">
        <ele>314.49</ele>
        <time>2014-11-02T15:36:27Z</time>
      </trkpt>
      <trkpt lat="43.17976" lon="-0.19011">
        <ele>314.97</ele>
        <time>2014-11-02T15:36:28Z</time>
      </trkpt>
      <trkpt lat="43.17974" lon="-0.19008">
        <ele>314.49</ele>
        <time>2014-11-02T15:36:29Z</time>
      </trkpt>
      <trkpt lat="43.17973" lon="-0.19005">
        <ele>314.97</ele>
        <time>2014-11-02T15:36:30Z</time>
      </trkpt>
      <trkpt lat="43.17971" lon="-0.19002">
        <ele>315.45</ele>
        <time>2014-11-02T15:36:31Z</time>
      </trkpt>
      <trkpt lat="43.1797" lon="-0.18999">
        <ele>314.97</ele>
        <time>2014-11-02T15:36:32Z</time>
      </trkpt>
      <trkpt lat="43.17969" lon="-0.18996">
        <ele>315.45</ele>
        <time>2014-11-02T15:36:33Z</time>
      </trkpt>
      <trkpt lat="43.17968" lon="-0.18993">
        <ele>315.45</ele>
        <time>2014-11-02T15:36:34Z</time>
      </trkpt>
      <trkpt lat="43.17953" lon="-0.18958">
        <ele>315.93</ele>
        <time>2014-11-02T15:36:46Z</time>
      </trkpt>
      <trkpt lat="43.17953" lon="-0.18955">
        <ele>315.93</ele>
        <time>2014-11-02T15:36:47Z</time>
      </trkpt>
      <trkpt lat="43.17951" lon="-0.18951">
        <ele>316.41</ele>
        <time>2014-11-02T15:36:48Z</time>
      </trkpt>
      <trkpt lat="43.17948" lon="-0.18932">
        <ele>316.41</ele>
        <time>2014-11-02T15:36:53Z</time>
      </trkpt>
      <trkpt lat="43.17947" lon="-0.18929">
        <ele>316.41</ele>
        <time>2014-11-02T15:36:54Z</time>
      </trkpt>
      <trkpt lat="43.17945" lon="-0.18925">
        <ele>316.41</ele>
        <time>2014-11-02T15:36:55Z</time>
      </trkpt>
      <trkpt lat="43.17943" lon="-0.18921">
        <ele>316.89</ele>
        <time>2014-11-02T15:36:56Z</time>
      </trkpt>
      <trkpt lat="43.17942" lon="-0.18919">
        <ele>316.89</ele>
        <time>2014-11-02T15:36:57Z</time>
      </trkpt>
      <trkpt lat="43.17941" lon="-0.18914">
        <ele>316.89</ele>
        <time>2014-11-02T15:36:59Z</time>
      </trkpt>
      <trkpt lat="43.1794" lon="-0.18905">
        <ele>317.37</ele>
        <time>2014-11-02T15:37:04Z</time>
      </trkpt>
      <trkpt lat="43.1794" lon="-0.18903">
        <ele>317.37</ele>
        <time>2014-11-02T15:37:05Z</time>
      </trkpt>
      <trkpt lat="43.17937" lon="-0.18895">
        <ele>317.37</ele>
        <time>2014-11-02T15:37:08Z</time>
      </trkpt>
      <trkpt lat="43.17931" lon="-0.1887">
        <ele>317.85</ele>
        <time>2014-11-02T15:37:19Z</time>
      </trkpt>
      <trkpt lat="43.17922" lon="-0.18851">
        <ele>318.33</ele>
        <time>2014-11-02T15:37:29Z</time>
      </trkpt>
      <trkpt lat="43.1792" lon="-0.18849">
        <ele>318.81</ele>
        <time>2014-11-02T15:37:30Z</time>
      </trkpt>
      <trkpt lat="43.17911" lon="-0.18837">
        <ele>319.3</ele>
        <time>2014-11-02T15:37:36Z</time>
      </trkpt>
      <trkpt lat="43.17897" lon="-0.18812">
        <ele>321.22</ele>
        <time>2014-11-02T15:37:48Z</time>
      </trkpt>
      <trkpt lat="43.17894" lon="-0.18808">
        <ele>321.22</ele>
        <time>2014-11-02T15:37:51Z</time>
      </trkpt>
      <trkpt lat="43.17892" lon="-0.18806">
        <ele>321.22</ele>
        <time>2014-11-02T15:37:52Z</time>
      </trkpt>
      <trkpt lat="43.1789" lon="-0.18803">
        <ele>321.22</ele>
        <time>2014-11-02T15:37:53Z</time>
      </trkpt>
      <trkpt lat="43.17888" lon="-0.18799">
        <ele>321.7</ele>
        <time>2014-11-02T15:37:54Z</time>
      </trkpt>
      <trkpt lat="43.17886" lon="-0.18796">
        <ele>322.18</ele>
        <time>2014-11-02T15:37:55Z</time>
      </trkpt>
      <trkpt lat="43.17883" lon="-0.18795">
        <ele>321.7</ele>
        <time>2014-11-02T15:37:56Z</time>
      </trkpt>
      <trkpt lat="43.17868" lon="-0.18773">
        <ele>323.14</ele>
        <time>2014-11-02T15:38:06Z</time>
      </trkpt>
      <trkpt lat="43.17863" lon="-0.18763">
        <ele>323.62</ele>
        <time>2014-11-02T15:38:10Z</time>
      </trkpt>
      <trkpt lat="43.17858" lon="-0.18753">
        <ele>324.1</ele>
        <time>2014-11-02T15:38:13Z</time>
      </trkpt>
      <trkpt lat="43.17857" lon="-0.18751">
        <ele>323.62</ele>
        <time>2014-11-02T15:38:14Z</time>
      </trkpt>
      <trkpt lat="43.1785" lon="-0.18732">
        <ele>324.58</ele>
        <time>2014-11-02T15:38:21Z</time>
      </trkpt>
      <trkpt lat="43.17836" lon="-0.18709">
        <ele>326.02</ele>
        <time>2014-11-02T15:38:34Z</time>
      </trkpt>
      <trkpt lat="43.17833" lon="-0.18701">
        <ele>326.5</ele>
        <time>2014-11-02T15:38:38Z</time>
      </trkpt>
      <trkpt lat="43.17832" lon="-0.18698">
        <ele>326.02</ele>
        <time>2014-11-02T15:38:39Z</time>
      </trkpt>
      <trkpt lat="43.17832" lon="-0.18696">
        <ele>326.02</ele>
        <time>2014-11-02T15:38:40Z</time>
      </trkpt>
      <trkpt lat="43.17832" lon="-0.18694">
        <ele>326.5</ele>
        <time>2014-11-02T15:38:41Z</time>
      </trkpt>
      <trkpt lat="43.17832" lon="-0.18693">
        <ele>326.5</ele>
        <time>2014-11-02T15:38:42Z</time>
      </trkpt>
      <trkpt lat="43.17831" lon="-0.18691">
        <ele>326.99</ele>
        <time>2014-11-02T15:38:44Z</time>
      </trkpt>
      <trkpt lat="43.17834" lon="-0.1868">
        <ele>326.5</ele>
        <time>2014-11-02T15:38:48Z</time>
      </trkpt>
      <trkpt lat="43.17826" lon="-0.18665">
        <ele>326.02</ele>
        <time>2014-11-02T15:38:59Z</time>
      </trkpt>
      <trkpt lat="43.17818" lon="-0.18656">
        <ele>327.47</ele>
        <time>2014-11-02T15:39:12Z</time>
      </trkpt>
      <trkpt lat="43.17818" lon="-0.18651">
        <ele>326.99</ele>
        <time>2014-11-02T15:39:15Z</time>
      </trkpt>
      <trkpt lat="43.17816" lon="-0.18638">
        <ele>327.47</ele>
        <time>2014-11-02T15:39:20Z</time>
      </trkpt>
      <trkpt lat="43.17817" lon="-0.18629">
        <ele>327.95</ele>
        <time>2014-11-02T15:39:23Z</time>
      </trkpt>
      <trkpt lat="43.17814" lon="-0.18617">
        <ele>328.91</ele>
        <time>2014-11-02T15:39:27Z</time>
      </trkpt>
      <trkpt lat="43.1781" lon="-0.18607">
        <ele>329.87</ele>
        <time>2014-11-02T15:39:32Z</time>
      </trkpt>
      <trkpt lat="43.17809" lon="-0.18603">
        <ele>329.87</ele>
        <time>2014-11-02T15:39:34Z</time>
      </trkpt>
      <trkpt lat="43.17807" lon="-0.18596">
        <ele>329.87</ele>
        <time>2014-11-02T15:39:38Z</time>
      </trkpt>
      <trkpt lat="43.17805" lon="-0.18594">
        <ele>330.35</ele>
        <time>2014-11-02T15:39:40Z</time>
      </trkpt>
      <trkpt lat="43.17791" lon="-0.18579">
        <ele>331.31</ele>
        <time>2014-11-02T15:39:48Z</time>
      </trkpt>
      <trkpt lat="43.17774" lon="-0.1856">
        <ele>333.71</ele>
        <time>2014-11-02T15:39:59Z</time>
      </trkpt>
      <trkpt lat="43.17771" lon="-0.18555">
        <ele>333.71</ele>
        <time>2014-11-02T15:40:02Z</time>
      </trkpt>
      <trkpt lat="43.17766" lon="-0.1854">
        <ele>335.16</ele>
        <time>2014-11-02T15:40:08Z</time>
      </trkpt>
      <trkpt lat="43.17762" lon="-0.18535">
        <ele>334.68</ele>
        <time>2014-11-02T15:40:11Z</time>
      </trkpt>
      <trkpt lat="43.17758" lon="-0.18524">
        <ele>336.12</ele>
        <time>2014-11-02T15:40:17Z</time>
      </trkpt>
      <trkpt lat="43.17756" lon="-0.18515">
        <ele>336.12</ele>
        <time>2014-11-02T15:40:22Z</time>
      </trkpt>
      <trkpt lat="43.17742" lon="-0.1849">
        <ele>338.04</ele>
        <time>2014-11-02T15:40:33Z</time>
      </trkpt>
      <trkpt lat="43.17723" lon="-0.18455">
        <ele>339</ele>
        <time>2014-11-02T15:40:45Z</time>
      </trkpt>
      <trkpt lat="43.17712" lon="-0.18428">
        <ele>339.96</ele>
        <time>2014-11-02T15:40:56Z</time>
      </trkpt>
      <trkpt lat="43.17701" lon="-0.18401">
        <ele>341.41</ele>
        <time>2014-11-02T15:41:09Z</time>
      </trkpt>
      <trkpt lat="43.177" lon="-0.18394">
        <ele>342.85</ele>
        <time>2014-11-02T15:41:12Z</time>
      </trkpt>
      <trkpt lat="43.1769" lon="-0.18374">
        <ele>346.21</ele>
        <time>2014-11-02T15:41:21Z</time>
      </trkpt>
      <trkpt lat="43.17684" lon="-0.18362">
        <ele>346.21</ele>
        <time>2014-11-02T15:41:26Z</time>
      </trkpt>
      <trkpt lat="43.17667" lon="-0.1832">
        <ele>347.17</ele>
        <time>2014-11-02T15:41:40Z</time>
      </trkpt>
      <trkpt lat="43.17664" lon="-0.18308">
        <ele>347.65</ele>
        <time>2014-11-02T15:41:44Z</time>
      </trkpt>
      <trkpt lat="43.17661" lon="-0.18287">
        <ele>348.13</ele>
        <time>2014-11-02T15:41:52Z</time>
      </trkpt>
      <trkpt lat="43.17659" lon="-0.18265">
        <ele>350.54</ele>
        <time>2014-11-02T15:42:00Z</time>
      </trkpt>
      <trkpt lat="43.17648" lon="-0.18234">
        <ele>353.42</ele>
        <time>2014-11-02T15:42:13Z</time>
      </trkpt>
      <trkpt lat="43.17635" lon="-0.18218">
        <ele>355.83</ele>
        <time>2014-11-02T15:42:21Z</time>
      </trkpt>
      <trkpt lat="43.17633" lon="-0.18213">
        <ele>354.38</ele>
        <time>2014-11-02T15:42:25Z</time>
      </trkpt>
      <trkpt lat="43.17634" lon="-0.18203">
        <ele>353.42</ele>
        <time>2014-11-02T15:42:30Z</time>
      </trkpt>
      <trkpt lat="43.17633" lon="-0.18198">
        <ele>352.46</ele>
        <time>2014-11-02T15:42:33Z</time>
      </trkpt>
      <trkpt lat="43.17627" lon="-0.18186">
        <ele>352.46</ele>
        <time>2014-11-02T15:42:39Z</time>
      </trkpt>
      <trkpt lat="43.17619" lon="-0.18161">
        <ele>353.9</ele>
        <time>2014-11-02T15:42:47Z</time>
      </trkpt>
      <trkpt lat="43.17611" lon="-0.1815">
        <ele>354.86</ele>
        <time>2014-11-02T15:42:52Z</time>
      </trkpt>
      <trkpt lat="43.17608" lon="-0.18141">
        <ele>355.83</ele>
        <time>2014-11-02T15:42:56Z</time>
      </trkpt>
      <trkpt lat="43.17591" lon="-0.18125">
        <ele>356.79</ele>
        <time>2014-11-02T15:43:06Z</time>
      </trkpt>
      <trkpt lat="43.1759" lon="-0.18117">
        <ele>357.27</ele>
        <time>2014-11-02T15:43:09Z</time>
      </trkpt>
      <trkpt lat="43.17581" lon="-0.181">
        <ele>357.75</ele>
        <time>2014-11-02T15:43:15Z</time>
      </trkpt>
      <trkpt lat="43.17585" lon="-0.18084">
        <ele>356.79</ele>
        <time>2014-11-02T15:43:20Z</time>
      </trkpt>
      <trkpt lat="43.17597" lon="-0.18051">
        <ele>356.79</ele>
        <time>2014-11-02T15:43:30Z</time>
      </trkpt>
      <trkpt lat="43.17598" lon="-0.18014">
        <ele>358.71</ele>
        <time>2014-11-02T15:43:42Z</time>
      </trkpt>
      <trkpt lat="43.17586" lon="-0.17984">
        <ele>360.63</ele>
        <time>2014-11-02T15:43:55Z</time>
      </trkpt>
      <trkpt lat="43.17572" lon="-0.17976">
        <ele>363.52</ele>
        <time>2014-11-02T15:44:06Z</time>
      </trkpt>
      <trkpt lat="43.17563" lon="-0.17971">
        <ele>364.48</ele>
        <time>2014-11-02T15:44:26Z</time>
      </trkpt>
      <trkpt lat="43.17554" lon="-0.17956">
        <ele>365.44</ele>
        <time>2014-11-02T15:44:43Z</time>
      </trkpt>
      <trkpt lat="43.17548" lon="-0.17949">
        <ele>365.44</ele>
        <time>2014-11-02T15:44:58Z</time>
      </trkpt>
      <trkpt lat="43.17544" lon="-0.17946">
        <ele>366.88</ele>
        <time>2014-11-02T15:45:09Z</time>
      </trkpt>
      <trkpt lat="43.17544" lon="-0.17945">
        <ele>364</ele>
        <time>2014-11-02T15:45:10Z</time>
      </trkpt>
      <trkpt lat="43.17543" lon="-0.17945">
        <ele>364.48</ele>
        <time>2014-11-02T15:45:11Z</time>
      </trkpt>
      <trkpt lat="43.17537" lon="-0.17938">
        <ele>365.44</ele>
        <time>2014-11-02T15:45:36Z</time>
      </trkpt>
      <trkpt lat="43.17538" lon="-0.17933">
        <ele>365.92</ele>
        <time>2014-11-02T15:45:48Z</time>
      </trkpt>
      <trkpt lat="43.17539" lon="-0.17922">
        <ele>364.48</ele>
        <time>2014-11-02T15:45:51Z</time>
      </trkpt>
      <trkpt lat="43.17538" lon="-0.17916">
        <ele>364.48</ele>
        <time>2014-11-02T15:45:52Z</time>
      </trkpt>
      <trkpt lat="43.17537" lon="-0.1791">
        <ele>364</ele>
        <time>2014-11-02T15:45:53Z</time>
      </trkpt>
      <trkpt lat="43.17535" lon="-0.17904">
        <ele>364</ele>
        <time>2014-11-02T15:45:54Z</time>
      </trkpt>
      <trkpt lat="43.17533" lon="-0.17899">
        <ele>363.52</ele>
        <time>2014-11-02T15:45:55Z</time>
      </trkpt>
      <trkpt lat="43.1753" lon="-0.17895">
        <ele>363.04</ele>
        <time>2014-11-02T15:45:56Z</time>
      </trkpt>
      <trkpt lat="43.17527" lon="-0.17891">
        <ele>363.52</ele>
        <time>2014-11-02T15:45:57Z</time>
      </trkpt>
      <trkpt lat="43.17515" lon="-0.17867">
        <ele>363.04</ele>
        <time>2014-11-02T15:46:05Z</time>
      </trkpt>
      <trkpt lat="43.17507" lon="-0.17853">
        <ele>364</ele>
        <time>2014-11-02T15:46:12Z</time>
      </trkpt>
      <trkpt lat="43.17506" lon="-0.1785">
        <ele>364</ele>
        <time>2014-11-02T15:46:13Z</time>
      </trkpt>
      <trkpt lat="43.17505" lon="-0.17848">
        <ele>364</ele>
        <time>2014-11-02T15:46:14Z</time>
      </trkpt>
      <trkpt lat="43.17504" lon="-0.17846">
        <ele>364.48</ele>
        <time>2014-11-02T15:46:15Z</time>
      </trkpt>
      <trkpt lat="43.17503" lon="-0.17843">
        <ele>364.96</ele>
        <time>2014-11-02T15:46:16Z</time>
      </trkpt>
      <trkpt lat="43.17502" lon="-0.17841">
        <ele>364.96</ele>
        <time>2014-11-02T15:46:17Z</time>
      </trkpt>
      <trkpt lat="43.17485" lon="-0.17814">
        <ele>366.4</ele>
        <time>2014-11-02T15:46:29Z</time>
      </trkpt>
      <trkpt lat="43.17476" lon="-0.17803">
        <ele>367.84</ele>
        <time>2014-11-02T15:46:35Z</time>
      </trkpt>
      <trkpt lat="43.17472" lon="-0.17797">
        <ele>367.84</ele>
        <time>2014-11-02T15:46:39Z</time>
      </trkpt>
      <trkpt lat="43.17459" lon="-0.17768">
        <ele>367.84</ele>
        <time>2014-11-02T15:46:51Z</time>
      </trkpt>
      <trkpt lat="43.17458" lon="-0.17762">
        <ele>367.84</ele>
        <time>2014-11-02T15:46:53Z</time>
      </trkpt>
      <trkpt lat="43.17456" lon="-0.17758">
        <ele>368.32</ele>
        <time>2014-11-02T15:46:55Z</time>
      </trkpt>
      <trkpt lat="43.17443" lon="-0.1773">
        <ele>371.21</ele>
        <time>2014-11-02T15:47:07Z</time>
      </trkpt>
      <trkpt lat="43.1743" lon="-0.17704">
        <ele>373.61</ele>
        <time>2014-11-02T15:47:20Z</time>
      </trkpt>
      <trkpt lat="43.17424" lon="-0.17691">
        <ele>375.53</ele>
        <time>2014-11-02T15:47:27Z</time>
      </trkpt>
      <trkpt lat="43.17407" lon="-0.1768">
        <ele>378.9</ele>
        <time>2014-11-02T15:47:39Z</time>
      </trkpt>
      <trkpt lat="43.17399" lon="-0.17683">
        <ele>380.34</ele>
        <time>2014-11-02T15:47:46Z</time>
      </trkpt>
      <trkpt lat="43.17394" lon="-0.17682">
        <ele>380.82</ele>
        <time>2014-11-02T15:47:49Z</time>
      </trkpt>
      <trkpt lat="43.17374" lon="-0.17673">
        <ele>381.78</ele>
        <time>2014-11-02T15:48:01Z</time>
      </trkpt>
      <trkpt lat="43.17359" lon="-0.17655">
        <ele>381.3</ele>
        <time>2014-11-02T15:48:14Z</time>
      </trkpt>
      <trkpt lat="43.17343" lon="-0.17632">
        <ele>381.78</ele>
        <time>2014-11-02T15:48:27Z</time>
      </trkpt>
      <trkpt lat="43.17336" lon="-0.17623">
        <ele>382.26</ele>
        <time>2014-11-02T15:48:34Z</time>
      </trkpt>
      <trkpt lat="43.17335" lon="-0.1762">
        <ele>382.26</ele>
        <time>2014-11-02T15:48:36Z</time>
      </trkpt>
      <trkpt lat="43.17332" lon="-0.17616">
        <ele>382.74</ele>
        <time>2014-11-02T15:48:40Z</time>
      </trkpt>
      <trkpt lat="43.17318" lon="-0.17597">
        <ele>384.66</ele>
        <time>2014-11-02T15:48:54Z</time>
      </trkpt>
      <trkpt lat="43.17299" lon="-0.17578">
        <ele>385.15</ele>
        <time>2014-11-02T15:49:08Z</time>
      </trkpt>
      <trkpt lat="43.17295" lon="-0.17573">
        <ele>385.63</ele>
        <time>2014-11-02T15:49:12Z</time>
      </trkpt>
      <trkpt lat="43.17288" lon="-0.17567">
        <ele>386.59</ele>
        <time>2014-11-02T15:49:23Z</time>
      </trkpt>
      <trkpt lat="43.17287" lon="-0.17563">
        <ele>386.11</ele>
        <time>2014-11-02T15:49:28Z</time>
      </trkpt>
      <trkpt lat="43.17286" lon="-0.17559">
        <ele>386.11</ele>
        <time>2014-11-02T15:49:31Z</time>
      </trkpt>
      <trkpt lat="43.17285" lon="-0.17542">
        <ele>385.63</ele>
        <time>2014-11-02T15:49:46Z</time>
      </trkpt>
      <trkpt lat="43.17282" lon="-0.17537">
        <ele>386.11</ele>
        <time>2014-11-02T15:49:59Z</time>
      </trkpt>
      <trkpt lat="43.17279" lon="-0.17549">
        <ele>386.11</ele>
        <time>2014-11-02T15:50:08Z</time>
      </trkpt>
      <trkpt lat="43.17275" lon="-0.17559">
        <ele>385.63</ele>
        <time>2014-11-02T15:50:15Z</time>
      </trkpt>
      <trkpt lat="43.17273" lon="-0.17563">
        <ele>386.59</ele>
        <time>2014-11-02T15:50:19Z</time>
      </trkpt>
      <trkpt lat="43.17271" lon="-0.17567">
        <ele>387.07</ele>
        <time>2014-11-02T15:50:23Z</time>
      </trkpt>
      <trkpt lat="43.17264" lon="-0.17578">
        <ele>390.43</ele>
        <time>2014-11-02T15:50:36Z</time>
      </trkpt>
      <trkpt lat="43.17261" lon="-0.17584">
        <ele>390.43</ele>
        <time>2014-11-02T15:50:46Z</time>
      </trkpt>
      <trkpt lat="43.17256" lon="-0.17594">
        <ele>392.36</ele>
        <time>2014-11-02T15:50:57Z</time>
      </trkpt>
      <trkpt lat="43.17249" lon="-0.17613">
        <ele>393.32</ele>
        <time>2014-11-02T15:51:08Z</time>
      </trkpt>
      <trkpt lat="43.17244" lon="-0.17627">
        <ele>394.28</ele>
        <time>2014-11-02T15:51:17Z</time>
      </trkpt>
      <trkpt lat="43.17241" lon="-0.17644">
        <ele>394.76</ele>
        <time>2014-11-02T15:51:23Z</time>
      </trkpt>
      <trkpt lat="43.17236" lon="-0.17656">
        <ele>395.72</ele>
        <time>2014-11-02T15:51:29Z</time>
      </trkpt>
      <trkpt lat="43.17233" lon="-0.17664">
        <ele>396.68</ele>
        <time>2014-11-02T15:51:33Z</time>
      </trkpt>
      <trkpt lat="43.1723" lon="-0.17679">
        <ele>398.12</ele>
        <time>2014-11-02T15:51:41Z</time>
      </trkpt>
      <trkpt lat="43.17227" lon="-0.17709">
        <ele>399.08</ele>
        <time>2014-11-02T15:51:53Z</time>
      </trkpt>
      <trkpt lat="43.17225" lon="-0.17715">
        <ele>399.08</ele>
        <time>2014-11-02T15:51:56Z</time>
      </trkpt>
      <trkpt lat="43.17218" lon="-0.1774">
        <ele>400.53</ele>
        <time>2014-11-02T15:52:10Z</time>
      </trkpt>
      <trkpt lat="43.17209" lon="-0.17744">
        <ele>403.41</ele>
        <time>2014-11-02T15:52:23Z</time>
      </trkpt>
      <trkpt lat="43.17206" lon="-0.17747">
        <ele>403.41</ele>
        <time>2014-11-02T15:52:26Z</time>
      </trkpt>
      <trkpt lat="43.17191" lon="-0.17759">
        <ele>404.85</ele>
        <time>2014-11-02T15:52:37Z</time>
      </trkpt>
      <trkpt lat="43.1718" lon="-0.17779">
        <ele>406.77</ele>
        <time>2014-11-02T15:52:52Z</time>
      </trkpt>
      <trkpt lat="43.1718" lon="-0.17781">
        <ele>406.29</ele>
        <time>2014-11-02T15:52:53Z</time>
      </trkpt>
      <trkpt lat="43.17178" lon="-0.17779">
        <ele>406.29</ele>
        <time>2014-11-02T15:52:57Z</time>
      </trkpt>
      <trkpt lat="43.17178" lon="-0.17773">
        <ele>407.26</ele>
        <time>2014-11-02T15:53:01Z</time>
      </trkpt>
      <trkpt lat="43.17174" lon="-0.17762">
        <ele>407.74</ele>
        <time>2014-11-02T15:53:07Z</time>
      </trkpt>
      <trkpt lat="43.17166" lon="-0.17737">
        <ele>407.26</ele>
        <time>2014-11-02T15:53:16Z</time>
      </trkpt>
      <trkpt lat="43.17162" lon="-0.17733">
        <ele>407.74</ele>
        <time>2014-11-02T15:53:19Z</time>
      </trkpt>
      <trkpt lat="43.17148" lon="-0.17715">
        <ele>410.62</ele>
        <time>2014-11-02T15:53:28Z</time>
      </trkpt>
      <trkpt lat="43.17131" lon="-0.17692">
        <ele>410.14</ele>
        <time>2014-11-02T15:53:37Z</time>
      </trkpt>
      <trkpt lat="43.17103" lon="-0.17682">
        <ele>409.66</ele>
        <time>2014-11-02T15:53:49Z</time>
      </trkpt>
      <trkpt lat="43.17095" lon="-0.17681">
        <ele>409.18</ele>
        <time>2014-11-02T15:53:54Z</time>
      </trkpt>
      <trkpt lat="43.17089" lon="-0.17677">
        <ele>410.62</ele>
        <time>2014-11-02T15:53:59Z</time>
      </trkpt>
      <trkpt lat="43.17075" lon="-0.17662">
        <ele>413.02</ele>
        <time>2014-11-02T15:54:13Z</time>
      </trkpt>
      <trkpt lat="43.17067" lon="-0.17657">
        <ele>413.98</ele>
        <time>2014-11-02T15:54:19Z</time>
      </trkpt>
      <trkpt lat="43.17043" lon="-0.17642">
        <ele>415.43</ele>
        <time>2014-11-02T15:54:32Z</time>
      </trkpt>
      <trkpt lat="43.17019" lon="-0.17625">
        <ele>418.31</ele>
        <time>2014-11-02T15:54:46Z</time>
      </trkpt>
      <trkpt lat="43.17004" lon="-0.17604">
        <ele>419.27</ele>
        <time>2014-11-02T15:54:58Z</time>
      </trkpt>
      <trkpt lat="43.16995" lon="-0.17583">
        <ele>419.27</ele>
        <time>2014-11-02T15:55:09Z</time>
      </trkpt>
      <trkpt lat="43.16994" lon="-0.17579">
        <ele>419.27</ele>
        <time>2014-11-02T15:55:11Z</time>
      </trkpt>
      <trkpt lat="43.16983" lon="-0.17563">
        <ele>419.75</ele>
        <time>2014-11-02T15:55:18Z</time>
      </trkpt>
      <trkpt lat="43.16976" lon="-0.17552">
        <ele>419.27</ele>
        <time>2014-11-02T15:55:23Z</time>
      </trkpt>
      <trkpt lat="43.16954" lon="-0.17517">
        <ele>419.27</ele>
        <time>2014-11-02T15:55:38Z</time>
      </trkpt>
      <trkpt lat="43.16948" lon="-0.1751">
        <ele>419.75</ele>
        <time>2014-11-02T15:55:44Z</time>
      </trkpt>
      <trkpt lat="43.16943" lon="-0.17508">
        <ele>420.71</ele>
        <time>2014-11-02T15:55:48Z</time>
      </trkpt>
      <trkpt lat="43.16937" lon="-0.17505">
        <ele>423.12</ele>
        <time>2014-11-02T15:55:54Z</time>
      </trkpt>
      <trkpt lat="43.16927" lon="-0.17501">
        <ele>426</ele>
        <time>2014-11-02T15:56:05Z</time>
      </trkpt>
      <trkpt lat="43.16916" lon="-0.17505">
        <ele>427.92</ele>
        <time>2014-11-02T15:56:17Z</time>
      </trkpt>
      <trkpt lat="43.16918" lon="-0.1751">
        <ele>431.29</ele>
        <time>2014-11-02T15:56:29Z</time>
      </trkpt>
      <trkpt lat="43.16921" lon="-0.17517">
        <ele>432.73</ele>
        <time>2014-11-02T15:56:40Z</time>
      </trkpt>
      <trkpt lat="43.16921" lon="-0.1752">
        <ele>432.73</ele>
        <time>2014-11-02T15:56:42Z</time>
      </trkpt>
      <trkpt lat="43.16925" lon="-0.17533">
        <ele>434.65</ele>
        <time>2014-11-02T15:56:52Z</time>
      </trkpt>
      <trkpt lat="43.16929" lon="-0.17554">
        <ele>435.61</ele>
        <time>2014-11-02T15:57:05Z</time>
      </trkpt>
      <trkpt lat="43.16931" lon="-0.17563">
        <ele>437.54</ele>
        <time>2014-11-02T15:57:15Z</time>
      </trkpt>
      <trkpt lat="43.16932" lon="-0.17581">
        <ele>439.46</ele>
        <time>2014-11-02T15:57:27Z</time>
      </trkpt>
      <trkpt lat="43.16932" lon="-0.17595">
        <ele>440.9</ele>
        <time>2014-11-02T15:57:39Z</time>
      </trkpt>
      <trkpt lat="43.16932" lon="-0.17596">
        <ele>441.38</ele>
        <time>2014-11-02T15:57:43Z</time>
      </trkpt>
      <trkpt lat="43.16929" lon="-0.17609">
        <ele>443.31</ele>
        <time>2014-11-02T15:57:55Z</time>
      </trkpt>
      <trkpt lat="43.16923" lon="-0.17615">
        <ele>446.19</ele>
        <time>2014-11-02T15:58:08Z</time>
      </trkpt>
      <trkpt lat="43.16919" lon="-0.17619">
        <ele>449.55</ele>
        <time>2014-11-02T15:58:20Z</time>
      </trkpt>
      <trkpt lat="43.16919" lon="-0.17615">
        <ele>449.55</ele>
        <time>2014-11-02T15:58:28Z</time>
      </trkpt>
      <trkpt lat="43.16926" lon="-0.17627">
        <ele>449.07</ele>
        <time>2014-11-02T15:58:56Z</time>
      </trkpt>
      <trkpt lat="43.1692" lon="-0.17673">
        <ele>450.03</ele>
        <time>2014-11-02T15:59:30Z</time>
      </trkpt>
      <trkpt lat="43.16916" lon="-0.17676">
        <ele>451.96</ele>
        <time>2014-11-02T15:59:42Z</time>
      </trkpt>
      <trkpt lat="43.16912" lon="-0.17677">
        <ele>453.88</ele>
        <time>2014-11-02T15:59:54Z</time>
      </trkpt>
      <trkpt lat="43.16911" lon="-0.17678">
        <ele>454.36</ele>
        <time>2014-11-02T15:59:57Z</time>
      </trkpt>
      <trkpt lat="43.16904" lon="-0.1768">
        <ele>456.28</ele>
        <time>2014-11-02T16:00:04Z</time>
      </trkpt>
      <trkpt lat="43.16888" lon="-0.17687">
        <ele>458.69</ele>
        <time>2014-11-02T16:00:18Z</time>
      </trkpt>
      <trkpt lat="43.16871" lon="-0.17691">
        <ele>460.13</ele>
        <time>2014-11-02T16:00:28Z</time>
      </trkpt>
      <trkpt lat="43.16863" lon="-0.17695">
        <ele>462.53</ele>
        <time>2014-11-02T16:00:39Z</time>
      </trkpt>
      <trkpt lat="43.16852" lon="-0.17699">
        <ele>464.93</ele>
        <time>2014-11-02T16:00:51Z</time>
      </trkpt>
      <trkpt lat="43.1685" lon="-0.17699">
        <ele>465.42</ele>
        <time>2014-11-02T16:00:53Z</time>
      </trkpt>
      <trkpt lat="43.16829" lon="-0.17704">
        <ele>467.82</ele>
        <time>2014-11-02T16:01:09Z</time>
      </trkpt>
      <trkpt lat="43.16822" lon="-0.17709">
        <ele>468.3</ele>
        <time>2014-11-02T16:01:13Z</time>
      </trkpt>
      <trkpt lat="43.16816" lon="-0.17722">
        <ele>467.82</ele>
        <time>2014-11-02T16:01:21Z</time>
      </trkpt>
      <trkpt lat="43.16819" lon="-0.17739">
        <ele>468.3</ele>
        <time>2014-11-02T16:01:30Z</time>
      </trkpt>
      <trkpt lat="43.16819" lon="-0.17743">
        <ele>468.3</ele>
        <time>2014-11-02T16:01:32Z</time>
      </trkpt>
      <trkpt lat="43.16822" lon="-0.17757">
        <ele>469.26</ele>
        <time>2014-11-02T16:01:39Z</time>
      </trkpt>
      <trkpt lat="43.16819" lon="-0.17776">
        <ele>469.74</ele>
        <time>2014-11-02T16:01:50Z</time>
      </trkpt>
      <trkpt lat="43.16816" lon="-0.17789">
        <ele>469.74</ele>
        <time>2014-11-02T16:02:01Z</time>
      </trkpt>
      <trkpt lat="43.16817" lon="-0.17804">
        <ele>469.26</ele>
        <time>2014-11-02T16:02:32Z</time>
      </trkpt>
      <trkpt lat="43.16816" lon="-0.17805">
        <ele>472.63</ele>
        <time>2014-11-02T16:02:43Z</time>
      </trkpt>
      <trkpt lat="43.16816" lon="-0.17805">
        <ele>468.78</ele>
        <time>2014-11-02T16:02:45Z</time>
      </trkpt>
      <trkpt lat="43.16815" lon="-0.17807">
        <ele>465.9</ele>
        <time>2014-11-02T16:02:52Z</time>
      </trkpt>
      <trkpt lat="43.16815" lon="-0.17808">
        <ele>469.74</ele>
        <time>2014-11-02T16:02:53Z</time>
      </trkpt>
      <trkpt lat="43.16815" lon="-0.1781">
        <ele>470.7</ele>
        <time>2014-11-02T16:03:03Z</time>
      </trkpt>
      <trkpt lat="43.16815" lon="-0.17814">
        <ele>467.82</ele>
        <time>2014-11-02T16:03:16Z</time>
      </trkpt>
      <trkpt lat="43.16815" lon="-0.17814">
        <ele>471.18</ele>
        <time>2014-11-02T16:03:21Z</time>
      </trkpt>
      <trkpt lat="43.16815" lon="-0.17814">
        <ele>467.82</ele>
        <time>2014-11-02T16:03:22Z</time>
      </trkpt>
      <trkpt lat="43.16815" lon="-0.17814">
        <ele>467.82</ele>
        <time>2014-11-02T16:03:23Z</time>
      </trkpt>
      <trkpt lat="43.16814" lon="-0.17815">
        <ele>471.66</ele>
        <time>2014-11-02T16:03:34Z</time>
      </trkpt>
      <trkpt lat="43.16815" lon="-0.17815">
        <ele>466.86</ele>
        <time>2014-11-02T16:03:38Z</time>
      </trkpt>
      <trkpt lat="43.16815" lon="-0.17815">
        <ele>470.22</ele>
        <time>2014-11-02T16:03:41Z</time>
      </trkpt>
      <trkpt lat="43.16815" lon="-0.17815">
        <ele>467.82</ele>
        <time>2014-11-02T16:03:56Z</time>
      </trkpt>
      <trkpt lat="43.16815" lon="-0.17815">
        <ele>469.26</ele>
        <time>2014-11-02T16:03:59Z</time>
      </trkpt>
      <trkpt lat="43.16815" lon="-0.17817">
        <ele>467.82</ele>
        <time>2014-11-02T16:04:23Z</time>
      </trkpt>
      <trkpt lat="43.16815" lon="-0.17817">
        <ele>468.78</ele>
        <time>2014-11-02T16:04:24Z</time>
      </trkpt>
      <trkpt lat="43.16815" lon="-0.17817">
        <ele>468.78</ele>
        <time>2014-11-02T16:04:33Z</time>
      </trkpt>
      <trkpt lat="43.16814" lon="-0.17818">
        <ele>468.3</ele>
        <time>2014-11-02T16:04:43Z</time>
      </trkpt>
      <trkpt lat="43.16814" lon="-0.1782">
        <ele>469.74</ele>
        <time>2014-11-02T16:05:05Z</time>
      </trkpt>
      <trkpt lat="43.16814" lon="-0.1782">
        <ele>465.42</ele>
        <time>2014-11-02T16:05:09Z</time>
      </trkpt>
      <trkpt lat="43.16814" lon="-0.1782">
        <ele>468.78</ele>
        <time>2014-11-02T16:05:10Z</time>
      </trkpt>
      <trkpt lat="43.16814" lon="-0.17821">
        <ele>466.86</ele>
        <time>2014-11-02T16:05:13Z</time>
      </trkpt>
      <trkpt lat="43.16814" lon="-0.17821">
        <ele>470.22</ele>
        <time>2014-11-02T16:05:16Z</time>
      </trkpt>
      <trkpt lat="43.16814" lon="-0.17821">
        <ele>466.38</ele>
        <time>2014-11-02T16:05:17Z</time>
      </trkpt>
      <trkpt lat="43.16815" lon="-0.17821">
        <ele>468.3</ele>
        <time>2014-11-02T16:05:25Z</time>
      </trkpt>
      <trkpt lat="43.16815" lon="-0.17821">
        <ele>465.42</ele>
        <time>2014-11-02T16:05:33Z</time>
      </trkpt>
      <trkpt lat="43.16814" lon="-0.17821">
        <ele>469.26</ele>
        <time>2014-11-02T16:05:35Z</time>
      </trkpt>
      <trkpt lat="43.16814" lon="-0.17821">
        <ele>469.26</ele>
        <time>2014-11-02T16:05:36Z</time>
      </trkpt>
      <trkpt lat="43.16814" lon="-0.17821">
        <ele>467.82</ele>
        <time>2014-11-02T16:05:49Z</time>
      </trkpt>
      <trkpt lat="43.16813" lon="-0.1782">
        <ele>470.22</ele>
        <time>2014-11-02T16:06:15Z</time>
      </trkpt>
      <trkpt lat="43.16813" lon="-0.1782">
        <ele>466.38</ele>
        <time>2014-11-02T16:06:17Z</time>
      </trkpt>
      <trkpt lat="43.16813" lon="-0.1782">
        <ele>468.3</ele>
        <time>2014-11-02T16:06:21Z</time>
      </trkpt>
      <trkpt lat="43.16813" lon="-0.1782">
        <ele>465.42</ele>
        <time>2014-11-02T16:06:24Z</time>
      </trkpt>
      <trkpt lat="43.16813" lon="-0.1782">
        <ele>465.9</ele>
        <time>2014-11-02T16:06:25Z</time>
      </trkpt>
      <trkpt lat="43.16813" lon="-0.1782">
        <ele>467.34</ele>
        <time>2014-11-02T16:06:32Z</time>
      </trkpt>
      <trkpt lat="43.16813" lon="-0.1782">
        <ele>464.93</ele>
        <time>2014-11-02T16:06:34Z</time>
      </trkpt>
      <trkpt lat="43.16813" lon="-0.1782">
        <ele>467.82</ele>
        <time>2014-11-02T16:06:38Z</time>
      </trkpt>
      <trkpt lat="43.16813" lon="-0.1782">
        <ele>467.34</ele>
        <time>2014-11-02T16:07:01Z</time>
      </trkpt>
      <trkpt lat="43.16813" lon="-0.17819">
        <ele>466.86</ele>
        <time>2014-11-02T16:07:10Z</time>
      </trkpt>
      <trkpt lat="43.16811" lon="-0.17823">
        <ele>466.38</ele>
        <time>2014-11-02T16:07:14Z</time>
      </trkpt>
      <trkpt lat="43.16795" lon="-0.17842">
        <ele>464.93</ele>
        <time>2014-11-02T16:07:26Z</time>
      </trkpt>
      <trkpt lat="43.1678" lon="-0.17859">
        <ele>461.57</ele>
        <time>2014-11-02T16:07:31Z</time>
      </trkpt>
      <trkpt lat="43.16773" lon="-0.17866">
        <ele>460.13</ele>
        <time>2014-11-02T16:07:33Z</time>
      </trkpt>
      <trkpt lat="43.1677" lon="-0.1787">
        <ele>459.17</ele>
        <time>2014-11-02T16:07:34Z</time>
      </trkpt>
      <trkpt lat="43.16765" lon="-0.17875">
        <ele>457.72</ele>
        <time>2014-11-02T16:07:35Z</time>
      </trkpt>
      <trkpt lat="43.1676" lon="-0.1788">
        <ele>457.24</ele>
        <time>2014-11-02T16:07:36Z</time>
      </trkpt>
      <trkpt lat="43.16754" lon="-0.17885">
        <ele>456.28</ele>
        <time>2014-11-02T16:07:37Z</time>
      </trkpt>
      <trkpt lat="43.16742" lon="-0.17898">
        <ele>455.32</ele>
        <time>2014-11-02T16:07:39Z</time>
      </trkpt>
      <trkpt lat="43.16735" lon="-0.17905">
        <ele>452.92</ele>
        <time>2014-11-02T16:07:40Z</time>
      </trkpt>
      <trkpt lat="43.16728" lon="-0.17913">
        <ele>453.4</ele>
        <time>2014-11-02T16:07:41Z</time>
      </trkpt>
      <trkpt lat="43.16694" lon="-0.1795">
        <ele>451.96</ele>
        <time>2014-11-02T16:07:46Z</time>
      </trkpt>
      <trkpt lat="43.16672" lon="-0.17971">
        <ele>449.07</ele>
        <time>2014-11-02T16:07:53Z</time>
      </trkpt>
      <trkpt lat="43.16672" lon="-0.17972">
        <ele>449.07</ele>
        <time>2014-11-02T16:07:54Z</time>
      </trkpt>
      <trkpt lat="43.16664" lon="-0.17975">
        <ele>449.07</ele>
        <time>2014-11-02T16:08:04Z</time>
      </trkpt>
      <trkpt lat="43.16665" lon="-0.17977">
        <ele>448.59</ele>
        <time>2014-11-02T16:08:07Z</time>
      </trkpt>
      <trkpt lat="43.16666" lon="-0.17977">
        <ele>449.55</ele>
        <time>2014-11-02T16:08:09Z</time>
      </trkpt>
      <trkpt lat="43.16665" lon="-0.17976">
        <ele>449.07</ele>
        <time>2014-11-02T16:08:10Z</time>
      </trkpt>
      <trkpt lat="43.16663" lon="-0.17974">
        <ele>450.03</ele>
        <time>2014-11-02T16:08:13Z</time>
      </trkpt>
      <trkpt lat="43.16661" lon="-0.17974">
        <ele>449.55</ele>
        <time>2014-11-02T16:08:14Z</time>
      </trkpt>
      <trkpt lat="43.16658" lon="-0.17977">
        <ele>449.55</ele>
        <time>2014-11-02T16:08:15Z</time>
      </trkpt>
      <trkpt lat="43.16656" lon="-0.1798">
        <ele>449.07</ele>
        <time>2014-11-02T16:08:16Z</time>
      </trkpt>
      <trkpt lat="43.16652" lon="-0.17984">
        <ele>448.59</ele>
        <time>2014-11-02T16:08:17Z</time>
      </trkpt>
      <trkpt lat="43.16648" lon="-0.17988">
        <ele>448.11</ele>
        <time>2014-11-02T16:08:18Z</time>
      </trkpt>
      <trkpt lat="43.16643" lon="-0.17994">
        <ele>447.15</ele>
        <time>2014-11-02T16:08:19Z</time>
      </trkpt>
      <trkpt lat="43.16619" lon="-0.1802">
        <ele>443.31</ele>
        <time>2014-11-02T16:08:23Z</time>
      </trkpt>
      <trkpt lat="43.16592" lon="-0.18053">
        <ele>438.5</ele>
        <time>2014-11-02T16:08:27Z</time>
      </trkpt>
      <trkpt lat="43.16566" lon="-0.18081">
        <ele>435.61</ele>
        <time>2014-11-02T16:08:31Z</time>
      </trkpt>
      <trkpt lat="43.1655" lon="-0.18097">
        <ele>432.25</ele>
        <time>2014-11-02T16:08:34Z</time>
      </trkpt>
      <trkpt lat="43.16544" lon="-0.18101">
        <ele>429.85</ele>
        <time>2014-11-02T16:08:35Z</time>
      </trkpt>
      <trkpt lat="43.1654" lon="-0.18104">
        <ele>430.33</ele>
        <time>2014-11-02T16:08:36Z</time>
      </trkpt>
      <trkpt lat="43.16534" lon="-0.18108">
        <ele>428.89</ele>
        <time>2014-11-02T16:08:39Z</time>
      </trkpt>
      <trkpt lat="43.16531" lon="-0.18109">
        <ele>428.4</ele>
        <time>2014-11-02T16:08:40Z</time>
      </trkpt>
      <trkpt lat="43.16528" lon="-0.1811">
        <ele>427.92</ele>
        <time>2014-11-02T16:08:41Z</time>
      </trkpt>
      <trkpt lat="43.16524" lon="-0.18111">
        <ele>427.44</ele>
        <time>2014-11-02T16:08:42Z</time>
      </trkpt>
      <trkpt lat="43.16519" lon="-0.18112">
        <ele>426.96</ele>
        <time>2014-11-02T16:08:43Z</time>
      </trkpt>
      <trkpt lat="43.16513" lon="-0.18112">
        <ele>426.48</ele>
        <time>2014-11-02T16:08:44Z</time>
      </trkpt>
      <trkpt lat="43.16507" lon="-0.18113">
        <ele>425.04</ele>
        <time>2014-11-02T16:08:45Z</time>
      </trkpt>
      <trkpt lat="43.16501" lon="-0.18112">
        <ele>424.08</ele>
        <time>2014-11-02T16:08:46Z</time>
      </trkpt>
      <trkpt lat="43.16497" lon="-0.18109">
        <ele>423.6</ele>
        <time>2014-11-02T16:08:47Z</time>
      </trkpt>
      <trkpt lat="43.16492" lon="-0.18105">
        <ele>423.12</ele>
        <time>2014-11-02T16:08:48Z</time>
      </trkpt>
      <trkpt lat="43.16475" lon="-0.18088">
        <ele>419.75</ele>
        <time>2014-11-02T16:08:51Z</time>
      </trkpt>
      <trkpt lat="43.16469" lon="-0.18083">
        <ele>418.31</ele>
        <time>2014-11-02T16:08:52Z</time>
      </trkpt>
      <trkpt lat="43.16462" lon="-0.18079">
        <ele>416.87</ele>
        <time>2014-11-02T16:08:53Z</time>
      </trkpt>
      <trkpt lat="43.16456" lon="-0.18076">
        <ele>415.91</ele>
        <time>2014-11-02T16:08:54Z</time>
      </trkpt>
      <trkpt lat="43.1645" lon="-0.18077">
        <ele>415.43</ele>
        <time>2014-11-02T16:08:55Z</time>
      </trkpt>
      <trkpt lat="43.16444" lon="-0.18078">
        <ele>414.95</ele>
        <time>2014-11-02T16:08:56Z</time>
      </trkpt>
      <trkpt lat="43.16437" lon="-0.18079">
        <ele>413.98</ele>
        <time>2014-11-02T16:08:57Z</time>
      </trkpt>
      <trkpt lat="43.1643" lon="-0.18082">
        <ele>413.5</ele>
        <time>2014-11-02T16:08:58Z</time>
      </trkpt>
      <trkpt lat="43.16416" lon="-0.1809">
        <ele>411.1</ele>
        <time>2014-11-02T16:09:00Z</time>
      </trkpt>
      <trkpt lat="43.16402" lon="-0.18101">
        <ele>406.77</ele>
        <time>2014-11-02T16:09:03Z</time>
      </trkpt>
      <trkpt lat="43.16399" lon="-0.18105">
        <ele>407.74</ele>
        <time>2014-11-02T16:09:04Z</time>
      </trkpt>
      <trkpt lat="43.16396" lon="-0.18111">
        <ele>407.26</ele>
        <time>2014-11-02T16:09:05Z</time>
      </trkpt>
      <trkpt lat="43.16392" lon="-0.18117">
        <ele>405.33</ele>
        <time>2014-11-02T16:09:06Z</time>
      </trkpt>
      <trkpt lat="43.1639" lon="-0.18124">
        <ele>403.89</ele>
        <time>2014-11-02T16:09:07Z</time>
      </trkpt>
      <trkpt lat="43.16383" lon="-0.18153">
        <ele>399.08</ele>
        <time>2014-11-02T16:09:10Z</time>
      </trkpt>
      <trkpt lat="43.16379" lon="-0.18163">
        <ele>398.6</ele>
        <time>2014-11-02T16:09:11Z</time>
      </trkpt>
      <trkpt lat="43.16373" lon="-0.18172">
        <ele>397.16</ele>
        <time>2014-11-02T16:09:12Z</time>
      </trkpt>
      <trkpt lat="43.16363" lon="-0.18187">
        <ele>395.24</ele>
        <time>2014-11-02T16:09:14Z</time>
      </trkpt>
      <trkpt lat="43.16357" lon="-0.18192">
        <ele>393.8</ele>
        <time>2014-11-02T16:09:15Z</time>
      </trkpt>
      <trkpt lat="43.1635" lon="-0.18195">
        <ele>392.84</ele>
        <time>2014-11-02T16:09:16Z</time>
      </trkpt>
      <trkpt lat="43.16338" lon="-0.18198">
        <ele>390.43</ele>
        <time>2014-11-02T16:09:18Z</time>
      </trkpt>
      <trkpt lat="43.16318" lon="-0.18199">
        <ele>388.51</ele>
        <time>2014-11-02T16:09:21Z</time>
      </trkpt>
      <trkpt lat="43.16305" lon="-0.18201">
        <ele>386.59</ele>
        <time>2014-11-02T16:09:23Z</time>
      </trkpt>
      <trkpt lat="43.163" lon="-0.18204">
        <ele>385.63</ele>
        <time>2014-11-02T16:09:24Z</time>
      </trkpt>
      <trkpt lat="43.16277" lon="-0.18224">
        <ele>381.78</ele>
        <time>2014-11-02T16:09:28Z</time>
      </trkpt>
      <trkpt lat="43.16269" lon="-0.18229">
        <ele>380.82</ele>
        <time>2014-11-02T16:09:29Z</time>
      </trkpt>
      <trkpt lat="43.16257" lon="-0.1824">
        <ele>377.45</ele>
        <time>2014-11-02T16:09:31Z</time>
      </trkpt>
      <trkpt lat="43.16245" lon="-0.18251">
        <ele>375.53</ele>
        <time>2014-11-02T16:09:33Z</time>
      </trkpt>
      <trkpt lat="43.16241" lon="-0.18259">
        <ele>374.57</ele>
        <time>2014-11-02T16:09:34Z</time>
      </trkpt>
      <trkpt lat="43.16236" lon="-0.18266">
        <ele>373.13</ele>
        <time>2014-11-02T16:09:35Z</time>
      </trkpt>
      <trkpt lat="43.16232" lon="-0.18273">
        <ele>372.17</ele>
        <time>2014-11-02T16:09:36Z</time>
      </trkpt>
      <trkpt lat="43.16228" lon="-0.18279">
        <ele>370.73</ele>
        <time>2014-11-02T16:09:37Z</time>
      </trkpt>
      <trkpt lat="43.16223" lon="-0.18284">
        <ele>369.76</ele>
        <time>2014-11-02T16:09:38Z</time>
      </trkpt>
      <trkpt lat="43.16216" lon="-0.18287">
        <ele>368.8</ele>
        <time>2014-11-02T16:09:39Z</time>
      </trkpt>
      <trkpt lat="43.1621" lon="-0.18289">
        <ele>368.8</ele>
        <time>2014-11-02T16:09:40Z</time>
      </trkpt>
      <trkpt lat="43.16196" lon="-0.18294">
        <ele>366.88</ele>
        <time>2014-11-02T16:09:42Z</time>
      </trkpt>
      <trkpt lat="43.16189" lon="-0.18299">
        <ele>365.44</ele>
        <time>2014-11-02T16:09:43Z</time>
      </trkpt>
      <trkpt lat="43.16182" lon="-0.18305">
        <ele>364.48</ele>
        <time>2014-11-02T16:09:44Z</time>
      </trkpt>
      <trkpt lat="43.16176" lon="-0.18309">
        <ele>363.52</ele>
        <time>2014-11-02T16:09:45Z</time>
      </trkpt>
      <trkpt lat="43.16171" lon="-0.18311">
        <ele>363.04</ele>
        <time>2014-11-02T16:09:46Z</time>
      </trkpt>
      <trkpt lat="43.16165" lon="-0.18313">
        <ele>362.55</ele>
        <time>2014-11-02T16:09:47Z</time>
      </trkpt>
      <trkpt lat="43.1616" lon="-0.18316">
        <ele>362.07</ele>
        <time>2014-11-02T16:09:48Z</time>
      </trkpt>
      <trkpt lat="43.16154" lon="-0.18319">
        <ele>362.07</ele>
        <time>2014-11-02T16:09:49Z</time>
      </trkpt>
      <trkpt lat="43.16149" lon="-0.18322">
        <ele>361.59</ele>
        <time>2014-11-02T16:09:50Z</time>
      </trkpt>
      <trkpt lat="43.16143" lon="-0.18325">
        <ele>361.59</ele>
        <time>2014-11-02T16:09:51Z</time>
      </trkpt>
      <trkpt lat="43.16138" lon="-0.18329">
        <ele>361.11</ele>
        <time>2014-11-02T16:09:52Z</time>
      </trkpt>
      <trkpt lat="43.16132" lon="-0.18335">
        <ele>360.63</ele>
        <time>2014-11-02T16:09:53Z</time>
      </trkpt>
      <trkpt lat="43.16127" lon="-0.1834">
        <ele>360.15</ele>
        <time>2014-11-02T16:09:54Z</time>
      </trkpt>
      <trkpt lat="43.16122" lon="-0.18346">
        <ele>359.67</ele>
        <time>2014-11-02T16:09:55Z</time>
      </trkpt>
      <trkpt lat="43.16118" lon="-0.18353">
        <ele>359.19</ele>
        <time>2014-11-02T16:09:56Z</time>
      </trkpt>
      <trkpt lat="43.16109" lon="-0.18364">
        <ele>357.27</ele>
        <time>2014-11-02T16:09:58Z</time>
      </trkpt>
      <trkpt lat="43.16105" lon="-0.1837">
        <ele>358.23</ele>
        <time>2014-11-02T16:09:59Z</time>
      </trkpt>
      <trkpt lat="43.16097" lon="-0.18384">
        <ele>357.27</ele>
        <time>2014-11-02T16:10:01Z</time>
      </trkpt>
      <trkpt lat="43.16086" lon="-0.18396">
        <ele>356.79</ele>
        <time>2014-11-02T16:10:03Z</time>
      </trkpt>
      <trkpt lat="43.16061" lon="-0.18421">
        <ele>354.86</ele>
        <time>2014-11-02T16:10:07Z</time>
      </trkpt>
      <trkpt lat="43.16057" lon="-0.18427">
        <ele>354.38</ele>
        <time>2014-11-02T16:10:08Z</time>
      </trkpt>
      <trkpt lat="43.16041" lon="-0.18449">
        <ele>352.94</ele>
        <time>2014-11-02T16:10:11Z</time>
      </trkpt>
      <trkpt lat="43.16036" lon="-0.18457">
        <ele>352.46</ele>
        <time>2014-11-02T16:10:12Z</time>
      </trkpt>
      <trkpt lat="43.16023" lon="-0.18484">
        <ele>348.13</ele>
        <time>2014-11-02T16:10:16Z</time>
      </trkpt>
      <trkpt lat="43.16011" lon="-0.18499">
        <ele>347.65</ele>
        <time>2014-11-02T16:10:22Z</time>
      </trkpt>
      <trkpt lat="43.1601" lon="-0.18501">
        <ele>347.65</ele>
        <time>2014-11-02T16:10:23Z</time>
      </trkpt>
      <trkpt lat="43.16" lon="-0.18499">
        <ele>350.06</ele>
        <time>2014-11-02T16:10:31Z</time>
      </trkpt>
      <trkpt lat="43.15999" lon="-0.18498">
        <ele>350.06</ele>
        <time>2014-11-02T16:10:32Z</time>
      </trkpt>
      <trkpt lat="43.15996" lon="-0.18497">
        <ele>351.02</ele>
        <time>2014-11-02T16:10:33Z</time>
      </trkpt>
      <trkpt lat="43.15993" lon="-0.18495">
        <ele>351.02</ele>
        <time>2014-11-02T16:10:34Z</time>
      </trkpt>
      <trkpt lat="43.1599" lon="-0.18494">
        <ele>350.54</ele>
        <time>2014-11-02T16:10:35Z</time>
      </trkpt>
      <trkpt lat="43.15968" lon="-0.18472">
        <ele>352.46</ele>
        <time>2014-11-02T16:10:46Z</time>
      </trkpt>
      <trkpt lat="43.15943" lon="-0.18436">
        <ele>351.98</ele>
        <time>2014-11-02T16:10:58Z</time>
      </trkpt>
      <trkpt lat="43.15934" lon="-0.18424">
        <ele>351.5</ele>
        <time>2014-11-02T16:11:01Z</time>
      </trkpt>
      <trkpt lat="43.15927" lon="-0.18416">
        <ele>351.5</ele>
        <time>2014-11-02T16:11:03Z</time>
      </trkpt>
      <trkpt lat="43.15917" lon="-0.184">
        <ele>351.02</ele>
        <time>2014-11-02T16:11:06Z</time>
      </trkpt>
      <trkpt lat="43.15914" lon="-0.18394">
        <ele>350.54</ele>
        <time>2014-11-02T16:11:07Z</time>
      </trkpt>
      <trkpt lat="43.1591" lon="-0.18389">
        <ele>350.06</ele>
        <time>2014-11-02T16:11:08Z</time>
      </trkpt>
      <trkpt lat="43.15907" lon="-0.18384">
        <ele>350.54</ele>
        <time>2014-11-02T16:11:09Z</time>
      </trkpt>
      <trkpt lat="43.15904" lon="-0.18378">
        <ele>350.06</ele>
        <time>2014-11-02T16:11:10Z</time>
      </trkpt>
      <trkpt lat="43.15902" lon="-0.18373">
        <ele>349.58</ele>
        <time>2014-11-02T16:11:11Z</time>
      </trkpt>
      <trkpt lat="43.15899" lon="-0.18368">
        <ele>350.06</ele>
        <time>2014-11-02T16:11:12Z</time>
      </trkpt>
      <trkpt lat="43.15896" lon="-0.18364">
        <ele>350.06</ele>
        <time>2014-11-02T16:11:13Z</time>
      </trkpt>
      <trkpt lat="43.15892" lon="-0.18361">
        <ele>349.58</ele>
        <time>2014-11-02T16:11:14Z</time>
      </trkpt>
      <trkpt lat="43.15888" lon="-0.18357">
        <ele>349.58</ele>
        <time>2014-11-02T16:11:15Z</time>
      </trkpt>
      <trkpt lat="43.15875" lon="-0.18339">
        <ele>349.1</ele>
        <time>2014-11-02T16:11:19Z</time>
      </trkpt>
      <trkpt lat="43.15831" lon="-0.18279">
        <ele>349.58</ele>
        <time>2014-11-02T16:11:31Z</time>
      </trkpt>
      <trkpt lat="43.15807" lon="-0.18241">
        <ele>352.46</ele>
        <time>2014-11-02T16:11:41Z</time>
      </trkpt>
      <trkpt lat="43.15783" lon="-0.18191">
        <ele>354.38</ele>
        <time>2014-11-02T16:11:52Z</time>
      </trkpt>
      <trkpt lat="43.15758" lon="-0.18125">
        <ele>354.86</ele>
        <time>2014-11-02T16:12:05Z</time>
      </trkpt>
      <trkpt lat="43.15746" lon="-0.18068">
        <ele>355.83</ele>
        <time>2014-11-02T16:12:16Z</time>
      </trkpt>
      <trkpt lat="43.15735" lon="-0.18016">
        <ele>355.83</ele>
        <time>2014-11-02T16:12:29Z</time>
      </trkpt>
      <trkpt lat="43.15734" lon="-0.18013">
        <ele>356.31</ele>
        <time>2014-11-02T16:12:30Z</time>
      </trkpt>
      <trkpt lat="43.15733" lon="-0.1801">
        <ele>356.31</ele>
        <time>2014-11-02T16:12:31Z</time>
      </trkpt>
      <trkpt lat="43.15732" lon="-0.18007">
        <ele>356.31</ele>
        <time>2014-11-02T16:12:32Z</time>
      </trkpt>
      <trkpt lat="43.15732" lon="-0.18002">
        <ele>356.79</ele>
        <time>2014-11-02T16:12:35Z</time>
      </trkpt>
      <trkpt lat="43.15732" lon="-0.17983">
        <ele>357.27</ele>
        <time>2014-11-02T16:12:44Z</time>
      </trkpt>
      <trkpt lat="43.15732" lon="-0.1798">
        <ele>357.27</ele>
        <time>2014-11-02T16:12:45Z</time>
      </trkpt>
      <trkpt lat="43.15733" lon="-0.17976">
        <ele>357.75</ele>
        <time>2014-11-02T16:12:48Z</time>
      </trkpt>
      <trkpt lat="43.15734" lon="-0.17972">
        <ele>357.75</ele>
        <time>2014-11-02T16:12:50Z</time>
      </trkpt>
      <trkpt lat="43.1574" lon="-0.17955">
        <ele>358.71</ele>
        <time>2014-11-02T16:12:58Z</time>
      </trkpt>
      <trkpt lat="43.1574" lon="-0.17953">
        <ele>358.71</ele>
        <time>2014-11-02T16:12:59Z</time>
      </trkpt>
      <trkpt lat="43.15742" lon="-0.17949">
        <ele>359.67</ele>
        <time>2014-11-02T16:13:02Z</time>
      </trkpt>
      <trkpt lat="43.15742" lon="-0.17947">
        <ele>360.15</ele>
        <time>2014-11-02T16:13:03Z</time>
      </trkpt>
      <trkpt lat="43.15743" lon="-0.17945">
        <ele>359.67</ele>
        <time>2014-11-02T16:13:04Z</time>
      </trkpt>
      <trkpt lat="43.15744" lon="-0.17944">
        <ele>359.67</ele>
        <time>2014-11-02T16:13:05Z</time>
      </trkpt>
      <trkpt lat="43.15745" lon="-0.17943">
        <ele>360.15</ele>
        <time>2014-11-02T16:13:06Z</time>
      </trkpt>
      <trkpt lat="43.15755" lon="-0.17919">
        <ele>363.04</ele>
        <time>2014-11-02T16:13:20Z</time>
      </trkpt>
      <trkpt lat="43.15763" lon="-0.17912">
        <ele>364.96</ele>
        <time>2014-11-02T16:13:29Z</time>
      </trkpt>
      <trkpt lat="43.1577" lon="-0.17907">
        <ele>365.44</ele>
        <time>2014-11-02T16:13:35Z</time>
      </trkpt>
      <trkpt lat="43.15781" lon="-0.17899">
        <ele>367.36</ele>
        <time>2014-11-02T16:13:46Z</time>
      </trkpt>
      <trkpt lat="43.15786" lon="-0.17895">
        <ele>368.32</ele>
        <time>2014-11-02T16:13:51Z</time>
      </trkpt>
      <trkpt lat="43.158" lon="-0.1789">
        <ele>371.21</ele>
        <time>2014-11-02T16:14:03Z</time>
      </trkpt>
      <trkpt lat="43.15811" lon="-0.1789">
        <ele>372.65</ele>
        <time>2014-11-02T16:14:16Z</time>
      </trkpt>
      <trkpt lat="43.15824" lon="-0.17892">
        <ele>375.05</ele>
        <time>2014-11-02T16:14:30Z</time>
      </trkpt>
      <trkpt lat="43.15832" lon="-0.1789">
        <ele>375.53</ele>
        <time>2014-11-02T16:14:39Z</time>
      </trkpt>
      <trkpt lat="43.15842" lon="-0.17885">
        <ele>377.45</ele>
        <time>2014-11-02T16:14:49Z</time>
      </trkpt>
      <trkpt lat="43.15845" lon="-0.17882">
        <ele>377.45</ele>
        <time>2014-11-02T16:14:51Z</time>
      </trkpt>
      <trkpt lat="43.15849" lon="-0.17879">
        <ele>378.42</ele>
        <time>2014-11-02T16:14:54Z</time>
      </trkpt>
      <trkpt lat="43.15856" lon="-0.17874">
        <ele>378.9</ele>
        <time>2014-11-02T16:15:00Z</time>
      </trkpt>
      <trkpt lat="43.15871" lon="-0.17862">
        <ele>380.82</ele>
        <time>2014-11-02T16:15:13Z</time>
      </trkpt>
      <trkpt lat="43.15874" lon="-0.17861">
        <ele>381.3</ele>
        <time>2014-11-02T16:15:15Z</time>
      </trkpt>
      <trkpt lat="43.15887" lon="-0.17855">
        <ele>382.74</ele>
        <time>2014-11-02T16:15:26Z</time>
      </trkpt>
      <trkpt lat="43.15902" lon="-0.17839">
        <ele>384.18</ele>
        <time>2014-11-02T16:15:38Z</time>
      </trkpt>
      <trkpt lat="43.15921" lon="-0.17833">
        <ele>386.11</ele>
        <time>2014-11-02T16:15:51Z</time>
      </trkpt>
      <trkpt lat="43.15925" lon="-0.17831">
        <ele>386.11</ele>
        <time>2014-11-02T16:15:55Z</time>
      </trkpt>
      <trkpt lat="43.15928" lon="-0.17828">
        <ele>386.59</ele>
        <time>2014-11-02T16:15:58Z</time>
      </trkpt>
      <trkpt lat="43.1593" lon="-0.17825">
        <ele>386.59</ele>
        <time>2014-11-02T16:16:00Z</time>
      </trkpt>
      <trkpt lat="43.15942" lon="-0.17808">
        <ele>388.51</ele>
        <time>2014-11-02T16:16:12Z</time>
      </trkpt>
      <trkpt lat="43.15949" lon="-0.17793">
        <ele>389.47</ele>
        <time>2014-11-02T16:16:21Z</time>
      </trkpt>
      <trkpt lat="43.1595" lon="-0.17789">
        <ele>389.95</ele>
        <time>2014-11-02T16:16:23Z</time>
      </trkpt>
      <trkpt lat="43.15954" lon="-0.17783">
        <ele>389.95</ele>
        <time>2014-11-02T16:16:27Z</time>
      </trkpt>
      <trkpt lat="43.15956" lon="-0.1778">
        <ele>390.43</ele>
        <time>2014-11-02T16:16:29Z</time>
      </trkpt>
      <trkpt lat="43.15959" lon="-0.17776">
        <ele>391.39</ele>
        <time>2014-11-02T16:16:33Z</time>
      </trkpt>
      <trkpt lat="43.15971" lon="-0.17765">
        <ele>393.32</ele>
        <time>2014-11-02T16:16:46Z</time>
      </trkpt>
      <trkpt lat="43.15973" lon="-0.17761">
        <ele>394.28</ele>
        <time>2014-11-02T16:16:50Z</time>
      </trkpt>
      <trkpt lat="43.15981" lon="-0.17757">
        <ele>394.76</ele>
        <time>2014-11-02T16:16:57Z</time>
      </trkpt>
      <trkpt lat="43.15988" lon="-0.17754">
        <ele>395.72</ele>
        <time>2014-11-02T16:17:03Z</time>
      </trkpt>
      <trkpt lat="43.16004" lon="-0.17747">
        <ele>397.16</ele>
        <time>2014-11-02T16:17:12Z</time>
      </trkpt>
      <trkpt lat="43.16014" lon="-0.17746">
        <ele>398.6</ele>
        <time>2014-11-02T16:17:22Z</time>
      </trkpt>
      <trkpt lat="43.16024" lon="-0.17756">
        <ele>401.01</ele>
        <time>2014-11-02T16:17:34Z</time>
      </trkpt>
      <trkpt lat="43.16027" lon="-0.17758">
        <ele>401.01</ele>
        <time>2014-11-02T16:17:36Z</time>
      </trkpt>
      <trkpt lat="43.16034" lon="-0.17759">
        <ele>402.45</ele>
        <time>2014-11-02T16:17:44Z</time>
      </trkpt>
      <trkpt lat="43.16041" lon="-0.17759">
        <ele>402.93</ele>
        <time>2014-11-02T16:17:49Z</time>
      </trkpt>
      <trkpt lat="43.16052" lon="-0.17759">
        <ele>403.89</ele>
        <time>2014-11-02T16:17:56Z</time>
      </trkpt>
      <trkpt lat="43.16057" lon="-0.17759">
        <ele>404.85</ele>
        <time>2014-11-02T16:17:59Z</time>
      </trkpt>
      <trkpt lat="43.1608" lon="-0.17761">
        <ele>406.29</ele>
        <time>2014-11-02T16:18:11Z</time>
      </trkpt>
      <trkpt lat="43.16084" lon="-0.17761">
        <ele>406.77</ele>
        <time>2014-11-02T16:18:13Z</time>
      </trkpt>
      <trkpt lat="43.16103" lon="-0.17752">
        <ele>409.18</ele>
        <time>2014-11-02T16:18:26Z</time>
      </trkpt>
      <trkpt lat="43.16106" lon="-0.1775">
        <ele>409.66</ele>
        <time>2014-11-02T16:18:30Z</time>
      </trkpt>
      <trkpt lat="43.16117" lon="-0.17742">
        <ele>411.58</ele>
        <time>2014-11-02T16:18:42Z</time>
      </trkpt>
      <trkpt lat="43.16119" lon="-0.1774">
        <ele>411.58</ele>
        <time>2014-11-02T16:18:44Z</time>
      </trkpt>
      <trkpt lat="43.16132" lon="-0.17727">
        <ele>413.98</ele>
        <time>2014-11-02T16:19:00Z</time>
      </trkpt>
      <trkpt lat="43.1614" lon="-0.17722">
        <ele>415.43</ele>
        <time>2014-11-02T16:19:10Z</time>
      </trkpt>
      <trkpt lat="43.16151" lon="-0.17718">
        <ele>417.35</ele>
        <time>2014-11-02T16:19:20Z</time>
      </trkpt>
      <trkpt lat="43.16167" lon="-0.17717">
        <ele>419.75</ele>
        <time>2014-11-02T16:19:33Z</time>
      </trkpt>
      <trkpt lat="43.16179" lon="-0.17725">
        <ele>421.19</ele>
        <time>2014-11-02T16:19:47Z</time>
      </trkpt>
      <trkpt lat="43.16182" lon="-0.17726">
        <ele>421.68</ele>
        <time>2014-11-02T16:19:55Z</time>
      </trkpt>
      <trkpt lat="43.16185" lon="-0.17725">
        <ele>422.64</ele>
        <time>2014-11-02T16:19:59Z</time>
      </trkpt>
      <trkpt lat="43.16191" lon="-0.17724">
        <ele>422.64</ele>
        <time>2014-11-02T16:20:04Z</time>
      </trkpt>
      <trkpt lat="43.16199" lon="-0.1772">
        <ele>423.6</ele>
        <time>2014-11-02T16:20:12Z</time>
      </trkpt>
      <trkpt lat="43.16201" lon="-0.17719">
        <ele>424.56</ele>
        <time>2014-11-02T16:20:14Z</time>
      </trkpt>
      <trkpt lat="43.16206" lon="-0.1772">
        <ele>424.56</ele>
        <time>2014-11-02T16:20:19Z</time>
      </trkpt>
      <trkpt lat="43.16214" lon="-0.17715">
        <ele>425.52</ele>
        <time>2014-11-02T16:20:25Z</time>
      </trkpt>
      <trkpt lat="43.16217" lon="-0.17714">
        <ele>426</ele>
        <time>2014-11-02T16:20:27Z</time>
      </trkpt>
      <trkpt lat="43.16228" lon="-0.17699">
        <ele>427.44</ele>
        <time>2014-11-02T16:20:39Z</time>
      </trkpt>
      <trkpt lat="43.16237" lon="-0.17686">
        <ele>429.37</ele>
        <time>2014-11-02T16:20:49Z</time>
      </trkpt>
      <trkpt lat="43.16248" lon="-0.17674">
        <ele>430.33</ele>
        <time>2014-11-02T16:21:01Z</time>
      </trkpt>
      <trkpt lat="43.1625" lon="-0.1767">
        <ele>431.29</ele>
        <time>2014-11-02T16:21:04Z</time>
      </trkpt>
      <trkpt lat="43.16257" lon="-0.17661">
        <ele>432.25</ele>
        <time>2014-11-02T16:21:11Z</time>
      </trkpt>
      <trkpt lat="43.1626" lon="-0.17656">
        <ele>432.73</ele>
        <time>2014-11-02T16:21:15Z</time>
      </trkpt>
      <trkpt lat="43.16262" lon="-0.17654">
        <ele>433.69</ele>
        <time>2014-11-02T16:21:17Z</time>
      </trkpt>
      <trkpt lat="43.16266" lon="-0.17649">
        <ele>433.69</ele>
        <time>2014-11-02T16:21:22Z</time>
      </trkpt>
      <trkpt lat="43.16278" lon="-0.17638">
        <ele>435.61</ele>
        <time>2014-11-02T16:21:33Z</time>
      </trkpt>
      <trkpt lat="43.16278" lon="-0.17636">
        <ele>435.61</ele>
        <time>2014-11-02T16:21:34Z</time>
      </trkpt>
      <trkpt lat="43.16285" lon="-0.17631">
        <ele>436.58</ele>
        <time>2014-11-02T16:21:41Z</time>
      </trkpt>
      <trkpt lat="43.16295" lon="-0.17626">
        <ele>438.02</ele>
        <time>2014-11-02T16:21:49Z</time>
      </trkpt>
      <trkpt lat="43.16297" lon="-0.17624">
        <ele>438.02</ele>
        <time>2014-11-02T16:21:51Z</time>
      </trkpt>
      <trkpt lat="43.16308" lon="-0.17619">
        <ele>438.5</ele>
        <time>2014-11-02T16:22:03Z</time>
      </trkpt>
      <trkpt lat="43.1631" lon="-0.17618">
        <ele>438.98</ele>
        <time>2014-11-02T16:22:05Z</time>
      </trkpt>
      <trkpt lat="43.16315" lon="-0.17615">
        <ele>439.46</ele>
        <time>2014-11-02T16:22:08Z</time>
      </trkpt>
      <trkpt lat="43.1632" lon="-0.17613">
        <ele>439.46</ele>
        <time>2014-11-02T16:22:11Z</time>
      </trkpt>
      <trkpt lat="43.16335" lon="-0.17606">
        <ele>440.9</ele>
        <time>2014-11-02T16:22:23Z</time>
      </trkpt>
      <trkpt lat="43.16351" lon="-0.1759">
        <ele>444.27</ele>
        <time>2014-11-02T16:22:37Z</time>
      </trkpt>
      <trkpt lat="43.16353" lon="-0.17585">
        <ele>444.27</ele>
        <time>2014-11-02T16:22:41Z</time>
      </trkpt>
      <trkpt lat="43.16376" lon="-0.1757">
        <ele>446.19</ele>
        <time>2014-11-02T16:22:57Z</time>
      </trkpt>
      <trkpt lat="43.1638" lon="-0.17568">
        <ele>446.19</ele>
        <time>2014-11-02T16:23:00Z</time>
      </trkpt>
      <trkpt lat="43.16404" lon="-0.17559">
        <ele>448.59</ele>
        <time>2014-11-02T16:23:15Z</time>
      </trkpt>
      <trkpt lat="43.16423" lon="-0.17558">
        <ele>449.55</ele>
        <time>2014-11-02T16:23:27Z</time>
      </trkpt>
      <trkpt lat="43.16429" lon="-0.17559">
        <ele>450.52</ele>
        <time>2014-11-02T16:23:33Z</time>
      </trkpt>
      <trkpt lat="43.16451" lon="-0.17565">
        <ele>451.96</ele>
        <time>2014-11-02T16:23:49Z</time>
      </trkpt>
      <trkpt lat="43.16464" lon="-0.17572">
        <ele>453.4</ele>
        <time>2014-11-02T16:24:02Z</time>
      </trkpt>
      <trkpt lat="43.1647" lon="-0.17571">
        <ele>454.36</ele>
        <time>2014-11-02T16:24:08Z</time>
      </trkpt>
      <trkpt lat="43.16483" lon="-0.17563">
        <ele>457.24</ele>
        <time>2014-11-02T16:24:21Z</time>
      </trkpt>
      <trkpt lat="43.16487" lon="-0.17562">
        <ele>457.72</ele>
        <time>2014-11-02T16:24:25Z</time>
      </trkpt>
      <trkpt lat="43.16496" lon="-0.17553">
        <ele>459.65</ele>
        <time>2014-11-02T16:24:35Z</time>
      </trkpt>
      <trkpt lat="43.16502" lon="-0.17541">
        <ele>462.53</ele>
        <time>2014-11-02T16:24:48Z</time>
      </trkpt>
      <trkpt lat="43.16503" lon="-0.1754">
        <ele>462.05</ele>
        <time>2014-11-02T16:24:49Z</time>
      </trkpt>
      <trkpt lat="43.16506" lon="-0.17536">
        <ele>463.01</ele>
        <time>2014-11-02T16:24:52Z</time>
      </trkpt>
      <trkpt lat="43.16513" lon="-0.17525">
        <ele>464.45</ele>
        <time>2014-11-02T16:25:03Z</time>
      </trkpt>
      <trkpt lat="43.16523" lon="-0.17509">
        <ele>466.38</ele>
        <time>2014-11-02T16:25:15Z</time>
      </trkpt>
      <trkpt lat="43.1654" lon="-0.17503">
        <ele>467.82</ele>
        <time>2014-11-02T16:25:29Z</time>
      </trkpt>
      <trkpt lat="43.16558" lon="-0.17501">
        <ele>469.74</ele>
        <time>2014-11-02T16:25:43Z</time>
      </trkpt>
      <trkpt lat="43.16562" lon="-0.17501">
        <ele>470.22</ele>
        <time>2014-11-02T16:25:50Z</time>
      </trkpt>
      <trkpt lat="43.16569" lon="-0.17498">
        <ele>471.66</ele>
        <time>2014-11-02T16:25:57Z</time>
      </trkpt>
      <trkpt lat="43.1658" lon="-0.17489">
        <ele>474.07</ele>
        <time>2014-11-02T16:26:10Z</time>
      </trkpt>
      <trkpt lat="43.16583" lon="-0.17486">
        <ele>474.55</ele>
        <time>2014-11-02T16:26:14Z</time>
      </trkpt>
      <trkpt lat="43.1659" lon="-0.17477">
        <ele>475.51</ele>
        <time>2014-11-02T16:26:21Z</time>
      </trkpt>
      <trkpt lat="43.16594" lon="-0.17471">
        <ele>476.95</ele>
        <time>2014-11-02T16:26:25Z</time>
      </trkpt>
      <trkpt lat="43.16599" lon="-0.17454">
        <ele>478.87</ele>
        <time>2014-11-02T16:26:32Z</time>
      </trkpt>
      <trkpt lat="43.16609" lon="-0.17433">
        <ele>479.35</ele>
        <time>2014-11-02T16:26:45Z</time>
      </trkpt>
      <trkpt lat="43.16613" lon="-0.17427">
        <ele>479.35</ele>
        <time>2014-11-02T16:27:04Z</time>
      </trkpt>
      <trkpt lat="43.16618" lon="-0.17425">
        <ele>478.87</ele>
        <time>2014-11-02T16:27:18Z</time>
      </trkpt>
      <trkpt lat="43.1662" lon="-0.17424">
        <ele>478.39</ele>
        <time>2014-11-02T16:27:47Z</time>
      </trkpt>
      <trkpt lat="43.1662" lon="-0.17422">
        <ele>477.91</ele>
        <time>2014-11-02T16:28:05Z</time>
      </trkpt>
      <trkpt lat="43.16621" lon="-0.17423">
        <ele>477.91</ele>
        <time>2014-11-02T16:28:17Z</time>
      </trkpt>
      <trkpt lat="43.16621" lon="-0.17423">
        <ele>478.39</ele>
        <time>2014-11-02T16:28:18Z</time>
      </trkpt>
      <trkpt lat="43.16625" lon="-0.17424">
        <ele>478.87</ele>
        <time>2014-11-02T16:28:25Z</time>
      </trkpt>
      <trkpt lat="43.16639" lon="-0.1745">
        <ele>479.35</ele>
        <time>2014-11-02T16:28:37Z</time>
      </trkpt>
      <trkpt lat="43.16655" lon="-0.17487">
        <ele>479.84</ele>
        <time>2014-11-02T16:28:49Z</time>
      </trkpt>
      <trkpt lat="43.16672" lon="-0.17522">
        <ele>479.35</ele>
        <time>2014-11-02T16:29:00Z</time>
      </trkpt>
      <trkpt lat="43.16687" lon="-0.17562">
        <ele>477.91</ele>
        <time>2014-11-02T16:29:11Z</time>
      </trkpt>
      <trkpt lat="43.16698" lon="-0.17588">
        <ele>476.47</ele>
        <time>2014-11-02T16:29:16Z</time>
      </trkpt>
      <trkpt lat="43.167" lon="-0.17595">
        <ele>475.99</ele>
        <time>2014-11-02T16:29:17Z</time>
      </trkpt>
      <trkpt lat="43.16702" lon="-0.17601">
        <ele>475.51</ele>
        <time>2014-11-02T16:29:18Z</time>
      </trkpt>
      <trkpt lat="43.16708" lon="-0.17614">
        <ele>475.03</ele>
        <time>2014-11-02T16:29:20Z</time>
      </trkpt>
      <trkpt lat="43.16717" lon="-0.17629">
        <ele>475.03</ele>
        <time>2014-11-02T16:29:22Z</time>
      </trkpt>
      <trkpt lat="43.16721" lon="-0.17636">
        <ele>474.55</ele>
        <time>2014-11-02T16:29:23Z</time>
      </trkpt>
      <trkpt lat="43.16725" lon="-0.17644">
        <ele>474.55</ele>
        <time>2014-11-02T16:29:24Z</time>
      </trkpt>
      <trkpt lat="43.1673" lon="-0.17652">
        <ele>474.07</ele>
        <time>2014-11-02T16:29:25Z</time>
      </trkpt>
      <trkpt lat="43.16734" lon="-0.1766">
        <ele>474.07</ele>
        <time>2014-11-02T16:29:26Z</time>
      </trkpt>
      <trkpt lat="43.16766" lon="-0.17721">
        <ele>470.7</ele>
        <time>2014-11-02T16:29:33Z</time>
      </trkpt>
      <trkpt lat="43.16804" lon="-0.17783">
        <ele>467.82</ele>
        <time>2014-11-02T16:29:40Z</time>
      </trkpt>
      <trkpt lat="43.16815" lon="-0.17795">
        <ele>466.86</ele>
        <time>2014-11-02T16:29:43Z</time>
      </trkpt>
      <trkpt lat="43.16816" lon="-0.17778">
        <ele>465.9</ele>
        <time>2014-11-02T16:29:50Z</time>
      </trkpt>
      <trkpt lat="43.16813" lon="-0.17752">
        <ele>464.45</ele>
        <time>2014-11-02T16:29:58Z</time>
      </trkpt>
      <trkpt lat="43.16819" lon="-0.17727">
        <ele>463.01</ele>
        <time>2014-11-02T16:30:04Z</time>
      </trkpt>
      <trkpt lat="43.16823" lon="-0.17722">
        <ele>462.53</ele>
        <time>2014-11-02T16:30:05Z</time>
      </trkpt>
      <trkpt lat="43.16828" lon="-0.17718">
        <ele>461.09</ele>
        <time>2014-11-02T16:30:06Z</time>
      </trkpt>
      <trkpt lat="43.16834" lon="-0.17714">
        <ele>459.65</ele>
        <time>2014-11-02T16:30:07Z</time>
      </trkpt>
      <trkpt lat="43.16841" lon="-0.17711">
        <ele>457.72</ele>
        <time>2014-11-02T16:30:08Z</time>
      </trkpt>
      <trkpt lat="43.16849" lon="-0.17711">
        <ele>456.28</ele>
        <time>2014-11-02T16:30:09Z</time>
      </trkpt>
      <trkpt lat="43.16856" lon="-0.17712">
        <ele>454.36</ele>
        <time>2014-11-02T16:30:10Z</time>
      </trkpt>
      <trkpt lat="43.16863" lon="-0.17711">
        <ele>452.92</ele>
        <time>2014-11-02T16:30:11Z</time>
      </trkpt>
      <trkpt lat="43.16869" lon="-0.17708">
        <ele>451.48</ele>
        <time>2014-11-02T16:30:12Z</time>
      </trkpt>
      <trkpt lat="43.16876" lon="-0.17704">
        <ele>451</ele>
        <time>2014-11-02T16:30:13Z</time>
      </trkpt>
      <trkpt lat="43.16889" lon="-0.17696">
        <ele>447.63</ele>
        <time>2014-11-02T16:30:15Z</time>
      </trkpt>
      <trkpt lat="43.169" lon="-0.1769">
        <ele>444.75</ele>
        <time>2014-11-02T16:30:17Z</time>
      </trkpt>
      <trkpt lat="43.16913" lon="-0.17681">
        <ele>441.38</ele>
        <time>2014-11-02T16:30:20Z</time>
      </trkpt>
      <trkpt lat="43.16916" lon="-0.17675">
        <ele>440.42</ele>
        <time>2014-11-02T16:30:21Z</time>
      </trkpt>
      <trkpt lat="43.16919" lon="-0.17667">
        <ele>439.46</ele>
        <time>2014-11-02T16:30:22Z</time>
      </trkpt>
      <trkpt lat="43.16922" lon="-0.17658">
        <ele>439.46</ele>
        <time>2014-11-02T16:30:23Z</time>
      </trkpt>
      <trkpt lat="43.16924" lon="-0.17647">
        <ele>438.02</ele>
        <time>2014-11-02T16:30:24Z</time>
      </trkpt>
      <trkpt lat="43.16925" lon="-0.17637">
        <ele>436.1</ele>
        <time>2014-11-02T16:30:25Z</time>
      </trkpt>
      <trkpt lat="43.16925" lon="-0.17594">
        <ele>432.25</ele>
        <time>2014-11-02T16:30:29Z</time>
      </trkpt>
      <trkpt lat="43.16924" lon="-0.17574">
        <ele>430.81</ele>
        <time>2014-11-02T16:30:31Z</time>
      </trkpt>
      <trkpt lat="43.1692" lon="-0.17555">
        <ele>427.44</ele>
        <time>2014-11-02T16:30:33Z</time>
      </trkpt>
      <trkpt lat="43.16917" lon="-0.17546">
        <ele>426</ele>
        <time>2014-11-02T16:30:34Z</time>
      </trkpt>
      <trkpt lat="43.16914" lon="-0.17538">
        <ele>424.56</ele>
        <time>2014-11-02T16:30:35Z</time>
      </trkpt>
      <trkpt lat="43.16912" lon="-0.17529">
        <ele>423.12</ele>
        <time>2014-11-02T16:30:36Z</time>
      </trkpt>
      <trkpt lat="43.1691" lon="-0.17521">
        <ele>421.68</ele>
        <time>2014-11-02T16:30:37Z</time>
      </trkpt>
      <trkpt lat="43.16909" lon="-0.17515">
        <ele>421.19</ele>
        <time>2014-11-02T16:30:38Z</time>
      </trkpt>
      <trkpt lat="43.16909" lon="-0.17509">
        <ele>420.23</ele>
        <time>2014-11-02T16:30:39Z</time>
      </trkpt>
      <trkpt lat="43.16909" lon="-0.17505">
        <ele>418.79</ele>
        <time>2014-11-02T16:30:40Z</time>
      </trkpt>
      <trkpt lat="43.1691" lon="-0.17499">
        <ele>416.87</ele>
        <time>2014-11-02T16:30:42Z</time>
      </trkpt>
      <trkpt lat="43.16912" lon="-0.17497">
        <ele>416.87</ele>
        <time>2014-11-02T16:30:43Z</time>
      </trkpt>
      <trkpt lat="43.16914" lon="-0.17495">
        <ele>415.43</ele>
        <time>2014-11-02T16:30:45Z</time>
      </trkpt>
      <trkpt lat="43.16917" lon="-0.17497">
        <ele>414.95</ele>
        <time>2014-11-02T16:30:49Z</time>
      </trkpt>
      <trkpt lat="43.1692" lon="-0.17506">
        <ele>414.95</ele>
        <time>2014-11-02T16:30:53Z</time>
      </trkpt>
      <trkpt lat="43.16933" lon="-0.17522">
        <ele>415.43</ele>
        <time>2014-11-02T16:30:58Z</time>
      </trkpt>
      <trkpt lat="43.16939" lon="-0.17527">
        <ele>415.43</ele>
        <time>2014-11-02T16:31:00Z</time>
      </trkpt>
      <trkpt lat="43.16959" lon="-0.17552">
        <ele>415.43</ele>
        <time>2014-11-02T16:31:07Z</time>
      </trkpt>
      <trkpt lat="43.16961" lon="-0.17558">
        <ele>414.95</ele>
        <time>2014-11-02T16:31:08Z</time>
      </trkpt>
      <trkpt lat="43.16963" lon="-0.17564">
        <ele>414.95</ele>
        <time>2014-11-02T16:31:09Z</time>
      </trkpt>
      <trkpt lat="43.16964" lon="-0.1757">
        <ele>414.95</ele>
        <time>2014-11-02T16:31:10Z</time>
      </trkpt>
      <trkpt lat="43.16977" lon="-0.176">
        <ele>414.95</ele>
        <time>2014-11-02T16:31:16Z</time>
      </trkpt>
      <trkpt lat="43.16994" lon="-0.17617">
        <ele>413.02</ele>
        <time>2014-11-02T16:31:20Z</time>
      </trkpt>
      <trkpt lat="43.17007" lon="-0.17626">
        <ele>410.62</ele>
        <time>2014-11-02T16:31:24Z</time>
      </trkpt>
      <trkpt lat="43.17016" lon="-0.17634">
        <ele>410.14</ele>
        <time>2014-11-02T16:31:26Z</time>
      </trkpt>
      <trkpt lat="43.17027" lon="-0.17645">
        <ele>409.18</ele>
        <time>2014-11-02T16:31:29Z</time>
      </trkpt>
      <trkpt lat="43.1703" lon="-0.17649">
        <ele>409.18</ele>
        <time>2014-11-02T16:31:30Z</time>
      </trkpt>
      <trkpt lat="43.17046" lon="-0.17668">
        <ele>406.77</ele>
        <time>2014-11-02T16:31:34Z</time>
      </trkpt>
      <trkpt lat="43.17051" lon="-0.17671">
        <ele>405.33</ele>
        <time>2014-11-02T16:31:35Z</time>
      </trkpt>
      <trkpt lat="43.17054" lon="-0.17672">
        <ele>405.33</ele>
        <time>2014-11-02T16:31:36Z</time>
      </trkpt>
      <trkpt lat="43.17077" lon="-0.1768">
        <ele>406.29</ele>
        <time>2014-11-02T16:31:44Z</time>
      </trkpt>
      <trkpt lat="43.17094" lon="-0.17679">
        <ele>406.77</ele>
        <time>2014-11-02T16:31:49Z</time>
      </trkpt>
      <trkpt lat="43.17129" lon="-0.17703">
        <ele>403.89</ele>
        <time>2014-11-02T16:31:58Z</time>
      </trkpt>
      <trkpt lat="43.17133" lon="-0.17711">
        <ele>404.37</ele>
        <time>2014-11-02T16:31:59Z</time>
      </trkpt>
      <trkpt lat="43.17144" lon="-0.17733">
        <ele>403.89</ele>
        <time>2014-11-02T16:32:02Z</time>
      </trkpt>
      <trkpt lat="43.17146" lon="-0.1774">
        <ele>403.41</ele>
        <time>2014-11-02T16:32:03Z</time>
      </trkpt>
      <trkpt lat="43.17148" lon="-0.17747">
        <ele>403.41</ele>
        <time>2014-11-02T16:32:04Z</time>
      </trkpt>
      <trkpt lat="43.17151" lon="-0.17763">
        <ele>402.93</ele>
        <time>2014-11-02T16:32:06Z</time>
      </trkpt>
      <trkpt lat="43.17152" lon="-0.1777">
        <ele>402.93</ele>
        <time>2014-11-02T16:32:07Z</time>
      </trkpt>
      <trkpt lat="43.17153" lon="-0.17777">
        <ele>402.93</ele>
        <time>2014-11-02T16:32:08Z</time>
      </trkpt>
      <trkpt lat="43.17154" lon="-0.17782">
        <ele>402.45</ele>
        <time>2014-11-02T16:32:09Z</time>
      </trkpt>
      <trkpt lat="43.17156" lon="-0.17787">
        <ele>401.97</ele>
        <time>2014-11-02T16:32:10Z</time>
      </trkpt>
      <trkpt lat="43.17156" lon="-0.17792">
        <ele>401.97</ele>
        <time>2014-11-02T16:32:11Z</time>
      </trkpt>
      <trkpt lat="43.17156" lon="-0.17796">
        <ele>402.45</ele>
        <time>2014-11-02T16:32:12Z</time>
      </trkpt>
      <trkpt lat="43.17159" lon="-0.178">
        <ele>401.49</ele>
        <time>2014-11-02T16:32:13Z</time>
      </trkpt>
      <trkpt lat="43.17163" lon="-0.17801">
        <ele>401.01</ele>
        <time>2014-11-02T16:32:14Z</time>
      </trkpt>
      <trkpt lat="43.17168" lon="-0.17802">
        <ele>401.01</ele>
        <time>2014-11-02T16:32:15Z</time>
      </trkpt>
      <trkpt lat="43.17173" lon="-0.17801">
        <ele>400.53</ele>
        <time>2014-11-02T16:32:16Z</time>
      </trkpt>
      <trkpt lat="43.17178" lon="-0.17799">
        <ele>400.05</ele>
        <time>2014-11-02T16:32:17Z</time>
      </trkpt>
      <trkpt lat="43.17182" lon="-0.17796">
        <ele>399.57</ele>
        <time>2014-11-02T16:32:18Z</time>
      </trkpt>
      <trkpt lat="43.17192" lon="-0.1779">
        <ele>398.6</ele>
        <time>2014-11-02T16:32:20Z</time>
      </trkpt>
      <trkpt lat="43.17196" lon="-0.17785">
        <ele>398.12</ele>
        <time>2014-11-02T16:32:21Z</time>
      </trkpt>
      <trkpt lat="43.17206" lon="-0.17773">
        <ele>397.64</ele>
        <time>2014-11-02T16:32:23Z</time>
      </trkpt>
      <trkpt lat="43.1721" lon="-0.17765">
        <ele>396.68</ele>
        <time>2014-11-02T16:32:24Z</time>
      </trkpt>
      <trkpt lat="43.17213" lon="-0.17758">
        <ele>396.68</ele>
        <time>2014-11-02T16:32:25Z</time>
      </trkpt>
      <trkpt lat="43.17215" lon="-0.1775">
        <ele>396.2</ele>
        <time>2014-11-02T16:32:26Z</time>
      </trkpt>
      <trkpt lat="43.17217" lon="-0.17743">
        <ele>395.72</ele>
        <time>2014-11-02T16:32:27Z</time>
      </trkpt>
      <trkpt lat="43.17218" lon="-0.17735">
        <ele>395.24</ele>
        <time>2014-11-02T16:32:28Z</time>
      </trkpt>
      <trkpt lat="43.17223" lon="-0.17714">
        <ele>392.84</ele>
        <time>2014-11-02T16:32:31Z</time>
      </trkpt>
      <trkpt lat="43.17226" lon="-0.17703">
        <ele>391.87</ele>
        <time>2014-11-02T16:32:33Z</time>
      </trkpt>
      <trkpt lat="43.17235" lon="-0.17679">
        <ele>390.43</ele>
        <time>2014-11-02T16:32:38Z</time>
      </trkpt>
      <trkpt lat="43.17238" lon="-0.17672">
        <ele>389.95</ele>
        <time>2014-11-02T16:32:39Z</time>
      </trkpt>
      <trkpt lat="43.1724" lon="-0.17665">
        <ele>389.95</ele>
        <time>2014-11-02T16:32:40Z</time>
      </trkpt>
      <trkpt lat="43.17244" lon="-0.17649">
        <ele>388.99</ele>
        <time>2014-11-02T16:32:42Z</time>
      </trkpt>
      <trkpt lat="43.17245" lon="-0.17642">
        <ele>388.03</ele>
        <time>2014-11-02T16:32:43Z</time>
      </trkpt>
      <trkpt lat="43.17249" lon="-0.17628">
        <ele>386.59</ele>
        <time>2014-11-02T16:32:45Z</time>
      </trkpt>
      <trkpt lat="43.17251" lon="-0.17621">
        <ele>386.59</ele>
        <time>2014-11-02T16:32:46Z</time>
      </trkpt>
      <trkpt lat="43.17251" lon="-0.17614">
        <ele>385.63</ele>
        <time>2014-11-02T16:32:47Z</time>
      </trkpt>
      <trkpt lat="43.17253" lon="-0.17606">
        <ele>385.63</ele>
        <time>2014-11-02T16:32:48Z</time>
      </trkpt>
      <trkpt lat="43.17255" lon="-0.17598">
        <ele>384.66</ele>
        <time>2014-11-02T16:32:49Z</time>
      </trkpt>
      <trkpt lat="43.17257" lon="-0.17592">
        <ele>382.74</ele>
        <time>2014-11-02T16:32:50Z</time>
      </trkpt>
      <trkpt lat="43.1726" lon="-0.17587">
        <ele>382.26</ele>
        <time>2014-11-02T16:32:51Z</time>
      </trkpt>
      <trkpt lat="43.17274" lon="-0.17582">
        <ele>379.86</ele>
        <time>2014-11-02T16:32:54Z</time>
      </trkpt>
      <trkpt lat="43.1728" lon="-0.17584">
        <ele>378.9</ele>
        <time>2014-11-02T16:32:55Z</time>
      </trkpt>
      <trkpt lat="43.17285" lon="-0.17587">
        <ele>378.9</ele>
        <time>2014-11-02T16:32:56Z</time>
      </trkpt>
      <trkpt lat="43.17289" lon="-0.17591">
        <ele>378.9</ele>
        <time>2014-11-02T16:32:57Z</time>
      </trkpt>
      <trkpt lat="43.17306" lon="-0.17609">
        <ele>376.97</ele>
        <time>2014-11-02T16:33:01Z</time>
      </trkpt>
      <trkpt lat="43.17311" lon="-0.17615">
        <ele>376.01</ele>
        <time>2014-11-02T16:33:02Z</time>
      </trkpt>
      <trkpt lat="43.17315" lon="-0.17622">
        <ele>376.01</ele>
        <time>2014-11-02T16:33:03Z</time>
      </trkpt>
      <trkpt lat="43.17325" lon="-0.17633">
        <ele>375.53</ele>
        <time>2014-11-02T16:33:05Z</time>
      </trkpt>
      <trkpt lat="43.17356" lon="-0.17668">
        <ele>375.05</ele>
        <time>2014-11-02T16:33:15Z</time>
      </trkpt>
      <trkpt lat="43.17375" lon="-0.17674">
        <ele>373.61</ele>
        <time>2014-11-02T16:33:21Z</time>
      </trkpt>
      <trkpt lat="43.1738" lon="-0.17672">
        <ele>373.13</ele>
        <time>2014-11-02T16:33:22Z</time>
      </trkpt>
      <trkpt lat="43.17385" lon="-0.17669">
        <ele>371.21</ele>
        <time>2014-11-02T16:33:23Z</time>
      </trkpt>
      <trkpt lat="43.17388" lon="-0.17668">
        <ele>369.28</ele>
        <time>2014-11-02T16:33:24Z</time>
      </trkpt>
      <trkpt lat="43.17391" lon="-0.1767">
        <ele>368.8</ele>
        <time>2014-11-02T16:33:25Z</time>
      </trkpt>
      <trkpt lat="43.17394" lon="-0.17672">
        <ele>367.84</ele>
        <time>2014-11-02T16:33:26Z</time>
      </trkpt>
      <trkpt lat="43.17398" lon="-0.17676">
        <ele>367.84</ele>
        <time>2014-11-02T16:33:27Z</time>
      </trkpt>
      <trkpt lat="43.17401" lon="-0.17682">
        <ele>365.44</ele>
        <time>2014-11-02T16:33:28Z</time>
      </trkpt>
      <trkpt lat="43.17404" lon="-0.17688">
        <ele>364.48</ele>
        <time>2014-11-02T16:33:29Z</time>
      </trkpt>
      <trkpt lat="43.17407" lon="-0.17695">
        <ele>363.52</ele>
        <time>2014-11-02T16:33:30Z</time>
      </trkpt>
      <trkpt lat="43.17409" lon="-0.17703">
        <ele>363.04</ele>
        <time>2014-11-02T16:33:31Z</time>
      </trkpt>
      <trkpt lat="43.17414" lon="-0.1772">
        <ele>361.59</ele>
        <time>2014-11-02T16:33:33Z</time>
      </trkpt>
      <trkpt lat="43.17417" lon="-0.17729">
        <ele>361.59</ele>
        <time>2014-11-02T16:33:34Z</time>
      </trkpt>
      <trkpt lat="43.17429" lon="-0.17759">
        <ele>361.11</ele>
        <time>2014-11-02T16:33:38Z</time>
      </trkpt>
      <trkpt lat="43.17433" lon="-0.17764">
        <ele>361.11</ele>
        <time>2014-11-02T16:33:39Z</time>
      </trkpt>
      <trkpt lat="43.17442" lon="-0.17771">
        <ele>359.67</ele>
        <time>2014-11-02T16:33:41Z</time>
      </trkpt>
      <trkpt lat="43.17446" lon="-0.17774">
        <ele>359.67</ele>
        <time>2014-11-02T16:33:42Z</time>
      </trkpt>
      <trkpt lat="43.17455" lon="-0.17781">
        <ele>359.19</ele>
        <time>2014-11-02T16:33:44Z</time>
      </trkpt>
      <trkpt lat="43.17459" lon="-0.17785">
        <ele>359.19</ele>
        <time>2014-11-02T16:33:45Z</time>
      </trkpt>
      <trkpt lat="43.17464" lon="-0.1779">
        <ele>359.19</ele>
        <time>2014-11-02T16:33:46Z</time>
      </trkpt>
      <trkpt lat="43.17468" lon="-0.17796">
        <ele>358.71</ele>
        <time>2014-11-02T16:33:47Z</time>
      </trkpt>
      <trkpt lat="43.17471" lon="-0.17801">
        <ele>357.75</ele>
        <time>2014-11-02T16:33:48Z</time>
      </trkpt>
      <trkpt lat="43.17477" lon="-0.17811">
        <ele>356.79</ele>
        <time>2014-11-02T16:33:50Z</time>
      </trkpt>
      <trkpt lat="43.17481" lon="-0.17816">
        <ele>356.31</ele>
        <time>2014-11-02T16:33:51Z</time>
      </trkpt>
      <trkpt lat="43.17484" lon="-0.1782">
        <ele>356.31</ele>
        <time>2014-11-02T16:33:52Z</time>
      </trkpt>
      <trkpt lat="43.17487" lon="-0.17826">
        <ele>355.34</ele>
        <time>2014-11-02T16:33:53Z</time>
      </trkpt>
      <trkpt lat="43.17489" lon="-0.17832">
        <ele>355.83</ele>
        <time>2014-11-02T16:33:54Z</time>
      </trkpt>
      <trkpt lat="43.17491" lon="-0.17837">
        <ele>355.83</ele>
        <time>2014-11-02T16:33:55Z</time>
      </trkpt>
      <trkpt lat="43.17494" lon="-0.17841">
        <ele>355.83</ele>
        <time>2014-11-02T16:33:56Z</time>
      </trkpt>
      <trkpt lat="43.17497" lon="-0.17846">
        <ele>355.83</ele>
        <time>2014-11-02T16:33:57Z</time>
      </trkpt>
      <trkpt lat="43.175" lon="-0.17849">
        <ele>355.83</ele>
        <time>2014-11-02T16:33:58Z</time>
      </trkpt>
      <trkpt lat="43.17502" lon="-0.17852">
        <ele>355.83</ele>
        <time>2014-11-02T16:33:59Z</time>
      </trkpt>
      <trkpt lat="43.17503" lon="-0.17855">
        <ele>356.31</ele>
        <time>2014-11-02T16:34:00Z</time>
      </trkpt>
      <trkpt lat="43.17504" lon="-0.17858">
        <ele>355.83</ele>
        <time>2014-11-02T16:34:01Z</time>
      </trkpt>
      <trkpt lat="43.17508" lon="-0.17867">
        <ele>356.79</ele>
        <time>2014-11-02T16:34:05Z</time>
      </trkpt>
      <trkpt lat="43.17509" lon="-0.17874">
        <ele>358.23</ele>
        <time>2014-11-02T16:34:09Z</time>
      </trkpt>
      <trkpt lat="43.17512" lon="-0.17879">
        <ele>358.71</ele>
        <time>2014-11-02T16:34:14Z</time>
      </trkpt>
      <trkpt lat="43.17513" lon="-0.17879">
        <ele>358.23</ele>
        <time>2014-11-02T16:34:15Z</time>
      </trkpt>
      <trkpt lat="43.17515" lon="-0.17881">
        <ele>357.75</ele>
        <time>2014-11-02T16:34:16Z</time>
      </trkpt>
      <trkpt lat="43.17516" lon="-0.17884">
        <ele>356.79</ele>
        <time>2014-11-02T16:34:17Z</time>
      </trkpt>
      <trkpt lat="43.17517" lon="-0.17888">
        <ele>356.79</ele>
        <time>2014-11-02T16:34:18Z</time>
      </trkpt>
      <trkpt lat="43.17518" lon="-0.17894">
        <ele>356.31</ele>
        <time>2014-11-02T16:34:19Z</time>
      </trkpt>
      <trkpt lat="43.17519" lon="-0.179">
        <ele>356.31</ele>
        <time>2014-11-02T16:34:20Z</time>
      </trkpt>
      <trkpt lat="43.17519" lon="-0.17906">
        <ele>356.31</ele>
        <time>2014-11-02T16:34:21Z</time>
      </trkpt>
      <trkpt lat="43.17519" lon="-0.17912">
        <ele>355.83</ele>
        <time>2014-11-02T16:34:22Z</time>
      </trkpt>
      <trkpt lat="43.17517" lon="-0.17919">
        <ele>355.83</ele>
        <time>2014-11-02T16:34:23Z</time>
      </trkpt>
      <trkpt lat="43.17515" lon="-0.17927">
        <ele>355.34</ele>
        <time>2014-11-02T16:34:24Z</time>
      </trkpt>
      <trkpt lat="43.17512" lon="-0.17933">
        <ele>355.34</ele>
        <time>2014-11-02T16:34:25Z</time>
      </trkpt>
      <trkpt lat="43.17508" lon="-0.17938">
        <ele>354.86</ele>
        <time>2014-11-02T16:34:26Z</time>
      </trkpt>
      <trkpt lat="43.17504" lon="-0.17943">
        <ele>354.86</ele>
        <time>2014-11-02T16:34:27Z</time>
      </trkpt>
      <trkpt lat="43.17502" lon="-0.17949">
        <ele>354.86</ele>
        <time>2014-11-02T16:34:28Z</time>
      </trkpt>
      <trkpt lat="43.17499" lon="-0.17953">
        <ele>354.86</ele>
        <time>2014-11-02T16:34:29Z</time>
      </trkpt>
      <trkpt lat="43.17496" lon="-0.17957">
        <ele>354.38</ele>
        <time>2014-11-02T16:34:30Z</time>
      </trkpt>
      <trkpt lat="43.17493" lon="-0.17962">
        <ele>354.38</ele>
        <time>2014-11-02T16:34:31Z</time>
      </trkpt>
      <trkpt lat="43.17491" lon="-0.17967">
        <ele>355.34</ele>
        <time>2014-11-02T16:34:32Z</time>
      </trkpt>
      <trkpt lat="43.17489" lon="-0.17973">
        <ele>354.86</ele>
        <time>2014-11-02T16:34:33Z</time>
      </trkpt>
      <trkpt lat="43.17487" lon="-0.17978">
        <ele>355.83</ele>
        <time>2014-11-02T16:34:34Z</time>
      </trkpt>
      <trkpt lat="43.17489" lon="-0.17986">
        <ele>355.83</ele>
        <time>2014-11-02T16:34:35Z</time>
      </trkpt>
      <trkpt lat="43.1749" lon="-0.18004">
        <ele>356.31</ele>
        <time>2014-11-02T16:34:39Z</time>
      </trkpt>
      <trkpt lat="43.17512" lon="-0.18032">
        <ele>355.83</ele>
        <time>2014-11-02T16:34:48Z</time>
      </trkpt>
      <trkpt lat="43.17535" lon="-0.18052">
        <ele>354.86</ele>
        <time>2014-11-02T16:34:53Z</time>
      </trkpt>
      <trkpt lat="43.17539" lon="-0.18059">
        <ele>354.38</ele>
        <time>2014-11-02T16:34:54Z</time>
      </trkpt>
      <trkpt lat="43.17541" lon="-0.18064">
        <ele>354.38</ele>
        <time>2014-11-02T16:34:55Z</time>
      </trkpt>
      <trkpt lat="43.17555" lon="-0.18098">
        <ele>354.86</ele>
        <time>2014-11-02T16:35:04Z</time>
      </trkpt>
      <trkpt lat="43.17555" lon="-0.181">
        <ele>355.34</ele>
        <time>2014-11-02T16:35:05Z</time>
      </trkpt>
      <trkpt lat="43.17554" lon="-0.18105">
        <ele>355.83</ele>
        <time>2014-11-02T16:35:08Z</time>
      </trkpt>
      <trkpt lat="43.17553" lon="-0.18106">
        <ele>356.79</ele>
        <time>2014-11-02T16:35:09Z</time>
      </trkpt>
      <trkpt lat="43.17553" lon="-0.18109">
        <ele>357.75</ele>
        <time>2014-11-02T16:35:13Z</time>
      </trkpt>
      <trkpt lat="43.17553" lon="-0.18112">
        <ele>357.75</ele>
        <time>2014-11-02T16:35:14Z</time>
      </trkpt>
      <trkpt lat="43.17552" lon="-0.1812">
        <ele>357.75</ele>
        <time>2014-11-02T16:35:18Z</time>
      </trkpt>
      <trkpt lat="43.17567" lon="-0.18144">
        <ele>354.86</ele>
        <time>2014-11-02T16:35:27Z</time>
      </trkpt>
      <trkpt lat="43.17567" lon="-0.1815">
        <ele>354.86</ele>
        <time>2014-11-02T16:35:28Z</time>
      </trkpt>
      <trkpt lat="43.17568" lon="-0.18157">
        <ele>353.9</ele>
        <time>2014-11-02T16:35:29Z</time>
      </trkpt>
      <trkpt lat="43.17576" lon="-0.18186">
        <ele>353.42</ele>
        <time>2014-11-02T16:35:34Z</time>
      </trkpt>
      <trkpt lat="43.17579" lon="-0.1819">
        <ele>353.42</ele>
        <time>2014-11-02T16:35:35Z</time>
      </trkpt>
      <trkpt lat="43.1759" lon="-0.1822">
        <ele>353.9</ele>
        <time>2014-11-02T16:35:42Z</time>
      </trkpt>
      <trkpt lat="43.17596" lon="-0.18234">
        <ele>353.42</ele>
        <time>2014-11-02T16:35:45Z</time>
      </trkpt>
      <trkpt lat="43.176" lon="-0.18238">
        <ele>353.42</ele>
        <time>2014-11-02T16:35:46Z</time>
      </trkpt>
      <trkpt lat="43.17603" lon="-0.18244">
        <ele>352.94</ele>
        <time>2014-11-02T16:35:47Z</time>
      </trkpt>
      <trkpt lat="43.17605" lon="-0.18248">
        <ele>353.42</ele>
        <time>2014-11-02T16:35:48Z</time>
      </trkpt>
      <trkpt lat="43.17606" lon="-0.18253">
        <ele>353.9</ele>
        <time>2014-11-02T16:35:49Z</time>
      </trkpt>
      <trkpt lat="43.17607" lon="-0.18257">
        <ele>352.94</ele>
        <time>2014-11-02T16:35:50Z</time>
      </trkpt>
      <trkpt lat="43.17608" lon="-0.18261">
        <ele>353.9</ele>
        <time>2014-11-02T16:35:51Z</time>
      </trkpt>
      <trkpt lat="43.1761" lon="-0.18263">
        <ele>353.42</ele>
        <time>2014-11-02T16:35:52Z</time>
      </trkpt>
      <trkpt lat="43.17611" lon="-0.18266">
        <ele>352.94</ele>
        <time>2014-11-02T16:35:53Z</time>
      </trkpt>
      <trkpt lat="43.17612" lon="-0.1827">
        <ele>352.94</ele>
        <time>2014-11-02T16:35:54Z</time>
      </trkpt>
      <trkpt lat="43.17612" lon="-0.18275">
        <ele>352.46</ele>
        <time>2014-11-02T16:35:55Z</time>
      </trkpt>
      <trkpt lat="43.17614" lon="-0.18281">
        <ele>351.98</ele>
        <time>2014-11-02T16:35:56Z</time>
      </trkpt>
      <trkpt lat="43.17615" lon="-0.18288">
        <ele>351.5</ele>
        <time>2014-11-02T16:35:57Z</time>
      </trkpt>
      <trkpt lat="43.17617" lon="-0.18296">
        <ele>351.02</ele>
        <time>2014-11-02T16:35:58Z</time>
      </trkpt>
      <trkpt lat="43.17619" lon="-0.18302">
        <ele>350.54</ele>
        <time>2014-11-02T16:35:59Z</time>
      </trkpt>
      <trkpt lat="43.17627" lon="-0.18319">
        <ele>349.58</ele>
        <time>2014-11-02T16:36:03Z</time>
      </trkpt>
      <trkpt lat="43.17628" lon="-0.18324">
        <ele>349.58</ele>
        <time>2014-11-02T16:36:04Z</time>
      </trkpt>
      <trkpt lat="43.1763" lon="-0.18328">
        <ele>349.58</ele>
        <time>2014-11-02T16:36:05Z</time>
      </trkpt>
      <trkpt lat="43.17632" lon="-0.18333">
        <ele>349.58</ele>
        <time>2014-11-02T16:36:06Z</time>
      </trkpt>
      <trkpt lat="43.17634" lon="-0.18338">
        <ele>350.06</ele>
        <time>2014-11-02T16:36:07Z</time>
      </trkpt>
      <trkpt lat="43.17636" lon="-0.18344">
        <ele>349.58</ele>
        <time>2014-11-02T16:36:08Z</time>
      </trkpt>
      <trkpt lat="43.17637" lon="-0.1835">
        <ele>349.58</ele>
        <time>2014-11-02T16:36:09Z</time>
      </trkpt>
      <trkpt lat="43.17639" lon="-0.18355">
        <ele>349.58</ele>
        <time>2014-11-02T16:36:10Z</time>
      </trkpt>
      <trkpt lat="43.17642" lon="-0.18369">
        <ele>349.58</ele>
        <time>2014-11-02T16:36:13Z</time>
      </trkpt>
      <trkpt lat="43.17656" lon="-0.18399">
        <ele>348.62</ele>
        <time>2014-11-02T16:36:20Z</time>
      </trkpt>
      <trkpt lat="43.17657" lon="-0.18401">
        <ele>348.13</ele>
        <time>2014-11-02T16:36:21Z</time>
      </trkpt>
      <trkpt lat="43.17658" lon="-0.18406">
        <ele>347.65</ele>
        <time>2014-11-02T16:36:24Z</time>
      </trkpt>
      <trkpt lat="43.17664" lon="-0.18415">
        <ele>348.62</ele>
        <time>2014-11-02T16:36:25Z</time>
      </trkpt>
      <trkpt lat="43.17668" lon="-0.18421">
        <ele>347.65</ele>
        <time>2014-11-02T16:36:26Z</time>
      </trkpt>
      <trkpt lat="43.17671" lon="-0.18426">
        <ele>347.65</ele>
        <time>2014-11-02T16:36:27Z</time>
      </trkpt>
      <trkpt lat="43.17674" lon="-0.18431">
        <ele>347.65</ele>
        <time>2014-11-02T16:36:28Z</time>
      </trkpt>
      <trkpt lat="43.17678" lon="-0.18436">
        <ele>347.65</ele>
        <time>2014-11-02T16:36:29Z</time>
      </trkpt>
      <trkpt lat="43.17681" lon="-0.18441">
        <ele>346.69</ele>
        <time>2014-11-02T16:36:30Z</time>
      </trkpt>
      <trkpt lat="43.17685" lon="-0.18446">
        <ele>347.65</ele>
        <time>2014-11-02T16:36:31Z</time>
      </trkpt>
      <trkpt lat="43.17688" lon="-0.18452">
        <ele>347.65</ele>
        <time>2014-11-02T16:36:32Z</time>
      </trkpt>
      <trkpt lat="43.17689" lon="-0.18456">
        <ele>347.65</ele>
        <time>2014-11-02T16:36:33Z</time>
      </trkpt>
      <trkpt lat="43.17709" lon="-0.18487">
        <ele>345.73</ele>
        <time>2014-11-02T16:36:42Z</time>
      </trkpt>
      <trkpt lat="43.17712" lon="-0.18489">
        <ele>345.25</ele>
        <time>2014-11-02T16:36:43Z</time>
      </trkpt>
      <trkpt lat="43.17715" lon="-0.18491">
        <ele>345.25</ele>
        <time>2014-11-02T16:36:44Z</time>
      </trkpt>
      <trkpt lat="43.17717" lon="-0.18494">
        <ele>345.25</ele>
        <time>2014-11-02T16:36:45Z</time>
      </trkpt>
      <trkpt lat="43.17719" lon="-0.18497">
        <ele>345.73</ele>
        <time>2014-11-02T16:36:46Z</time>
      </trkpt>
      <trkpt lat="43.17738" lon="-0.18528">
        <ele>344.29</ele>
        <time>2014-11-02T16:36:52Z</time>
      </trkpt>
      <trkpt lat="43.17739" lon="-0.18533">
        <ele>343.81</ele>
        <time>2014-11-02T16:36:53Z</time>
      </trkpt>
      <trkpt lat="43.17738" lon="-0.18537">
        <ele>343.81</ele>
        <time>2014-11-02T16:36:54Z</time>
      </trkpt>
      <trkpt lat="43.17735" lon="-0.18554">
        <ele>343.81</ele>
        <time>2014-11-02T16:37:00Z</time>
      </trkpt>
      <trkpt lat="43.17734" lon="-0.18556">
        <ele>344.29</ele>
        <time>2014-11-02T16:37:03Z</time>
      </trkpt>
      <trkpt lat="43.17734" lon="-0.18559">
        <ele>344.29</ele>
        <time>2014-11-02T16:37:06Z</time>
      </trkpt>
      <trkpt lat="43.17719" lon="-0.18573">
        <ele>344.77</ele>
        <time>2014-11-02T16:37:17Z</time>
      </trkpt>
      <trkpt lat="43.17718" lon="-0.18575">
        <ele>345.25</ele>
        <time>2014-11-02T16:37:19Z</time>
      </trkpt>
      <trkpt lat="43.17717" lon="-0.18584">
        <ele>345.25</ele>
        <time>2014-11-02T16:37:24Z</time>
      </trkpt>
      <trkpt lat="43.17717" lon="-0.18587">
        <ele>344.77</ele>
        <time>2014-11-02T16:37:26Z</time>
      </trkpt>
      <trkpt lat="43.17718" lon="-0.18592">
        <ele>345.73</ele>
        <time>2014-11-02T16:37:34Z</time>
      </trkpt>
      <trkpt lat="43.17718" lon="-0.18594">
        <ele>345.25</ele>
        <time>2014-11-02T16:37:36Z</time>
      </trkpt>
      <trkpt lat="43.1772" lon="-0.18601">
        <ele>345.25</ele>
        <time>2014-11-02T16:37:38Z</time>
      </trkpt>
      <trkpt lat="43.17736" lon="-0.18628">
        <ele>345.25</ele>
        <time>2014-11-02T16:37:45Z</time>
      </trkpt>
      <trkpt lat="43.17739" lon="-0.18636">
        <ele>344.77</ele>
        <time>2014-11-02T16:37:47Z</time>
      </trkpt>
      <trkpt lat="43.17757" lon="-0.18673">
        <ele>345.25</ele>
        <time>2014-11-02T16:37:58Z</time>
      </trkpt>
      <trkpt lat="43.17764" lon="-0.18684">
        <ele>344.29</ele>
        <time>2014-11-02T16:38:02Z</time>
      </trkpt>
      <trkpt lat="43.17791" lon="-0.1872">
        <ele>343.81</ele>
        <time>2014-11-02T16:38:11Z</time>
      </trkpt>
      <trkpt lat="43.17798" lon="-0.18732">
        <ele>344.29</ele>
        <time>2014-11-02T16:38:19Z</time>
      </trkpt>
      <trkpt lat="43.17803" lon="-0.18743">
        <ele>345.73</ele>
        <time>2014-11-02T16:38:34Z</time>
      </trkpt>
      <trkpt lat="43.17807" lon="-0.18748">
        <ele>345.25</ele>
        <time>2014-11-02T16:38:36Z</time>
      </trkpt>
      <trkpt lat="43.17824" lon="-0.18778">
        <ele>346.69</ele>
        <time>2014-11-02T16:38:46Z</time>
      </trkpt>
      <trkpt lat="43.17827" lon="-0.18784">
        <ele>346.21</ele>
        <time>2014-11-02T16:38:48Z</time>
      </trkpt>
      <trkpt lat="43.17841" lon="-0.18831">
        <ele>346.69</ele>
        <time>2014-11-02T16:38:59Z</time>
      </trkpt>
      <trkpt lat="43.17843" lon="-0.18842">
        <ele>346.21</ele>
        <time>2014-11-02T16:39:01Z</time>
      </trkpt>
      <trkpt lat="43.17858" lon="-0.18887">
        <ele>346.69</ele>
        <time>2014-11-02T16:39:08Z</time>
      </trkpt>
      <trkpt lat="43.17865" lon="-0.18903">
        <ele>346.21</ele>
        <time>2014-11-02T16:39:11Z</time>
      </trkpt>
      <trkpt lat="43.17888" lon="-0.18955">
        <ele>345.73</ele>
        <time>2014-11-02T16:39:19Z</time>
      </trkpt>
      <trkpt lat="43.179" lon="-0.18989">
        <ele>344.77</ele>
        <time>2014-11-02T16:39:24Z</time>
      </trkpt>
      <trkpt lat="43.17903" lon="-0.19004">
        <ele>344.77</ele>
        <time>2014-11-02T16:39:26Z</time>
      </trkpt>
      <trkpt lat="43.17917" lon="-0.19035">
        <ele>343.81</ele>
        <time>2014-11-02T16:39:30Z</time>
      </trkpt>
      <trkpt lat="43.17945" lon="-0.191">
        <ele>342.37</ele>
        <time>2014-11-02T16:39:40Z</time>
      </trkpt>
      <trkpt lat="43.17951" lon="-0.1911">
        <ele>341.41</ele>
        <time>2014-11-02T16:39:41Z</time>
      </trkpt>
      <trkpt lat="43.17957" lon="-0.19119">
        <ele>341.89</ele>
        <time>2014-11-02T16:39:42Z</time>
      </trkpt>
      <trkpt lat="43.17972" lon="-0.19147">
        <ele>340.44</ele>
        <time>2014-11-02T16:39:47Z</time>
      </trkpt>
      <trkpt lat="43.17977" lon="-0.1916">
        <ele>340.44</ele>
        <time>2014-11-02T16:39:53Z</time>
      </trkpt>
      <trkpt lat="43.17978" lon="-0.19162">
        <ele>339.96</ele>
        <time>2014-11-02T16:39:54Z</time>
      </trkpt>
      <trkpt lat="43.17979" lon="-0.19163">
        <ele>340.44</ele>
        <time>2014-11-02T16:39:55Z</time>
      </trkpt>
      <trkpt lat="43.17979" lon="-0.19165">
        <ele>340.44</ele>
        <time>2014-11-02T16:39:56Z</time>
      </trkpt>
      <trkpt lat="43.1798" lon="-0.19166">
        <ele>340.44</ele>
        <time>2014-11-02T16:39:57Z</time>
      </trkpt>
      <trkpt lat="43.17981" lon="-0.19167">
        <ele>340.44</ele>
        <time>2014-11-02T16:39:58Z</time>
      </trkpt>
      <trkpt lat="43.17982" lon="-0.19169">
        <ele>340.44</ele>
        <time>2014-11-02T16:39:59Z</time>
      </trkpt>
      <trkpt lat="43.17983" lon="-0.19172">
        <ele>340.44</ele>
        <time>2014-11-02T16:40:00Z</time>
      </trkpt>
      <trkpt lat="43.17985" lon="-0.19174">
        <ele>340.44</ele>
        <time>2014-11-02T16:40:01Z</time>
      </trkpt>
      <trkpt lat="43.17986" lon="-0.19176">
        <ele>340.44</ele>
        <time>2014-11-02T16:40:02Z</time>
      </trkpt>
      <trkpt lat="43.17987" lon="-0.19178">
        <ele>340.44</ele>
        <time>2014-11-02T16:40:03Z</time>
      </trkpt>
      <trkpt lat="43.17989" lon="-0.1918">
        <ele>340.44</ele>
        <time>2014-11-02T16:40:04Z</time>
      </trkpt>
      <trkpt lat="43.17991" lon="-0.19182">
        <ele>339.96</ele>
        <time>2014-11-02T16:40:05Z</time>
      </trkpt>
      <trkpt lat="43.17992" lon="-0.19184">
        <ele>339.96</ele>
        <time>2014-11-02T16:40:06Z</time>
      </trkpt>
      <trkpt lat="43.18005" lon="-0.19209">
        <ele>339.96</ele>
        <time>2014-11-02T16:40:15Z</time>
      </trkpt>
      <trkpt lat="43.1802" lon="-0.19228">
        <ele>339.96</ele>
        <time>2014-11-02T16:40:24Z</time>
      </trkpt>
      <trkpt lat="43.18038" lon="-0.1925">
        <ele>339.48</ele>
        <time>2014-11-02T16:40:33Z</time>
      </trkpt>
      <trkpt lat="43.18043" lon="-0.19262">
        <ele>340.44</ele>
        <time>2014-11-02T16:40:39Z</time>
      </trkpt>
      <trkpt lat="43.18046" lon="-0.19265">
        <ele>340.44</ele>
        <time>2014-11-02T16:40:41Z</time>
      </trkpt>
      <trkpt lat="43.18059" lon="-0.19282">
        <ele>341.41</ele>
        <time>2014-11-02T16:40:51Z</time>
      </trkpt>
      <trkpt lat="43.1806" lon="-0.19284">
        <ele>341.41</ele>
        <time>2014-11-02T16:40:52Z</time>
      </trkpt>
      <trkpt lat="43.18063" lon="-0.19293">
        <ele>341.89</ele>
        <time>2014-11-02T16:40:56Z</time>
      </trkpt>
      <trkpt lat="43.18064" lon="-0.19295">
        <ele>341.89</ele>
        <time>2014-11-02T16:40:57Z</time>
      </trkpt>
      <trkpt lat="43.18064" lon="-0.19297">
        <ele>342.37</ele>
        <time>2014-11-02T16:40:58Z</time>
      </trkpt>
      <trkpt lat="43.18064" lon="-0.193">
        <ele>342.37</ele>
        <time>2014-11-02T16:40:59Z</time>
      </trkpt>
      <trkpt lat="43.18065" lon="-0.19303">
        <ele>342.37</ele>
        <time>2014-11-02T16:41:00Z</time>
      </trkpt>
      <trkpt lat="43.18066" lon="-0.19305">
        <ele>342.85</ele>
        <time>2014-11-02T16:41:01Z</time>
      </trkpt>
      <trkpt lat="43.18074" lon="-0.19333">
        <ele>343.33</ele>
        <time>2014-11-02T16:41:10Z</time>
      </trkpt>
      <trkpt lat="43.18077" lon="-0.1934">
        <ele>343.81</ele>
        <time>2014-11-02T16:41:13Z</time>
      </trkpt>
      <trkpt lat="43.18079" lon="-0.19342">
        <ele>343.81</ele>
        <time>2014-11-02T16:41:14Z</time>
      </trkpt>
      <trkpt lat="43.18081" lon="-0.19343">
        <ele>343.81</ele>
        <time>2014-11-02T16:41:15Z</time>
      </trkpt>
      <trkpt lat="43.18082" lon="-0.19345">
        <ele>343.81</ele>
        <time>2014-11-02T16:41:16Z</time>
      </trkpt>
      <trkpt lat="43.18084" lon="-0.19348">
        <ele>343.81</ele>
        <time>2014-11-02T16:41:17Z</time>
      </trkpt>
      <trkpt lat="43.18092" lon="-0.19366">
        <ele>344.29</ele>
        <time>2014-11-02T16:41:22Z</time>
      </trkpt>
      <trkpt lat="43.18093" lon="-0.19369">
        <ele>344.29</ele>
        <time>2014-11-02T16:41:23Z</time>
      </trkpt>
      <trkpt lat="43.1811" lon="-0.19392">
        <ele>344.77</ele>
        <time>2014-11-02T16:41:33Z</time>
      </trkpt>
      <trkpt lat="43.18115" lon="-0.19399">
        <ele>343.81</ele>
        <time>2014-11-02T16:41:36Z</time>
      </trkpt>
      <trkpt lat="43.18116" lon="-0.19401">
        <ele>343.81</ele>
        <time>2014-11-02T16:41:37Z</time>
      </trkpt>
      <trkpt lat="43.18117" lon="-0.19404">
        <ele>343.81</ele>
        <time>2014-11-02T16:41:38Z</time>
      </trkpt>
      <trkpt lat="43.18119" lon="-0.19407">
        <ele>343.33</ele>
        <time>2014-11-02T16:41:39Z</time>
      </trkpt>
      <trkpt lat="43.18121" lon="-0.19409">
        <ele>343.33</ele>
        <time>2014-11-02T16:41:40Z</time>
      </trkpt>
      <trkpt lat="43.18125" lon="-0.19415">
        <ele>342.85</ele>
        <time>2014-11-02T16:41:42Z</time>
      </trkpt>
      <trkpt lat="43.18127" lon="-0.19418">
        <ele>342.85</ele>
        <time>2014-11-02T16:41:43Z</time>
      </trkpt>
      <trkpt lat="43.18128" lon="-0.1942">
        <ele>342.37</ele>
        <time>2014-11-02T16:41:44Z</time>
      </trkpt>
      <trkpt lat="43.18129" lon="-0.19424">
        <ele>342.37</ele>
        <time>2014-11-02T16:41:45Z</time>
      </trkpt>
      <trkpt lat="43.18131" lon="-0.19426">
        <ele>341.89</ele>
        <time>2014-11-02T16:41:46Z</time>
      </trkpt>
      <trkpt lat="43.18133" lon="-0.1943">
        <ele>342.85</ele>
        <time>2014-11-02T16:41:47Z</time>
      </trkpt>
      <trkpt lat="43.18135" lon="-0.19434">
        <ele>342.37</ele>
        <time>2014-11-02T16:41:48Z</time>
      </trkpt>
      <trkpt lat="43.18137" lon="-0.19438">
        <ele>342.37</ele>
        <time>2014-11-02T16:41:49Z</time>
      </trkpt>
      <trkpt lat="43.18139" lon="-0.19442">
        <ele>341.89</ele>
        <time>2014-11-02T16:41:50Z</time>
      </trkpt>
      <trkpt lat="43.18141" lon="-0.19446">
        <ele>341.89</ele>
        <time>2014-11-02T16:41:51Z</time>
      </trkpt>
      <trkpt lat="43.18159" lon="-0.19477">
        <ele>341.89</ele>
        <time>2014-11-02T16:42:02Z</time>
      </trkpt>
      <trkpt lat="43.18186" lon="-0.19508">
        <ele>340.44</ele>
        <time>2014-11-02T16:42:11Z</time>
      </trkpt>
      <trkpt lat="43.18214" lon="-0.1955">
        <ele>339.48</ele>
        <time>2014-11-02T16:42:20Z</time>
      </trkpt>
      <trkpt lat="43.18241" lon="-0.19596">
        <ele>339</ele>
        <time>2014-11-02T16:42:30Z</time>
      </trkpt>
      <trkpt lat="43.18265" lon="-0.19637">
        <ele>337.56</ele>
        <time>2014-11-02T16:42:40Z</time>
      </trkpt>
      <trkpt lat="43.18296" lon="-0.19686">
        <ele>336.12</ele>
        <time>2014-11-02T16:42:52Z</time>
      </trkpt>
      <trkpt lat="43.18316" lon="-0.19729">
        <ele>335.16</ele>
        <time>2014-11-02T16:43:01Z</time>
      </trkpt>
      <trkpt lat="43.18338" lon="-0.19773">
        <ele>334.68</ele>
        <time>2014-11-02T16:43:12Z</time>
      </trkpt>
      <trkpt lat="43.18362" lon="-0.19803">
        <ele>333.71</ele>
        <time>2014-11-02T16:43:22Z</time>
      </trkpt>
      <trkpt lat="43.18371" lon="-0.19816">
        <ele>332.27</ele>
        <time>2014-11-02T16:43:27Z</time>
      </trkpt>
      <trkpt lat="43.18373" lon="-0.19818">
        <ele>332.27</ele>
        <time>2014-11-02T16:43:28Z</time>
      </trkpt>
      <trkpt lat="43.18376" lon="-0.19821">
        <ele>332.27</ele>
        <time>2014-11-02T16:43:29Z</time>
      </trkpt>
      <trkpt lat="43.18378" lon="-0.19824">
        <ele>331.79</ele>
        <time>2014-11-02T16:43:30Z</time>
      </trkpt>
      <trkpt lat="43.1838" lon="-0.19827">
        <ele>331.79</ele>
        <time>2014-11-02T16:43:31Z</time>
      </trkpt>
      <trkpt lat="43.18382" lon="-0.19829">
        <ele>331.31</ele>
        <time>2014-11-02T16:43:32Z</time>
      </trkpt>
      <trkpt lat="43.18384" lon="-0.19831">
        <ele>331.31</ele>
        <time>2014-11-02T16:43:33Z</time>
      </trkpt>
      <trkpt lat="43.18405" lon="-0.19862">
        <ele>330.83</ele>
        <time>2014-11-02T16:43:42Z</time>
      </trkpt>
      <trkpt lat="43.1841" lon="-0.19879">
        <ele>330.35</ele>
        <time>2014-11-02T16:43:47Z</time>
      </trkpt>
      <trkpt lat="43.18411" lon="-0.19881">
        <ele>329.87</ele>
        <time>2014-11-02T16:43:48Z</time>
      </trkpt>
      <trkpt lat="43.18412" lon="-0.19882">
        <ele>329.87</ele>
        <time>2014-11-02T16:43:49Z</time>
      </trkpt>
      <trkpt lat="43.18416" lon="-0.19887">
        <ele>328.91</ele>
        <time>2014-11-02T16:44:00Z</time>
      </trkpt>
      <trkpt lat="43.18417" lon="-0.19887">
        <ele>328.91</ele>
        <time>2014-11-02T16:44:01Z</time>
      </trkpt>
      <trkpt lat="43.18418" lon="-0.19888">
        <ele>328.91</ele>
        <time>2014-11-02T16:44:02Z</time>
      </trkpt>
      <trkpt lat="43.18423" lon="-0.1989">
        <ele>328.91</ele>
        <time>2014-11-02T16:44:04Z</time>
      </trkpt>
      <trkpt lat="43.18427" lon="-0.19901">
        <ele>329.39</ele>
        <time>2014-11-02T16:44:06Z</time>
      </trkpt>
      <trkpt lat="43.18428" lon="-0.19907">
        <ele>329.87</ele>
        <time>2014-11-02T16:44:07Z</time>
      </trkpt>
      <trkpt lat="43.18429" lon="-0.19912">
        <ele>329.87</ele>
        <time>2014-11-02T16:44:08Z</time>
      </trkpt>
      <trkpt lat="43.1843" lon="-0.19919">
        <ele>330.35</ele>
        <time>2014-11-02T16:44:09Z</time>
      </trkpt>
      <trkpt lat="43.18432" lon="-0.19926">
        <ele>330.35</ele>
        <time>2014-11-02T16:44:10Z</time>
      </trkpt>
      <trkpt lat="43.18435" lon="-0.19934">
        <ele>331.79</ele>
        <time>2014-11-02T16:44:11Z</time>
      </trkpt>
      <trkpt lat="43.18448" lon="-0.19977">
        <ele>331.79</ele>
        <time>2014-11-02T16:44:17Z</time>
      </trkpt>
      <trkpt lat="43.18486" lon="-0.20072">
        <ele>329.39</ele>
        <time>2014-11-02T16:44:32Z</time>
      </trkpt>
      <trkpt lat="43.18515" lon="-0.20143">
        <ele>329.39</ele>
        <time>2014-11-02T16:44:45Z</time>
      </trkpt>
      <trkpt lat="43.18561" lon="-0.20251">
        <ele>326.99</ele>
        <time>2014-11-02T16:45:02Z</time>
      </trkpt>
      <trkpt lat="43.18604" lon="-0.20348">
        <ele>325.06</ele>
        <time>2014-11-02T16:45:18Z</time>
      </trkpt>
      <trkpt lat="43.18632" lon="-0.20413">
        <ele>323.62</ele>
        <time>2014-11-02T16:45:30Z</time>
      </trkpt>
      <trkpt lat="43.18634" lon="-0.20419">
        <ele>323.14</ele>
        <time>2014-11-02T16:45:31Z</time>
      </trkpt>
      <trkpt lat="43.18637" lon="-0.20424">
        <ele>322.66</ele>
        <time>2014-11-02T16:45:32Z</time>
      </trkpt>
      <trkpt lat="43.18678" lon="-0.20524">
        <ele>319.78</ele>
        <time>2014-11-02T16:45:50Z</time>
      </trkpt>
      <trkpt lat="43.18713" lon="-0.2061">
        <ele>318.33</ele>
        <time>2014-11-02T16:46:05Z</time>
      </trkpt>
      <trkpt lat="43.18731" lon="-0.20657">
        <ele>316.89</ele>
        <time>2014-11-02T16:46:13Z</time>
      </trkpt>
      <trkpt lat="43.1874" lon="-0.20711">
        <ele>314.97</ele>
        <time>2014-11-02T16:46:20Z</time>
      </trkpt>
      <trkpt lat="43.18745" lon="-0.20781">
        <ele>311.12</ele>
        <time>2014-11-02T16:46:27Z</time>
      </trkpt>
      <trkpt lat="43.18748" lon="-0.20805">
        <ele>310.64</ele>
        <time>2014-11-02T16:46:29Z</time>
      </trkpt>
      <trkpt lat="43.18751" lon="-0.20817">
        <ele>310.16</ele>
        <time>2014-11-02T16:46:30Z</time>
      </trkpt>
      <trkpt lat="43.18755" lon="-0.20828">
        <ele>309.2</ele>
        <time>2014-11-02T16:46:31Z</time>
      </trkpt>
      <trkpt lat="43.1876" lon="-0.20838">
        <ele>308.72</ele>
        <time>2014-11-02T16:46:32Z</time>
      </trkpt>
      <trkpt lat="43.18766" lon="-0.20846">
        <ele>308.72</ele>
        <time>2014-11-02T16:46:33Z</time>
      </trkpt>
      <trkpt lat="43.18773" lon="-0.20853">
        <ele>308.24</ele>
        <time>2014-11-02T16:46:34Z</time>
      </trkpt>
      <trkpt lat="43.1878" lon="-0.20858">
        <ele>308.24</ele>
        <time>2014-11-02T16:46:35Z</time>
      </trkpt>
      <trkpt lat="43.18853" lon="-0.20913">
        <ele>305.84</ele>
        <time>2014-11-02T16:46:48Z</time>
      </trkpt>
      <trkpt lat="43.18915" lon="-0.20959">
        <ele>306.8</ele>
        <time>2014-11-02T16:47:01Z</time>
      </trkpt>
      <trkpt lat="43.18925" lon="-0.20967">
        <ele>305.36</ele>
        <time>2014-11-02T16:47:03Z</time>
      </trkpt>
      <trkpt lat="43.1893" lon="-0.2097">
        <ele>305.84</ele>
        <time>2014-11-02T16:47:04Z</time>
      </trkpt>
      <trkpt lat="43.18935" lon="-0.20974">
        <ele>304.39</ele>
        <time>2014-11-02T16:47:05Z</time>
      </trkpt>
      <trkpt lat="43.18939" lon="-0.20978">
        <ele>304.88</ele>
        <time>2014-11-02T16:47:06Z</time>
      </trkpt>
      <trkpt lat="43.18943" lon="-0.20981">
        <ele>303.91</ele>
        <time>2014-11-02T16:47:07Z</time>
      </trkpt>
      <trkpt lat="43.19" lon="-0.21028">
        <ele>303.43</ele>
        <time>2014-11-02T16:47:20Z</time>
      </trkpt>
      <trkpt lat="43.19059" lon="-0.21075">
        <ele>302.47</ele>
        <time>2014-11-02T16:47:32Z</time>
      </trkpt>
      <trkpt lat="43.19125" lon="-0.21128">
        <ele>301.99</ele>
        <time>2014-11-02T16:47:48Z</time>
      </trkpt>
      <trkpt lat="43.19143" lon="-0.21143">
        <ele>301.03</ele>
        <time>2014-11-02T16:47:55Z</time>
      </trkpt>
      <trkpt lat="43.19146" lon="-0.21141">
        <ele>301.51</ele>
        <time>2014-11-02T16:47:56Z</time>
      </trkpt>
      <trkpt lat="43.19148" lon="-0.21138">
        <ele>301.03</ele>
        <time>2014-11-02T16:47:57Z</time>
      </trkpt>
      <trkpt lat="43.1915" lon="-0.21135">
        <ele>301.51</ele>
        <time>2014-11-02T16:47:58Z</time>
      </trkpt>
      <trkpt lat="43.19151" lon="-0.21131">
        <ele>301.51</ele>
        <time>2014-11-02T16:47:59Z</time>
      </trkpt>
      <trkpt lat="43.19153" lon="-0.21128">
        <ele>301.51</ele>
        <time>2014-11-02T16:48:00Z</time>
      </trkpt>
      <trkpt lat="43.19169" lon="-0.211">
        <ele>301.03</ele>
        <time>2014-11-02T16:48:14Z</time>
      </trkpt>
      <trkpt lat="43.19175" lon="-0.21095">
        <ele>301.03</ele>
        <time>2014-11-02T16:48:19Z</time>
      </trkpt>
      <trkpt lat="43.19177" lon="-0.21092">
        <ele>300.55</ele>
        <time>2014-11-02T16:48:20Z</time>
      </trkpt>
      <trkpt lat="43.19178" lon="-0.21089">
        <ele>301.03</ele>
        <time>2014-11-02T16:48:21Z</time>
      </trkpt>
      <trkpt lat="43.19205" lon="-0.2104">
        <ele>300.07</ele>
        <time>2014-11-02T16:48:34Z</time>
      </trkpt>
      <trkpt lat="43.19215" lon="-0.21035">
        <ele>300.07</ele>
        <time>2014-11-02T16:48:37Z</time>
      </trkpt>
      <trkpt lat="43.19217" lon="-0.21031">
        <ele>300.07</ele>
        <time>2014-11-02T16:48:38Z</time>
      </trkpt>
      <trkpt lat="43.19218" lon="-0.21025">
        <ele>300.07</ele>
        <time>2014-11-02T16:48:39Z</time>
      </trkpt>
      <trkpt lat="43.19222" lon="-0.20989">
        <ele>299.59</ele>
        <time>2014-11-02T16:48:47Z</time>
      </trkpt>
      <trkpt lat="43.19228" lon="-0.20984">
        <ele>299.59</ele>
        <time>2014-11-02T16:48:50Z</time>
      </trkpt>
      <trkpt lat="43.19254" lon="-0.20992">
        <ele>299.11</ele>
        <time>2014-11-02T16:49:04Z</time>
      </trkpt>
      <trkpt lat="43.19241" lon="-0.20991">
        <ele>299.11</ele>
        <time>2014-11-02T16:49:13Z</time>
      </trkpt>
      <trkpt lat="43.19222" lon="-0.20987">
        <ele>299.11</ele>
        <time>2014-11-02T16:49:25Z</time>
      </trkpt>
      <trkpt lat="43.19221" lon="-0.20987">
        <ele>298.63</ele>
        <time>2014-11-02T16:49:26Z</time>
      </trkpt>
      <trkpt lat="43.1922" lon="-0.20988">
        <ele>298.63</ele>
        <time>2014-11-02T16:49:30Z</time>
      </trkpt>
      <trkpt lat="43.19223" lon="-0.20999">
        <ele>298.63</ele>
        <time>2014-11-02T16:49:37Z</time>
      </trkpt>
      <trkpt lat="43.19219" lon="-0.21019">
        <ele>299.11</ele>
        <time>2014-11-02T16:49:42Z</time>
      </trkpt>
      <trkpt lat="43.19211" lon="-0.21036">
        <ele>299.11</ele>
        <time>2014-11-02T16:49:48Z</time>
      </trkpt>
      <trkpt lat="43.19205" lon="-0.21038">
        <ele>299.11</ele>
        <time>2014-11-02T16:49:50Z</time>
      </trkpt>
      <trkpt lat="43.19199" lon="-0.21058">
        <ele>299.11</ele>
        <time>2014-11-02T16:49:58Z</time>
      </trkpt>
      <trkpt lat="43.19194" lon="-0.21065">
        <ele>299.11</ele>
        <time>2014-11-02T16:50:00Z</time>
      </trkpt>
      <trkpt lat="43.19175" lon="-0.21094">
        <ele>299.11</ele>
        <time>2014-11-02T16:50:08Z</time>
      </trkpt>
      <trkpt lat="43.19164" lon="-0.21102">
        <ele>298.63</ele>
        <time>2014-11-02T16:50:17Z</time>
      </trkpt>
      <trkpt lat="43.19161" lon="-0.21109">
        <ele>298.63</ele>
        <time>2014-11-02T16:50:23Z</time>
      </trkpt>
      <trkpt lat="43.19166" lon="-0.21116">
        <ele>298.63</ele>
        <time>2014-11-02T16:50:33Z</time>
      </trkpt>
      <trkpt lat="43.19166" lon="-0.21122">
        <ele>298.15</ele>
        <time>2014-11-02T16:50:44Z</time>
      </trkpt>
      <trkpt lat="43.19164" lon="-0.21121">
        <ele>297.67</ele>
        <time>2014-11-02T16:50:56Z</time>
      </trkpt>
      <trkpt lat="43.19162" lon="-0.21119">
        <ele>298.15</ele>
        <time>2014-11-02T16:51:15Z</time>
      </trkpt>
      <trkpt lat="43.19163" lon="-0.21118">
        <ele>297.67</ele>
        <time>2014-11-02T16:51:39Z</time>
      </trkpt>
      <trkpt lat="43.19163" lon="-0.21118">
        <ele>297.18</ele>
        <time>2014-11-02T16:51:40Z</time>
      </trkpt>
    </trkseg>
  </trk>
</gpx>